Darstellungsparameter: Aktuell verwendete Einstellungen:
Skalierung der Graphiken ... ?
xyx+y,   Skalierungsfaktor:      Skalierung: Modus: x, Faktor: 1
Darstellungszeitraum ... ?
Vom - - bis: - -   Zeitraum: 03.01.2015 - 03.07.2015
Min/Max/Avg-Anzeige ... ?
Zeige MMA aktuell
Zeige MMA Monat
Zeige MMA alles
Zeige --A aktuell
Zeige --A Monat
Zeige --A alles
Keine MMA-Anzeige
MMA:
Average (ber die Originaldaten)
MMA-Basis: 03.01.2015 - 03.07.2015
Quicknavigation für Darstellung... ?
Tage:      1T, 2T, 3T, 5T -1T -2T -3T -5T +1T +2T +3T +5T
Wochen: 1W, 2W, 3W -1W -2W -3W +1W +2W +3W
Monate: 1M, 3M, 6M -1M -3M -6M +1M +3M +6M
Jahre:    1J, 3J, 5J, 10J -1J -3J -5J -10J +1J +3J +5J +10J
Nutze für die Darstellung ... ?
Originaldaten oder Mittelwerte auf ...
Stundenbasis Tagesbasis Wochenbasis
Monatsbasis Jahresbasis      Datenbasis: Original-Daten
Darstellen als:
Statistik (Auto) Statistik J:M      Darstellung:
Zur Graphik,    zurück zur Übersicht aller Sensoren.
 
Tabellarische Datenbersicht: ?
 
<
Sensor: Nr:Datum:Temp:Abs-Feuchte:Windchill:Wind:
Aussen-T/F 1 03-01-2015 00:00:00 2.2 C 5.13 g/m*3 2.2 C 1.6 km/h
2 03-01-2015 00:05:00 2 C 5.06 g/m*3 2 C 1.6 km/h
3 03-01-2015 00:10:00 1.8 C 5.04 g/m*3 1.8 C 4.8 km/h
4 03-01-2015 00:15:00 1.8 C 5.04 g/m*3 1.8 C 3.2 km/h
5 03-01-2015 00:20:00 1.8 C 5.1 g/m*3 1.8 C 3.2 km/h
6 03-01-2015 00:25:00 1.9 C 5.13 g/m*3 0.01 C 6.4 km/h
7 03-01-2015 00:30:00 2.1 C 5.2 g/m*3 0.24 C 6.4 km/h
8 03-01-2015 00:35:00 2.2 C 5.18 g/m*3 0.36 C 6.4 km/h
9 03-01-2015 00:40:00 2.3 C 5.16 g/m*3 2.3 C 4.8 km/h
10 03-01-2015 00:45:00 2.5 C 5.23 g/m*3 -0.62 C 11.3 km/h
11 03-01-2015 00:50:00 2.6 C 5.21 g/m*3 0.82 C 6.4 km/h
12 03-01-2015 00:55:00 2.5 C 5.17 g/m*3 2.5 C 4.8 km/h
13 03-01-2015 01:00:00 2.4 C 5.14 g/m*3 2.4 C 3.2 km/h
14 03-01-2015 01:05:00 2.4 C 5.14 g/m*3 0.59 C 6.4 km/h
15 03-01-2015 01:10:00 2.3 C 5.1 g/m*3 2.3 C 4.8 km/h
16 03-01-2015 01:15:00 2.4 C 5.2 g/m*3 0.59 C 6.4 km/h
17 03-01-2015 01:20:00 2.5 C 5.17 g/m*3 -0.62 C 11.3 km/h
18 03-01-2015 01:25:00 2.5 C 5.17 g/m*3 0.17 C 8.1 km/h
19 03-01-2015 01:30:00 2.4 C 5.14 g/m*3 0.59 C 6.4 km/h
20 03-01-2015 01:35:00 2.4 C 5.14 g/m*3 -0.37 C 9.7 km/h
21 03-01-2015 01:40:00 2.5 C 5.17 g/m*3 -0.62 C 11.3 km/h
22 03-01-2015 01:45:00 2.5 C 5.17 g/m*3 0.71 C 6.4 km/h
23 03-01-2015 01:50:00 2.5 C 5.17 g/m*3 0.17 C 8.1 km/h
24 03-01-2015 01:55:00 2.6 C 5.21 g/m*3 -0.14 C 9.7 km/h
25 03-01-2015 02:00:00 2.6 C 5.21 g/m*3 0.29 C 8.1 km/h
Sensor: Nr:Datum:Temp:Abs-Feuchte:Windchill:Wind:
Aussen-T/F 26 03-01-2015 02:05:00 2.7 C 5.24 g/m*3 -0.71 C 12.9 km/h
27 03-01-2015 02:10:00 2.7 C 5.24 g/m*3 0.4 C 8.1 km/h
28 03-01-2015 02:15:00 2.7 C 5.24 g/m*3 -0.02 C 9.7 km/h
29 03-01-2015 02:20:00 2.7 C 5.24 g/m*3 -0.02 C 9.7 km/h
30 03-01-2015 02:25:00 2.7 C 5.24 g/m*3 0.4 C 8.1 km/h
31 03-01-2015 02:30:00 2.7 C 5.24 g/m*3 -0.02 C 9.7 km/h
32 03-01-2015 02:35:00 2.8 C 5.28 g/m*3 -0.26 C 11.3 km/h
33 03-01-2015 02:40:00 2.8 C 5.28 g/m*3 0.1 C 9.7 km/h
34 03-01-2015 02:45:00 2.8 C 5.22 g/m*3 0.1 C 9.7 km/h
35 03-01-2015 02:50:00 2.8 C 5.22 g/m*3 -0.26 C 11.3 km/h
36 03-01-2015 02:55:00 2.8 C 5.22 g/m*3 0.1 C 9.7 km/h
37 03-01-2015 03:00:00 2.8 C 5.22 g/m*3 0.1 C 9.7 km/h
38 03-01-2015 04:30:00 2.5 C 5.29 g/m*3 -0.62 C 11.3 km/h
39 03-01-2015 04:35:00 2.5 C 5.29 g/m*3 -0.26 C 9.7 km/h
40 03-01-2015 04:40:00 2.5 C 5.29 g/m*3 -0.95 C 12.9 km/h
41 03-01-2015 04:45:00 2.4 C 5.25 g/m*3 -0.74 C 11.3 km/h
42 03-01-2015 04:50:00 2.4 C 5.25 g/m*3 -1.07 C 12.9 km/h
43 03-01-2015 04:55:00 2.4 C 5.25 g/m*3 -1.37 C 14.5 km/h
44 03-01-2015 05:00:00 2.4 C 5.31 g/m*3 -1.07 C 12.9 km/h
45 03-01-2015 05:05:00 2.4 C 5.31 g/m*3 -0.74 C 11.3 km/h
46 03-01-2015 05:10:00 2.5 C 5.35 g/m*3 -0.26 C 9.7 km/h
47 03-01-2015 05:15:00 2.5 C 5.35 g/m*3 -0.95 C 12.9 km/h
48 03-01-2015 05:20:00 2.5 C 5.35 g/m*3 -0.62 C 11.3 km/h
49 03-01-2015 05:25:00 2.6 C 5.38 g/m*3 -0.14 C 9.7 km/h
50 03-01-2015 05:30:00 2.6 C 5.38 g/m*3 0.29 C 8.1 km/h
Sensor: Nr:Datum:Temp:Abs-Feuchte:Windchill:Wind:
Aussen-T/F 51 03-01-2015 05:35:00 2.6 C 5.38 g/m*3 0.29 C 8.1 km/h
52 03-01-2015 06:00:00 2.6 C 5.79 g/m*3 2.6 C 1.6 km/h
53 03-01-2015 06:05:00 2.6 C 5.38 g/m*3 2.6 C 0 km/h
54 03-01-2015 06:10:00 2.6 C 5.38 g/m*3 2.6 C 4.8 km/h
55 03-01-2015 06:15:00 2.6 C 5.38 g/m*3 2.6 C 0 km/h
56 03-01-2015 06:20:00 2.5 C 5.35 g/m*3 2.5 C 0 km/h
57 03-01-2015 06:25:00 2.5 C 5.4 g/m*3 2.5 C 0 km/h
58 03-01-2015 06:30:00 2.5 C 5.4 g/m*3 2.5 C 1.6 km/h
59 03-01-2015 07:45:00 3 C 5.59 g/m*3 3 C 0 km/h
60 03-01-2015 07:50:00 3.1 C 5.63 g/m*3 3.1 C 0 km/h
61 03-01-2015 07:55:00 3.1 C 5.63 g/m*3 3.1 C 0 km/h
62 03-01-2015 11:25:00 4.2 C 5.86 g/m*3 0.84 C 14.5 km/h
63 03-01-2015 11:30:00 4.2 C 5.86 g/m*3 1.77 C 9.7 km/h
64 03-01-2015 11:35:00 4.2 C 5.86 g/m*3 4.2 C 4.8 km/h
65 03-01-2015 11:40:00 4.2 C 5.86 g/m*3 1.43 C 11.3 km/h
66 03-01-2015 11:45:00 4.2 C 5.86 g/m*3 1.77 C 9.7 km/h
67 03-01-2015 12:45:00 3.6 C 5.76 g/m*3 3.6 C 0 km/h
68 03-01-2015 12:50:00 3.6 C 5.76 g/m*3 3.6 C 1.6 km/h
69 03-01-2015 14:05:00 2.1 C 5.31 g/m*3 2.1 C 0 km/h
70 03-01-2015 14:10:00 2 C 5.28 g/m*3 2 C 0 km/h
71 03-01-2015 14:15:00 1.9 C 5.24 g/m*3 1.9 C 0 km/h
72 03-01-2015 14:20:00 1.8 C 5.21 g/m*3 1.8 C 0 km/h
73 03-01-2015 14:25:00 1.8 C 5.21 g/m*3 1.8 C 0 km/h
74 03-01-2015 14:30:00 1.7 C 5.17 g/m*3 1.7 C 0 km/h
75 03-01-2015 14:35:00 1.6 C 5.14 g/m*3 1.6 C 0 km/h
Sensor: Nr:Datum:Temp:Abs-Feuchte:Windchill:Wind:
Aussen-T/F 76 03-01-2015 14:40:00 1.6 C 5.14 g/m*3 1.6 C 0 km/h
77 03-01-2015 14:45:00 1.5 C 5.16 g/m*3 1.5 C 0 km/h
78 03-01-2015 14:50:00 1.6 C 5.19 g/m*3 1.6 C 0 km/h
79 03-01-2015 14:55:00 1.6 C 5.19 g/m*3 1.6 C 0 km/h
80 03-01-2015 15:00:00 1.6 C 5.19 g/m*3 1.6 C 0 km/h
81 03-01-2015 15:05:00 1.7 C 5.23 g/m*3 1.7 C 0 km/h
82 03-01-2015 15:10:00 1.7 C 5.23 g/m*3 1.7 C 0 km/h
83 03-01-2015 15:15:00 1.7 C 5.23 g/m*3 1.7 C 0 km/h
84 03-01-2015 15:20:00 1.7 C 5.23 g/m*3 1.7 C 0 km/h
85 03-01-2015 17:40:00 1.8 C 5.26 g/m*3 1.8 C 0 km/h
86 03-01-2015 17:45:00 1.6 C 5.19 g/m*3 1.6 C 0 km/h
87 03-01-2015 17:50:00 1.6 C 5.25 g/m*3 1.6 C 0 km/h
88 03-01-2015 17:55:00 1.6 C 5.25 g/m*3 1.6 C 0 km/h
89 03-01-2015 18:00:00 1.6 C 5.25 g/m*3 1.6 C 0 km/h
90 03-01-2015 18:05:00 1.6 C 5.25 g/m*3 1.6 C 1.6 km/h
91 03-01-2015 18:10:00 1.7 C 5.28 g/m*3 1.7 C 0 km/h
92 03-01-2015 18:15:00 1.7 C 5.28 g/m*3 1.7 C 3.2 km/h
93 03-01-2015 18:20:00 1.7 C 5.28 g/m*3 1.7 C 0 km/h
94 03-01-2015 18:25:00 1.6 C 5.25 g/m*3 1.6 C 0 km/h
95 03-01-2015 18:30:00 1.4 C 5.17 g/m*3 1.4 C 0 km/h
96 03-01-2015 18:35:00 1.3 C 5.14 g/m*3 1.3 C 0 km/h
97 03-01-2015 18:40:00 1.3 C 5.14 g/m*3 1.3 C 0 km/h
98 03-01-2015 18:45:00 1.2 C 5.1 g/m*3 1.2 C 0 km/h
99 03-01-2015 18:50:00 1.2 C 5.1 g/m*3 1.2 C 0 km/h
100 03-01-2015 18:55:00 1.2 C 5.1 g/m*3 1.2 C 0 km/h
Sensor: Nr:Datum:Temp:Abs-Feuchte:Windchill:Wind:
Aussen-T/F 101 03-01-2015 19:00:00 1.1 C 5.07 g/m*3 1.1 C 0 km/h
102 03-01-2015 19:05:00 1.1 C 5.07 g/m*3 1.1 C 0 km/h
103 03-01-2015 19:10:00 1.1 C 5.07 g/m*3 1.1 C 0 km/h
104 03-01-2015 19:15:00 1 C 5.03 g/m*3 1 C 0 km/h
105 03-01-2015 19:20:00 1 C 5.03 g/m*3 1 C 0 km/h
106 03-01-2015 19:25:00 1 C 5.03 g/m*3 1 C 0 km/h
107 03-01-2015 19:30:00 0.9 C 5 g/m*3 0.9 C 0 km/h
108 03-01-2015 19:35:00 1 C 5.03 g/m*3 1 C 0 km/h
109 03-01-2015 19:40:00 1 C 5.03 g/m*3 1 C 0 km/h
110 03-01-2015 19:45:00 1 C 5.03 g/m*3 1 C 0 km/h
111 03-01-2015 19:50:00 1 C 5.03 g/m*3 1 C 0 km/h
112 03-01-2015 19:55:00 1 C 5.03 g/m*3 1 C 0 km/h
113 03-01-2015 20:00:00 1 C 5.03 g/m*3 1 C 0 km/h
114 03-01-2015 20:05:00 1 C 5.03 g/m*3 1 C 0 km/h
115 03-01-2015 20:10:00 0.9 C 5 g/m*3 0.9 C 0 km/h
116 03-01-2015 20:15:00 0.9 C 5 g/m*3 0.9 C 0 km/h
117 03-01-2015 20:20:00 0.9 C 5 g/m*3 0.9 C 0 km/h
118 03-01-2015 20:25:00 0.9 C 5 g/m*3 0.9 C 0 km/h
119 03-01-2015 20:30:00 0.9 C 5 g/m*3 0.9 C 0 km/h
120 03-01-2015 20:35:00 0.8 C 4.97 g/m*3 0.8 C 0 km/h
121 03-01-2015 20:40:00 0.9 C 5 g/m*3 0.9 C 0 km/h
122 03-01-2015 20:45:00 0.8 C 5.02 g/m*3 0.8 C 0 km/h
123 03-01-2015 20:50:00 0.9 C 5.05 g/m*3 0.9 C 0 km/h
124 03-01-2015 20:55:00 0.9 C 5.05 g/m*3 0.9 C 0 km/h
125 03-01-2015 21:00:00 0.9 C 5.05 g/m*3 0.9 C 1.6 km/h
Sensor: Nr:Datum:Temp:Abs-Feuchte:Windchill:Wind:
Aussen-T/F 126 03-01-2015 21:05:00 0.9 C 5.05 g/m*3 0.9 C 3.2 km/h
127 03-01-2015 21:10:00 0.9 C 5.05 g/m*3 -1.14 C 6.4 km/h
128 03-01-2015 21:15:00 0.9 C 5.05 g/m*3 0.9 C 3.2 km/h
129 03-01-2015 21:20:00 1 C 5.09 g/m*3 1 C 3.2 km/h
130 03-01-2015 21:25:00 1.1 C 5.12 g/m*3 1.1 C 0 km/h
131 03-01-2015 21:30:00 1.2 C 5.16 g/m*3 1.2 C 4.8 km/h
132 03-01-2015 21:35:00 1.3 C 5.19 g/m*3 -0.68 C 6.4 km/h
133 03-01-2015 21:40:00 1.3 C 5.19 g/m*3 1.3 C 4.8 km/h
134 03-01-2015 21:45:00 1.3 C 5.19 g/m*3 1.3 C 4.8 km/h
135 03-01-2015 21:50:00 1.3 C 5.19 g/m*3 1.3 C 3.2 km/h
136 03-01-2015 21:55:00 1.3 C 5.19 g/m*3 1.3 C 1.6 km/h
137 03-01-2015 22:00:00 1.3 C 5.19 g/m*3 1.3 C 4.8 km/h
138 03-01-2015 22:05:00 1.3 C 5.19 g/m*3 1.3 C 1.6 km/h
139 03-01-2015 22:10:00 1.3 C 5.19 g/m*3 1.3 C 4.8 km/h
140 03-01-2015 22:15:00 1.4 C 5.23 g/m*3 1.4 C 4.8 km/h
141 03-01-2015 22:20:00 1.5 C 5.26 g/m*3 1.5 C 3.2 km/h
142 03-01-2015 22:25:00 1.4 C 5.23 g/m*3 1.4 C 4.8 km/h
143 03-01-2015 22:30:00 1.4 C 5.23 g/m*3 1.4 C 3.2 km/h
144 03-01-2015 22:35:00 1.6 C 5.3 g/m*3 1.6 C 4.8 km/h
145 03-01-2015 22:40:00 1.6 C 5.3 g/m*3 1.6 C 1.6 km/h
146 03-01-2015 22:45:00 1.7 C 5.34 g/m*3 1.7 C 4.8 km/h
147 03-01-2015 22:50:00 1.8 C 5.37 g/m*3 -0.65 C 8.1 km/h
148 03-01-2015 22:55:00 1.8 C 5.37 g/m*3 -0.65 C 8.1 km/h
149 03-01-2015 23:00:00 1.9 C 5.41 g/m*3 0.01 C 6.4 km/h
150 03-01-2015 23:05:00 1.9 C 5.41 g/m*3 -0.54 C 8.1 km/h
Sensor: Nr:Datum:Temp:Abs-Feuchte:Windchill:Wind:
Aussen-T/F 151 03-01-2015 23:10:00 2 C 5.39 g/m*3 2 C 4.8 km/h
152 03-01-2015 23:15:00 2 C 5.39 g/m*3 2 C 3.2 km/h
153 03-01-2015 23:20:00 2 C 5.39 g/m*3 2 C 0 km/h
154 03-01-2015 23:25:00 1.9 C 5.35 g/m*3 1.9 C 4.8 km/h
155 03-01-2015 23:30:00 1.9 C 5.35 g/m*3 1.9 C 0 km/h
156 03-01-2015 23:35:00 2 C 5.39 g/m*3 0.13 C 6.4 km/h
157 03-01-2015 23:40:00 2 C 5.39 g/m*3 2 C 1.6 km/h
158 03-01-2015 23:45:00 2 C 5.39 g/m*3 2 C 4.8 km/h
159 03-01-2015 23:50:00 2 C 5.39 g/m*3 0.13 C 6.4 km/h
160 03-01-2015 23:55:00 2 C 5.39 g/m*3 2 C 3.2 km/h
161 04-01-2015 00:00:00 2 C 5.39 g/m*3 2 C 1.6 km/h
162 04-01-2015 00:05:00 2 C 5.39 g/m*3 2 C 3.2 km/h
163 04-01-2015 00:10:00 2 C 5.39 g/m*3 2 C 3.2 km/h
164 04-01-2015 00:15:00 2.1 C 5.43 g/m*3 0.24 C 6.4 km/h
165 04-01-2015 00:20:00 2.2 C 5.46 g/m*3 2.2 C 1.6 km/h
166 04-01-2015 00:25:00 2.1 C 5.43 g/m*3 2.1 C 4.8 km/h
167 04-01-2015 00:30:00 2.1 C 5.43 g/m*3 2.1 C 4.8 km/h
168 04-01-2015 00:35:00 2 C 5.39 g/m*3 2 C 3.2 km/h
169 04-01-2015 00:40:00 2 C 5.39 g/m*3 0.13 C 6.4 km/h
170 04-01-2015 00:45:00 2.1 C 5.43 g/m*3 0.24 C 6.4 km/h
171 04-01-2015 00:50:00 2.1 C 5.43 g/m*3 2.1 C 3.2 km/h
172 04-01-2015 00:55:00 2.1 C 5.43 g/m*3 2.1 C 4.8 km/h
173 04-01-2015 01:00:00 2.2 C 5.52 g/m*3 2.2 C 3.2 km/h
174 04-01-2015 01:05:00 2.2 C 5.52 g/m*3 2.2 C 1.6 km/h
175 04-01-2015 01:10:00 2.2 C 5.52 g/m*3 2.2 C 1.6 km/h
Sensor: Nr:Datum:Temp:Abs-Feuchte:Windchill:Wind:
Aussen-T/F 176 04-01-2015 01:15:00 2.2 C 5.52 g/m*3 2.2 C 0 km/h
177 04-01-2015 01:20:00 2.2 C 5.52 g/m*3 2.2 C 1.6 km/h
178 04-01-2015 01:25:00 2.2 C 5.52 g/m*3 2.2 C 4.8 km/h
179 04-01-2015 01:30:00 2.2 C 5.52 g/m*3 2.2 C 3.2 km/h
180 04-01-2015 01:35:00 2.3 C 5.56 g/m*3 2.3 C 4.8 km/h
181 04-01-2015 01:40:00 2.4 C 5.6 g/m*3 2.4 C 3.2 km/h
182 04-01-2015 01:45:00 2.7 C 5.71 g/m*3 2.7 C 4.8 km/h
183 04-01-2015 01:50:00 2.8 C 5.75 g/m*3 0.1 C 9.7 km/h
184 04-01-2015 01:55:00 2.9 C 5.79 g/m*3 2.9 C 4.8 km/h
185 04-01-2015 02:00:00 3.1 C 5.87 g/m*3 0.46 C 9.7 km/h
186 04-01-2015 02:05:00 3.3 C 5.95 g/m*3 3.3 C 4.8 km/h
187 04-01-2015 02:10:00 3.4 C 5.99 g/m*3 3.4 C 4.8 km/h
188 04-01-2015 02:15:00 3.4 C 5.92 g/m*3 3.4 C 4.8 km/h
189 04-01-2015 02:20:00 3.6 C 6 g/m*3 1.46 C 8.1 km/h
190 04-01-2015 02:25:00 3.7 C 6.04 g/m*3 1.58 C 8.1 km/h
191 04-01-2015 02:30:00 3.7 C 6.04 g/m*3 3.7 C 1.6 km/h
192 04-01-2015 02:35:00 3.7 C 5.98 g/m*3 3.7 C 3.2 km/h
193 04-01-2015 02:40:00 3.8 C 6.02 g/m*3 0.63 C 12.9 km/h
194 04-01-2015 02:45:00 3.9 C 6.06 g/m*3 1.06 C 11.3 km/h
195 04-01-2015 02:50:00 4.1 C 6.08 g/m*3 2.55 C 6.4 km/h
196 04-01-2015 02:55:00 4.1 C 6.08 g/m*3 2.55 C 6.4 km/h
197 04-01-2015 03:00:00 4.1 C 6.08 g/m*3 2.55 C 6.4 km/h
198 04-01-2015 03:05:00 4.1 C 6.08 g/m*3 0.72 C 14.5 km/h
199 04-01-2015 03:10:00 4.1 C 6.02 g/m*3 2.05 C 8.1 km/h
200 04-01-2015 03:15:00 4.1 C 6.02 g/m*3 4.1 C 4.8 km/h
Sensor: Nr:Datum:Temp:Abs-Feuchte:Windchill:Wind:
Aussen-T/F 201 04-01-2015 03:20:00 4.1 C 6.02 g/m*3 2.55 C 6.4 km/h
202 04-01-2015 03:25:00 4.1 C 5.95 g/m*3 2.05 C 8.1 km/h
203 04-01-2015 03:30:00 4.1 C 5.95 g/m*3 0.72 C 14.5 km/h
204 04-01-2015 03:35:00 4.1 C 5.95 g/m*3 1.65 C 9.7 km/h
205 04-01-2015 03:40:00 4.1 C 5.95 g/m*3 2.05 C 8.1 km/h
206 04-01-2015 03:45:00 4 C 5.91 g/m*3 1.93 C 8.1 km/h
207 04-01-2015 03:50:00 4 C 5.91 g/m*3 1.93 C 8.1 km/h
208 04-01-2015 03:55:00 4 C 5.91 g/m*3 1.53 C 9.7 km/h
209 04-01-2015 04:00:00 3.9 C 5.87 g/m*3 1.82 C 8.1 km/h
210 04-01-2015 04:05:00 3.9 C 5.87 g/m*3 3.9 C 4.8 km/h
211 04-01-2015 04:10:00 3.9 C 5.87 g/m*3 1.82 C 8.1 km/h
212 04-01-2015 04:50:00 2.9 C 5.55 g/m*3 2.9 C 4.8 km/h
213 04-01-2015 04:55:00 2.8 C 5.51 g/m*3 2.8 C 4.8 km/h
214 04-01-2015 05:00:00 2.6 C 5.44 g/m*3 2.6 C 0 km/h
215 04-01-2015 05:05:00 2.4 C 5.37 g/m*3 2.4 C 4.8 km/h
216 04-01-2015 05:10:00 2.2 C 5.29 g/m*3 2.2 C 4.8 km/h
217 04-01-2015 05:15:00 2.1 C 5.31 g/m*3 -0.3 C 8.1 km/h
218 04-01-2015 05:20:00 2.1 C 5.31 g/m*3 2.1 C 3.2 km/h
219 04-01-2015 05:25:00 2.1 C 5.37 g/m*3 2.1 C 3.2 km/h
220 04-01-2015 05:30:00 2 C 5.33 g/m*3 2 C 4.8 km/h
221 04-01-2015 05:35:00 2 C 5.33 g/m*3 2 C 3.2 km/h
222 04-01-2015 05:40:00 1.9 C 5.3 g/m*3 1.9 C 4.8 km/h
223 04-01-2015 05:45:00 1.8 C 5.26 g/m*3 1.8 C 4.8 km/h
224 04-01-2015 05:50:00 1.7 C 5.23 g/m*3 1.7 C 3.2 km/h
225 04-01-2015 05:55:00 1.7 C 5.23 g/m*3 -0.22 C 6.4 km/h
Sensor: Nr:Datum:Temp:Abs-Feuchte:Windchill:Wind:
Aussen-T/F 226 04-01-2015 06:00:00 1.6 C 5.19 g/m*3 1.6 C 4.8 km/h
227 04-01-2015 06:05:00 1.6 C 5.25 g/m*3 1.6 C 4.8 km/h
228 04-01-2015 06:10:00 1.6 C 5.25 g/m*3 1.6 C 4.8 km/h
229 04-01-2015 06:15:00 1.5 C 5.16 g/m*3 1.5 C 4.8 km/h
230 04-01-2015 06:20:00 1.4 C 5.12 g/m*3 1.4 C 1.6 km/h
231 04-01-2015 06:25:00 1.4 C 5.17 g/m*3 1.4 C 4.8 km/h
232 04-01-2015 06:30:00 1.3 C 5.14 g/m*3 1.3 C 0 km/h
233 04-01-2015 06:35:00 1.2 C 5.05 g/m*3 1.2 C 1.6 km/h
234 04-01-2015 06:40:00 1.2 C 5.05 g/m*3 1.2 C 4.8 km/h
235 04-01-2015 06:45:00 1.1 C 5.07 g/m*3 -0.91 C 6.4 km/h
236 04-01-2015 06:50:00 1.1 C 5.07 g/m*3 1.1 C 1.6 km/h
237 04-01-2015 06:55:00 1.1 C 5.07 g/m*3 1.1 C 1.6 km/h
238 04-01-2015 07:00:00 1.1 C 5.07 g/m*3 1.1 C 4.8 km/h
239 04-01-2015 07:05:00 1.1 C 5.07 g/m*3 1.1 C 4.8 km/h
240 04-01-2015 07:10:00 1.1 C 5.07 g/m*3 1.1 C 3.2 km/h
241 04-01-2015 07:15:00 1 C 5.03 g/m*3 1 C 3.2 km/h
242 04-01-2015 07:20:00 0.9 C 5 g/m*3 0.9 C 1.6 km/h
243 04-01-2015 07:25:00 0.9 C 5 g/m*3 0.9 C 3.2 km/h
244 04-01-2015 07:30:00 0.9 C 5 g/m*3 0.9 C 3.2 km/h
245 04-01-2015 07:35:00 1 C 5.03 g/m*3 1 C 3.2 km/h
246 04-01-2015 07:40:00 1.1 C 5.07 g/m*3 1.1 C 3.2 km/h
247 04-01-2015 07:45:00 1.2 C 5.1 g/m*3 1.2 C 1.6 km/h
248 04-01-2015 07:50:00 1.1 C 5.07 g/m*3 1.1 C 1.6 km/h
249 04-01-2015 07:55:00 1.1 C 5.07 g/m*3 1.1 C 4.8 km/h
250 04-01-2015 08:00:00 1.1 C 5.07 g/m*3 1.1 C 1.6 km/h
Sensor: Nr:Datum:Temp:Abs-Feuchte:Windchill:Wind:
Aussen-T/F 251 04-01-2015 08:05:00 1.2 C 5.1 g/m*3 1.2 C 1.6 km/h
252 04-01-2015 08:10:00 1.2 C 5.1 g/m*3 1.2 C 3.2 km/h
253 04-01-2015 08:15:00 1.2 C 5.1 g/m*3 1.2 C 1.6 km/h
254 04-01-2015 08:20:00 1.2 C 5.1 g/m*3 1.2 C 3.2 km/h
255 04-01-2015 18:15:00 4.1 C 5.89 g/m*3 4.1 C 1.6 km/h
256 04-01-2015 18:20:00 4.1 C 5.89 g/m*3 4.1 C 1.6 km/h
257 04-01-2015 18:25:00 4 C 5.85 g/m*3 4 C 3.2 km/h
258 04-01-2015 18:30:00 4 C 5.85 g/m*3 4 C 1.6 km/h
259 04-01-2015 18:35:00 3.9 C 5.75 g/m*3 3.9 C 4.8 km/h
260 04-01-2015 18:40:00 4 C 5.79 g/m*3 4 C 4.8 km/h
261 04-01-2015 18:45:00 4.1 C 5.76 g/m*3 4.1 C 4.8 km/h
262 04-01-2015 18:50:00 4.2 C 5.73 g/m*3 2.67 C 6.4 km/h
263 04-01-2015 18:55:00 4.3 C 5.71 g/m*3 1.89 C 9.7 km/h
264 04-01-2015 19:00:00 4.4 C 5.68 g/m*3 4.4 C 3.2 km/h
265 04-01-2015 19:05:00 4.4 C 5.68 g/m*3 4.4 C 3.2 km/h
266 04-01-2015 19:10:00 4.4 C 5.68 g/m*3 2.9 C 6.4 km/h
267 04-01-2015 19:15:00 4.3 C 5.64 g/m*3 2.78 C 6.4 km/h
268 04-01-2015 19:20:00 4.3 C 5.64 g/m*3 4.3 C 1.6 km/h
269 04-01-2015 19:25:00 4.2 C 5.67 g/m*3 4.2 C 1.6 km/h
270 04-01-2015 19:30:00 4.2 C 5.67 g/m*3 4.2 C 4.8 km/h
271 04-01-2015 19:35:00 4.1 C 5.63 g/m*3 2.05 C 8.1 km/h
272 04-01-2015 19:40:00 4.1 C 5.63 g/m*3 4.1 C 3.2 km/h
273 04-01-2015 19:45:00 4.1 C 5.63 g/m*3 4.1 C 1.6 km/h
274 04-01-2015 19:50:00 4 C 5.59 g/m*3 4 C 1.6 km/h
275 04-01-2015 19:55:00 3.9 C 5.62 g/m*3 2.32 C 6.4 km/h
Sensor: Nr:Datum:Temp:Abs-Feuchte:Windchill:Wind:
Aussen-T/F 276 04-01-2015 20:00:00 3.9 C 5.62 g/m*3 3.9 C 4.8 km/h
277 04-01-2015 20:05:00 3.9 C 5.62 g/m*3 3.9 C 4.8 km/h
278 04-01-2015 20:10:00 3.8 C 5.58 g/m*3 3.8 C 4.8 km/h
279 04-01-2015 20:15:00 3.8 C 5.58 g/m*3 3.8 C 4.8 km/h
280 04-01-2015 20:20:00 3.7 C 5.61 g/m*3 3.7 C 3.2 km/h
281 04-01-2015 20:25:00 3.7 C 5.61 g/m*3 3.7 C 3.2 km/h
282 04-01-2015 20:30:00 3.6 C 5.57 g/m*3 3.6 C 4.8 km/h
283 04-01-2015 20:35:00 3.6 C 5.63 g/m*3 3.6 C 1.6 km/h
284 04-01-2015 20:40:00 3.6 C 5.63 g/m*3 3.6 C 3.2 km/h
285 04-01-2015 20:45:00 3.6 C 5.63 g/m*3 3.6 C 3.2 km/h
286 04-01-2015 20:50:00 3.6 C 5.63 g/m*3 3.6 C 4.8 km/h
287 04-01-2015 20:55:00 3.6 C 5.63 g/m*3 3.6 C 3.2 km/h
288 04-01-2015 21:00:00 3.7 C 5.67 g/m*3 3.7 C 1.6 km/h
289 04-01-2015 21:05:00 3.7 C 5.67 g/m*3 3.7 C 3.2 km/h
290 04-01-2015 21:10:00 3.7 C 5.61 g/m*3 3.7 C 3.2 km/h
291 04-01-2015 21:15:00 3.7 C 5.61 g/m*3 3.7 C 3.2 km/h
292 04-01-2015 21:20:00 3.8 C 5.65 g/m*3 3.8 C 3.2 km/h
293 04-01-2015 21:25:00 3.8 C 5.65 g/m*3 3.8 C 3.2 km/h
294 04-01-2015 21:30:00 3.8 C 5.65 g/m*3 2.21 C 6.4 km/h
295 04-01-2015 21:35:00 3.8 C 5.65 g/m*3 3.8 C 4.8 km/h
296 04-01-2015 21:40:00 3.9 C 5.62 g/m*3 2.32 C 6.4 km/h
297 04-01-2015 21:45:00 3.9 C 5.62 g/m*3 3.9 C 3.2 km/h
298 04-01-2015 21:50:00 4 C 5.66 g/m*3 4 C 4.8 km/h
299 04-01-2015 21:55:00 4 C 5.66 g/m*3 4 C 4.8 km/h
300 04-01-2015 22:00:00 3.9 C 5.62 g/m*3 3.9 C 4.8 km/h
Sensor: Nr:Datum:Temp:Abs-Feuchte:Windchill:Wind:
Aussen-T/F 301 04-01-2015 22:05:00 3.7 C 5.61 g/m*3 3.7 C 1.6 km/h
302 04-01-2015 22:10:00 3.6 C 5.57 g/m*3 3.6 C 3.2 km/h
303 04-01-2015 22:15:00 3.5 C 5.6 g/m*3 3.5 C 3.2 km/h
304 04-01-2015 22:20:00 3.4 C 5.56 g/m*3 3.4 C 1.6 km/h
305 04-01-2015 22:25:00 3.3 C 5.58 g/m*3 3.3 C 1.6 km/h
306 04-01-2015 22:30:00 3.2 C 5.54 g/m*3 3.2 C 0 km/h
307 04-01-2015 22:35:00 3.2 C 5.6 g/m*3 3.2 C 1.6 km/h
308 04-01-2015 22:40:00 3.2 C 5.6 g/m*3 3.2 C 1.6 km/h
309 04-01-2015 22:45:00 3.2 C 5.6 g/m*3 3.2 C 0 km/h
310 04-01-2015 22:50:00 3.2 C 5.6 g/m*3 3.2 C 0 km/h
311 04-01-2015 22:55:00 3.2 C 5.54 g/m*3 3.2 C 3.2 km/h
312 04-01-2015 23:00:00 3.2 C 5.54 g/m*3 3.2 C 1.6 km/h
313 04-01-2015 23:05:00 3.2 C 5.54 g/m*3 3.2 C 3.2 km/h
314 04-01-2015 23:10:00 3.3 C 5.58 g/m*3 3.3 C 1.6 km/h
315 04-01-2015 23:15:00 3.3 C 5.58 g/m*3 3.3 C 1.6 km/h
316 04-01-2015 23:20:00 3.3 C 5.58 g/m*3 3.3 C 1.6 km/h
317 04-01-2015 23:25:00 3.2 C 5.54 g/m*3 3.2 C 3.2 km/h
318 04-01-2015 23:30:00 3.2 C 5.48 g/m*3 1.51 C 6.4 km/h
319 04-01-2015 23:35:00 3.2 C 5.54 g/m*3 3.2 C 1.6 km/h
320 04-01-2015 23:40:00 3.2 C 5.48 g/m*3 3.2 C 4.8 km/h
321 04-01-2015 23:45:00 3.3 C 5.52 g/m*3 3.3 C 3.2 km/h
322 04-01-2015 23:50:00 3.3 C 5.46 g/m*3 3.3 C 4.8 km/h
323 04-01-2015 23:55:00 3.4 C 5.44 g/m*3 3.4 C 3.2 km/h
324 05-01-2015 00:00:00 3.5 C 5.47 g/m*3 3.5 C 1.6 km/h
325 05-01-2015 00:05:00 3.4 C 5.5 g/m*3 3.4 C 1.6 km/h
Sensor: Nr:Datum:Temp:Abs-Feuchte:Windchill:Wind:
Aussen-T/F 326 05-01-2015 00:10:00 3.3 C 5.46 g/m*3 3.3 C 3.2 km/h
327 05-01-2015 00:15:00 3.2 C 5.42 g/m*3 3.2 C 4.8 km/h
328 05-01-2015 00:20:00 3.2 C 5.42 g/m*3 3.2 C 3.2 km/h
329 05-01-2015 00:25:00 3.1 C 5.45 g/m*3 3.1 C 3.2 km/h
330 05-01-2015 00:30:00 3 C 5.41 g/m*3 3 C 4.8 km/h
331 05-01-2015 00:35:00 2.9 C 5.37 g/m*3 2.9 C 3.2 km/h
332 05-01-2015 00:40:00 2.8 C 5.34 g/m*3 2.8 C 3.2 km/h
333 05-01-2015 00:45:00 2.8 C 5.34 g/m*3 2.8 C 3.2 km/h
334 05-01-2015 00:50:00 2.8 C 5.34 g/m*3 2.8 C 3.2 km/h
335 05-01-2015 00:55:00 2.8 C 5.28 g/m*3 2.8 C 3.2 km/h
336 05-01-2015 01:00:00 2.9 C 5.32 g/m*3 2.9 C 3.2 km/h
337 05-01-2015 01:05:00 2.9 C 5.26 g/m*3 0.64 C 8.1 km/h
338 05-01-2015 01:10:00 2.9 C 5.26 g/m*3 0.64 C 8.1 km/h
339 05-01-2015 01:15:00 2.9 C 5.26 g/m*3 2.9 C 1.6 km/h
340 05-01-2015 01:20:00 2.8 C 5.22 g/m*3 2.8 C 4.8 km/h
341 05-01-2015 01:25:00 2.7 C 5.24 g/m*3 2.7 C 3.2 km/h
342 05-01-2015 01:30:00 2.6 C 5.21 g/m*3 2.6 C 1.6 km/h
343 05-01-2015 01:35:00 2.6 C 5.21 g/m*3 2.6 C 1.6 km/h
344 05-01-2015 01:40:00 2.5 C 5.23 g/m*3 2.5 C 1.6 km/h
345 05-01-2015 01:45:00 2.4 C 5.2 g/m*3 2.4 C 3.2 km/h
346 05-01-2015 01:50:00 2.3 C 5.16 g/m*3 2.3 C 3.2 km/h
347 05-01-2015 01:55:00 2.2 C 5.13 g/m*3 2.2 C 1.6 km/h
348 05-01-2015 02:00:00 2.1 C 5.15 g/m*3 2.1 C 1.6 km/h
349 05-01-2015 02:05:00 1.9 C 5.08 g/m*3 1.9 C 0 km/h
350 05-01-2015 02:10:00 1.8 C 5.04 g/m*3 1.8 C 0 km/h
Sensor: Nr:Datum:Temp:Abs-Feuchte:Windchill:Wind:
Aussen-T/F 351 05-01-2015 02:15:00 1.6 C 4.97 g/m*3 1.6 C 1.6 km/h
352 05-01-2015 02:20:00 1.4 C 4.91 g/m*3 1.4 C 0 km/h
353 05-01-2015 02:25:00 1.3 C 4.93 g/m*3 1.3 C 0 km/h
354 05-01-2015 02:30:00 1.2 C 4.89 g/m*3 1.2 C 1.6 km/h
355 05-01-2015 02:35:00 1.2 C 4.89 g/m*3 1.2 C 1.6 km/h
356 05-01-2015 02:40:00 1.1 C 4.91 g/m*3 1.1 C 3.2 km/h
357 05-01-2015 02:45:00 1.1 C 4.91 g/m*3 1.1 C 1.6 km/h
358 05-01-2015 02:50:00 1.1 C 4.91 g/m*3 1.1 C 1.6 km/h
359 05-01-2015 02:55:00 1.1 C 4.91 g/m*3 1.1 C 1.6 km/h
360 05-01-2015 03:00:00 1 C 4.88 g/m*3 1 C 1.6 km/h
361 05-01-2015 03:05:00 1 C 4.88 g/m*3 1 C 3.2 km/h
362 05-01-2015 03:10:00 1 C 4.88 g/m*3 1 C 3.2 km/h
363 05-01-2015 03:15:00 1 C 4.88 g/m*3 1 C 3.2 km/h
364 05-01-2015 03:20:00 1 C 4.88 g/m*3 1 C 4.8 km/h
365 05-01-2015 03:25:00 0.9 C 4.85 g/m*3 0.9 C 1.6 km/h
366 05-01-2015 03:30:00 1 C 4.88 g/m*3 1 C 4.8 km/h
367 05-01-2015 03:35:00 1 C 4.88 g/m*3 1 C 0 km/h
368 05-01-2015 03:40:00 0.9 C 4.85 g/m*3 0.9 C 0 km/h
369 05-01-2015 03:45:00 0.8 C 4.81 g/m*3 0.8 C 1.6 km/h
370 05-01-2015 03:50:00 0.8 C 4.81 g/m*3 0.8 C 1.6 km/h
371 05-01-2015 03:55:00 0.7 C 4.78 g/m*3 0.7 C 0 km/h
372 05-01-2015 04:00:00 0.7 C 4.78 g/m*3 0.7 C 0 km/h
373 05-01-2015 04:05:00 0.5 C 4.71 g/m*3 0.5 C 0 km/h
374 05-01-2015 04:10:00 0.4 C 4.68 g/m*3 0.4 C 3.2 km/h
375 05-01-2015 04:15:00 0.3 C 4.65 g/m*3 0.3 C 3.2 km/h
Sensor: Nr:Datum:Temp:Abs-Feuchte:Windchill:Wind:
Aussen-T/F 376 05-01-2015 04:20:00 0.2 C 4.62 g/m*3 0.2 C 1.6 km/h
377 05-01-2015 04:25:00 0.1 C 4.59 g/m*3 0.1 C 1.6 km/h
378 05-01-2015 04:30:00 0.1 C 4.59 g/m*3 0.1 C 0 km/h
379 05-01-2015 04:35:00 -0.1 C 4.52 g/m*3 -0.1 C 0 km/h
380 05-01-2015 04:40:00 -0.1 C 4.57 g/m*3 -0.1 C 0 km/h
381 05-01-2015 04:45:00 -0.2 C 4.54 g/m*3 -0.2 C 0 km/h
382 05-01-2015 04:50:00 -0.3 C 4.51 g/m*3 -0.3 C 0 km/h
383 05-01-2015 04:55:00 -0.3 C 4.51 g/m*3 -0.3 C 0 km/h
384 05-01-2015 05:00:00 -0.4 C 4.48 g/m*3 -0.4 C 1.6 km/h
385 05-01-2015 05:05:00 -0.4 C 4.48 g/m*3 -0.4 C 1.6 km/h
386 05-01-2015 05:10:00 -0.4 C 4.48 g/m*3 -0.4 C 0 km/h
387 05-01-2015 05:15:00 -0.4 C 4.48 g/m*3 -0.4 C 0 km/h
388 05-01-2015 05:20:00 -0.4 C 4.48 g/m*3 -0.4 C 0 km/h
389 05-01-2015 05:25:00 -0.5 C 4.45 g/m*3 -0.5 C 0 km/h
390 05-01-2015 05:30:00 -0.6 C 4.42 g/m*3 -0.6 C 1.6 km/h
391 05-01-2015 05:35:00 -0.6 C 4.46 g/m*3 -0.6 C 0 km/h
392 05-01-2015 05:40:00 -0.6 C 4.46 g/m*3 -0.6 C 1.6 km/h
393 05-01-2015 05:45:00 -0.5 C 4.49 g/m*3 -0.5 C 3.2 km/h
394 05-01-2015 05:50:00 -0.5 C 4.49 g/m*3 -0.5 C 1.6 km/h
395 05-01-2015 05:55:00 -0.5 C 4.49 g/m*3 -0.5 C 0 km/h
396 05-01-2015 06:00:00 -0.5 C 4.49 g/m*3 -0.5 C 1.6 km/h
397 05-01-2015 06:05:00 -0.6 C 4.46 g/m*3 -0.6 C 0 km/h
398 05-01-2015 06:10:00 -0.6 C 4.46 g/m*3 -0.6 C 0 km/h
399 05-01-2015 06:15:00 -0.6 C 4.46 g/m*3 -0.6 C 0 km/h
400 05-01-2015 06:20:00 -0.6 C 4.46 g/m*3 -0.6 C 0 km/h
Sensor: Nr:Datum:Temp:Abs-Feuchte:Windchill:Wind:
Aussen-T/F 401 05-01-2015 06:25:00 -0.9 C 4.37 g/m*3 -0.9 C 0 km/h
402 05-01-2015 06:30:00 -1 C 4.34 g/m*3 -1 C 1.6 km/h
403 05-01-2015 06:35:00 -1 C 4.34 g/m*3 -1 C 0 km/h
404 05-01-2015 06:40:00 -1 C 4.34 g/m*3 -1 C 0 km/h
405 05-01-2015 06:45:00 -0.9 C 4.37 g/m*3 -0.9 C 0 km/h
406 05-01-2015 06:50:00 -0.9 C 4.37 g/m*3 -0.9 C 1.6 km/h
407 05-01-2015 06:55:00 -0.9 C 4.37 g/m*3 -0.9 C 1.6 km/h
408 05-01-2015 07:00:00 -0.9 C 4.37 g/m*3 -0.9 C 4.8 km/h
409 05-01-2015 07:05:00 -0.9 C 4.37 g/m*3 -0.9 C 1.6 km/h
410 05-01-2015 07:10:00 -0.8 C 4.4 g/m*3 -0.8 C 1.6 km/h
411 05-01-2015 07:15:00 -0.9 C 4.37 g/m*3 -0.9 C 0 km/h
412 05-01-2015 07:20:00 -0.9 C 4.37 g/m*3 -0.9 C 0 km/h
413 05-01-2015 07:25:00 -1 C 4.34 g/m*3 -1 C 1.6 km/h
414 05-01-2015 07:30:00 -1 C 4.34 g/m*3 -1 C 0 km/h
415 05-01-2015 07:35:00 -1 C 4.38 g/m*3 -1 C 1.6 km/h
416 05-01-2015 07:40:00 -0.9 C 4.42 g/m*3 -0.9 C 4.8 km/h
417 05-01-2015 07:45:00 -0.8 C 4.45 g/m*3 -3.11 C 6.4 km/h
418 05-01-2015 07:50:00 -0.8 C 4.45 g/m*3 -3.11 C 6.4 km/h
419 05-01-2015 07:55:00 -0.8 C 4.45 g/m*3 -3.11 C 6.4 km/h
420 05-01-2015 08:00:00 -0.8 C 4.45 g/m*3 -3.71 C 8.1 km/h
421 05-01-2015 08:05:00 -0.8 C 4.45 g/m*3 -0.8 C 3.2 km/h
422 05-01-2015 08:10:00 -0.7 C 4.48 g/m*3 -3.59 C 8.1 km/h
423 05-01-2015 08:15:00 -0.7 C 4.48 g/m*3 -2.99 C 6.4 km/h
424 05-01-2015 08:20:00 -0.7 C 4.48 g/m*3 -0.7 C 4.8 km/h
425 05-01-2015 08:25:00 -0.7 C 4.48 g/m*3 -0.7 C 4.8 km/h
Sensor: Nr:Datum:Temp:Abs-Feuchte:Windchill:Wind:
Aussen-T/F 426 05-01-2015 08:30:00 -0.7 C 4.48 g/m*3 -0.7 C 4.8 km/h
427 05-01-2015 08:35:00 -0.7 C 4.48 g/m*3 -4.07 C 9.7 km/h
428 05-01-2015 08:40:00 -0.8 C 4.45 g/m*3 -3.71 C 8.1 km/h
429 05-01-2015 08:45:00 -0.8 C 4.45 g/m*3 -0.8 C 4.8 km/h
430 05-01-2015 08:50:00 -0.8 C 4.45 g/m*3 -3.71 C 8.1 km/h
431 05-01-2015 08:55:00 -0.8 C 4.45 g/m*3 -0.8 C 4.8 km/h
432 05-01-2015 09:00:00 -0.8 C 4.45 g/m*3 -0.8 C 4.8 km/h
433 05-01-2015 09:05:00 -0.8 C 4.45 g/m*3 -3.11 C 6.4 km/h
434 05-01-2015 09:10:00 -0.8 C 4.45 g/m*3 -3.11 C 6.4 km/h
435 05-01-2015 09:15:00 -0.8 C 4.45 g/m*3 -3.11 C 6.4 km/h
436 05-01-2015 09:20:00 -0.8 C 4.45 g/m*3 -0.8 C 4.8 km/h
437 05-01-2015 09:25:00 -0.8 C 4.45 g/m*3 -0.8 C 4.8 km/h
438 05-01-2015 09:30:00 -0.8 C 4.45 g/m*3 -0.8 C 3.2 km/h
439 05-01-2015 09:35:00 -0.8 C 4.45 g/m*3 -3.11 C 6.4 km/h
440 05-01-2015 09:40:00 -0.6 C 4.51 g/m*3 -3.48 C 8.1 km/h
441 05-01-2015 09:45:00 -0.6 C 4.51 g/m*3 -3.95 C 9.7 km/h
442 05-01-2015 09:50:00 -0.6 C 4.51 g/m*3 -0.6 C 4.8 km/h
443 05-01-2015 09:55:00 -0.6 C 4.51 g/m*3 -0.6 C 4.8 km/h
444 05-01-2015 10:00:00 -0.6 C 4.51 g/m*3 -0.6 C 3.2 km/h
445 05-01-2015 10:05:00 -0.6 C 4.51 g/m*3 -0.6 C 3.2 km/h
446 05-01-2015 10:10:00 -0.6 C 4.51 g/m*3 -0.6 C 3.2 km/h
447 05-01-2015 10:15:00 -0.6 C 4.51 g/m*3 -0.6 C 1.6 km/h
448 05-01-2015 10:20:00 -0.6 C 4.51 g/m*3 -2.88 C 6.4 km/h
449 05-01-2015 10:25:00 -0.5 C 4.54 g/m*3 -0.5 C 1.6 km/h
450 05-01-2015 10:30:00 -0.5 C 4.54 g/m*3 -0.5 C 4.8 km/h
Sensor: Nr:Datum:Temp:Abs-Feuchte:Windchill:Wind:
Aussen-T/F 451 05-01-2015 10:35:00 -0.5 C 4.54 g/m*3 -2.76 C 6.4 km/h
452 05-01-2015 10:40:00 -0.3 C 4.6 g/m*3 -3.12 C 8.1 km/h
453 05-01-2015 10:45:00 -0.2 C 4.64 g/m*3 -0.2 C 4.8 km/h
454 05-01-2015 10:50:00 -0.2 C 4.64 g/m*3 -0.2 C 3.2 km/h
455 05-01-2015 10:55:00 -0.2 C 4.64 g/m*3 -0.2 C 1.6 km/h
456 05-01-2015 11:00:00 -0.2 C 4.64 g/m*3 -0.2 C 1.6 km/h
457 05-01-2015 11:05:00 -0.2 C 4.64 g/m*3 -0.2 C 3.2 km/h
458 05-01-2015 11:10:00 -0.2 C 4.64 g/m*3 -0.2 C 1.6 km/h
459 05-01-2015 11:50:00 0.2 C 4.77 g/m*3 0.2 C 3.2 km/h
460 05-01-2015 11:55:00 0.2 C 4.77 g/m*3 0.2 C 1.6 km/h
461 05-01-2015 12:00:00 0.2 C 4.77 g/m*3 0.2 C 1.6 km/h
462 05-01-2015 12:05:00 0.2 C 4.77 g/m*3 0.2 C 1.6 km/h
463 05-01-2015 12:10:00 0.2 C 4.77 g/m*3 0.2 C 3.2 km/h
464 05-01-2015 12:15:00 0.2 C 4.77 g/m*3 0.2 C 1.6 km/h
465 05-01-2015 12:20:00 0.2 C 4.77 g/m*3 0.2 C 1.6 km/h
466 05-01-2015 12:25:00 0.2 C 4.77 g/m*3 0.2 C 1.6 km/h
467 05-01-2015 13:50:00 1.1 C 5.23 g/m*3 1.1 C 3.2 km/h
468 05-01-2015 13:55:00 1.1 C 4.96 g/m*3 1.1 C 4.8 km/h
469 05-01-2015 14:00:00 1.1 C 4.96 g/m*3 1.1 C 3.2 km/h
470 05-01-2015 18:20:00 -0.8 C 4.4 g/m*3 -0.8 C 0 km/h
471 05-01-2015 18:25:00 -0.8 C 4.4 g/m*3 -0.8 C 0 km/h
472 05-01-2015 18:30:00 -0.8 C 4.4 g/m*3 -0.8 C 0 km/h
473 05-01-2015 18:35:00 -0.8 C 4.4 g/m*3 -0.8 C 1.6 km/h
474 05-01-2015 18:40:00 -0.8 C 4.4 g/m*3 -0.8 C 0 km/h
475 05-01-2015 18:45:00 -0.8 C 4.4 g/m*3 -0.8 C 0 km/h
Sensor: Nr:Datum:Temp:Abs-Feuchte:Windchill:Wind:
Aussen-T/F 476 05-01-2015 18:50:00 -0.8 C 4.4 g/m*3 -0.8 C 0 km/h
477 05-01-2015 18:55:00 -0.8 C 4.4 g/m*3 -0.8 C 0 km/h
478 05-01-2015 19:00:00 -0.8 C 4.4 g/m*3 -0.8 C 0 km/h
479 05-01-2015 19:05:00 -0.9 C 4.37 g/m*3 -0.9 C 0 km/h
480 05-01-2015 19:10:00 -0.9 C 4.37 g/m*3 -0.9 C 0 km/h
481 05-01-2015 20:10:00 -1.4 C 4.22 g/m*3 -1.4 C 0 km/h
482 05-01-2015 20:15:00 -1.4 C 4.22 g/m*3 -1.4 C 0 km/h
483 05-01-2015 20:20:00 -1.3 C 4.25 g/m*3 -1.3 C 0 km/h
484 05-01-2015 20:25:00 -1.4 C 4.22 g/m*3 -1.4 C 0 km/h
485 05-01-2015 20:30:00 -1.4 C 4.22 g/m*3 -1.4 C 0 km/h
486 05-01-2015 20:35:00 -1.4 C 4.22 g/m*3 -1.4 C 0 km/h
487 05-01-2015 20:40:00 -1.3 C 4.25 g/m*3 -1.3 C 0 km/h
488 05-01-2015 20:45:00 -1.4 C 4.22 g/m*3 -1.4 C 0 km/h
489 05-01-2015 20:50:00 -1.4 C 4.22 g/m*3 -1.4 C 0 km/h
490 05-01-2015 20:55:00 -1.5 C 4.19 g/m*3 -1.5 C 0 km/h
491 05-01-2015 21:00:00 -1.5 C 4.19 g/m*3 -1.5 C 0 km/h
492 05-01-2015 21:05:00 -1.6 C 4.16 g/m*3 -1.6 C 0 km/h
493 05-01-2015 21:10:00 -1.5 C 4.19 g/m*3 -1.5 C 0 km/h
494 05-01-2015 21:15:00 -1.5 C 4.19 g/m*3 -1.5 C 0 km/h
495 05-01-2015 21:20:00 -1.5 C 4.19 g/m*3 -1.5 C 0 km/h
496 05-01-2015 21:25:00 -1.6 C 4.16 g/m*3 -1.6 C 0 km/h
497 05-01-2015 21:30:00 -1.6 C 4.16 g/m*3 -1.6 C 0 km/h
498 05-01-2015 21:35:00 -1.6 C 4.16 g/m*3 -1.6 C 0 km/h
499 05-01-2015 21:40:00 -1.6 C 4.16 g/m*3 -1.6 C 0 km/h
500 05-01-2015 21:45:00 -1.6 C 4.16 g/m*3 -1.6 C 0 km/h
Sensor: Nr:Datum:Temp:Abs-Feuchte:Windchill:Wind:
Aussen-T/F 501 05-01-2015 21:50:00 -1.6 C 4.16 g/m*3 -1.6 C 0 km/h
502 05-01-2015 21:55:00 -1.6 C 4.21 g/m*3 -1.6 C 0 km/h
503 05-01-2015 22:00:00 -1.6 C 4.21 g/m*3 -1.6 C 0 km/h
504 05-01-2015 22:05:00 -1.7 C 4.13 g/m*3 -1.7 C 0 km/h
505 05-01-2015 22:10:00 -1.7 C 4.13 g/m*3 -1.7 C 0 km/h
506 05-01-2015 22:15:00 -1.8 C 4.1 g/m*3 -1.8 C 0 km/h
507 05-01-2015 22:20:00 -1.8 C 4.1 g/m*3 -1.8 C 0 km/h
508 05-01-2015 22:25:00 -1.8 C 4.1 g/m*3 -1.8 C 0 km/h
509 05-01-2015 22:30:00 -1.8 C 4.1 g/m*3 -1.8 C 1.6 km/h
510 05-01-2015 22:35:00 -1.8 C 4.1 g/m*3 -1.8 C 0 km/h
511 05-01-2015 22:40:00 -1.8 C 4.1 g/m*3 -1.8 C 0 km/h
512 06-01-2015 07:55:00 -2.9 C 3.84 g/m*3 -2.9 C 4.8 km/h
513 06-01-2015 08:00:00 -2.9 C 3.84 g/m*3 -2.9 C 3.2 km/h
514 06-01-2015 08:05:00 -2.9 C 3.84 g/m*3 -2.9 C 1.6 km/h
515 06-01-2015 08:10:00 -2.9 C 3.84 g/m*3 -2.9 C 3.2 km/h
516 06-01-2015 08:15:00 -2.9 C 3.84 g/m*3 -2.9 C 3.2 km/h
517 06-01-2015 13:05:00 -1.4 C 4.26 g/m*3 -1.4 C 3.2 km/h
518 06-01-2015 13:10:00 -1.3 C 4.29 g/m*3 -1.3 C 0 km/h
519 06-01-2015 13:15:00 -1.3 C 4.29 g/m*3 -1.3 C 0 km/h
520 06-01-2015 13:20:00 -1.3 C 4.29 g/m*3 -1.3 C 0 km/h
521 06-01-2015 13:25:00 -1.3 C 4.29 g/m*3 -1.3 C 1.6 km/h
522 06-01-2015 19:40:00 1.1 C 4.7 g/m*3 -2.66 C 12.9 km/h
523 06-01-2015 19:45:00 1.1 C 4.7 g/m*3 -2.97 C 14.5 km/h
524 06-01-2015 19:50:00 1.1 C 4.7 g/m*3 -2.97 C 14.5 km/h
525 06-01-2015 19:55:00 1.1 C 4.7 g/m*3 -2.66 C 12.9 km/h
Sensor: Nr:Datum:Temp:Abs-Feuchte:Windchill:Wind:
Aussen-T/F 526 06-01-2015 20:00:00 0.9 C 4.64 g/m*3 -3.21 C 14.5 km/h
527 06-01-2015 20:05:00 0.9 C 4.64 g/m*3 -2.16 C 9.7 km/h
528 06-01-2015 20:10:00 0.8 C 4.61 g/m*3 -4.13 C 19.3 km/h
529 06-01-2015 20:15:00 0.8 C 4.61 g/m*3 -3.02 C 12.9 km/h
530 06-01-2015 20:20:00 0.8 C 4.61 g/m*3 -3.02 C 12.9 km/h
531 06-01-2015 20:25:00 0.8 C 4.61 g/m*3 -2.67 C 11.3 km/h
532 06-01-2015 21:20:00 0.7 C 4.68 g/m*3 -1.95 C 8.1 km/h
533 06-01-2015 21:25:00 0.7 C 4.68 g/m*3 -2.8 C 11.3 km/h
534 06-01-2015 21:30:00 0.7 C 4.68 g/m*3 -2.8 C 11.3 km/h
535 06-01-2015 21:35:00 0.8 C 4.71 g/m*3 -2.28 C 9.7 km/h
536 06-01-2015 21:40:00 0.8 C 4.71 g/m*3 -2.28 C 9.7 km/h
537 06-01-2015 21:45:00 0.8 C 4.71 g/m*3 -2.28 C 9.7 km/h
538 06-01-2015 21:50:00 0.8 C 4.71 g/m*3 -2.67 C 11.3 km/h
539 06-01-2015 21:55:00 0.8 C 4.71 g/m*3 -3.34 C 14.5 km/h
540 06-01-2015 22:00:00 0.9 C 4.74 g/m*3 -1.14 C 6.4 km/h
541 06-01-2015 22:05:00 1 C 4.78 g/m*3 -2.78 C 12.9 km/h
542 06-01-2015 22:10:00 1 C 4.78 g/m*3 -1.59 C 8.1 km/h
543 06-01-2015 22:15:00 1.1 C 4.81 g/m*3 -1.92 C 9.7 km/h
544 06-01-2015 22:20:00 1.1 C 4.81 g/m*3 -1.48 C 8.1 km/h
545 06-01-2015 22:25:00 1.1 C 4.81 g/m*3 -2.31 C 11.3 km/h
546 06-01-2015 22:30:00 1.2 C 4.84 g/m*3 -0.8 C 6.4 km/h
547 06-01-2015 22:35:00 1.3 C 4.87 g/m*3 -0.68 C 6.4 km/h
548 06-01-2015 22:40:00 1.3 C 4.87 g/m*3 1.3 C 1.6 km/h
549 06-01-2015 22:45:00 1.3 C 4.87 g/m*3 1.3 C 1.6 km/h
550 06-01-2015 22:50:00 1.3 C 4.87 g/m*3 1.3 C 4.8 km/h
Sensor: Nr:Datum:Temp:Abs-Feuchte:Windchill:Wind:
Aussen-T/F 551 06-01-2015 22:55:00 1.2 C 4.84 g/m*3 1.2 C 0 km/h
552 06-01-2015 23:00:00 1.2 C 4.84 g/m*3 -1.8 C 9.7 km/h
553 06-01-2015 23:05:00 1.2 C 4.84 g/m*3 1.2 C 4.8 km/h
554 06-01-2015 23:10:00 1.2 C 4.84 g/m*3 1.2 C 3.2 km/h
555 06-01-2015 23:15:00 1.3 C 4.93 g/m*3 -0.68 C 6.4 km/h
556 06-01-2015 23:20:00 1.4 C 4.96 g/m*3 -2.29 C 12.9 km/h
557 06-01-2015 23:25:00 1.6 C 5.03 g/m*3 -1.33 C 9.7 km/h
558 06-01-2015 23:30:00 1.6 C 5.03 g/m*3 1.6 C 4.8 km/h
559 06-01-2015 23:35:00 1.6 C 4.97 g/m*3 -0.33 C 6.4 km/h
560 06-01-2015 23:40:00 1.6 C 4.97 g/m*3 1.6 C 4.8 km/h
561 06-01-2015 23:45:00 1.5 C 4.94 g/m*3 1.5 C 4.8 km/h
562 06-01-2015 23:50:00 1.5 C 4.99 g/m*3 -0.45 C 6.4 km/h
563 06-01-2015 23:55:00 1.5 C 4.99 g/m*3 -2.17 C 12.9 km/h
564 07-01-2015 00:00:00 1.5 C 4.99 g/m*3 -1.01 C 8.1 km/h
565 07-01-2015 00:05:00 1.6 C 5.03 g/m*3 -0.33 C 6.4 km/h
566 07-01-2015 00:10:00 1.6 C 5.03 g/m*3 -0.33 C 6.4 km/h
567 07-01-2015 00:15:00 1.6 C 5.03 g/m*3 -0.33 C 6.4 km/h
568 07-01-2015 00:20:00 1.6 C 5.03 g/m*3 -0.33 C 6.4 km/h
569 07-01-2015 00:25:00 1.6 C 5.03 g/m*3 -0.89 C 8.1 km/h
570 07-01-2015 00:30:00 1.6 C 5.03 g/m*3 1.6 C 3.2 km/h
571 07-01-2015 00:35:00 1.6 C 5.08 g/m*3 -0.33 C 6.4 km/h
572 07-01-2015 00:40:00 1.7 C 5.12 g/m*3 -0.22 C 6.4 km/h
573 07-01-2015 00:45:00 1.7 C 5.12 g/m*3 1.7 C 3.2 km/h
574 07-01-2015 00:50:00 1.7 C 5.12 g/m*3 1.7 C 3.2 km/h
575 07-01-2015 00:55:00 1.7 C 5.12 g/m*3 1.7 C 3.2 km/h
Sensor: Nr:Datum:Temp:Abs-Feuchte:Windchill:Wind:
Aussen-T/F 576 07-01-2015 01:00:00 1.8 C 5.15 g/m*3 -1.09 C 9.7 km/h
577 07-01-2015 01:05:00 1.9 C 5.19 g/m*3 -0.97 C 9.7 km/h
578 07-01-2015 01:10:00 1.9 C 5.19 g/m*3 1.9 C 4.8 km/h
579 07-01-2015 01:15:00 1.9 C 5.19 g/m*3 0.01 C 6.4 km/h
580 07-01-2015 01:20:00 2 C 5.22 g/m*3 -2.14 C 16.1 km/h
581 07-01-2015 01:25:00 2.1 C 5.26 g/m*3 -0.73 C 9.7 km/h
582 07-01-2015 01:30:00 2.1 C 5.26 g/m*3 -0.73 C 9.7 km/h
583 07-01-2015 01:35:00 2.2 C 5.29 g/m*3 2.2 C 4.8 km/h
584 07-01-2015 01:40:00 2.1 C 5.2 g/m*3 -1.74 C 14.5 km/h
585 07-01-2015 01:45:00 2.2 C 5.29 g/m*3 2.2 C 4.8 km/h
586 07-01-2015 01:50:00 2.2 C 5.29 g/m*3 0.36 C 6.4 km/h
587 07-01-2015 01:55:00 2.2 C 5.29 g/m*3 0.36 C 6.4 km/h
588 07-01-2015 02:00:00 2.2 C 5.29 g/m*3 2.2 C 3.2 km/h
589 07-01-2015 02:05:00 2.2 C 5.29 g/m*3 2.2 C 3.2 km/h
590 07-01-2015 02:10:00 2.2 C 5.29 g/m*3 2.2 C 4.8 km/h
591 07-01-2015 02:15:00 2.2 C 5.29 g/m*3 -0.18 C 8.1 km/h
592 07-01-2015 02:20:00 2.3 C 5.33 g/m*3 -0.87 C 11.3 km/h
593 07-01-2015 02:25:00 2.3 C 5.33 g/m*3 -0.49 C 9.7 km/h
594 07-01-2015 02:30:00 2.3 C 5.33 g/m*3 0.47 C 6.4 km/h
595 07-01-2015 02:35:00 2.3 C 5.33 g/m*3 -0.07 C 8.1 km/h
596 07-01-2015 02:40:00 2.2 C 5.29 g/m*3 -0.61 C 9.7 km/h
597 07-01-2015 02:45:00 2.2 C 5.29 g/m*3 0.36 C 6.4 km/h
598 07-01-2015 02:50:00 2.2 C 5.29 g/m*3 0.36 C 6.4 km/h
599 07-01-2015 02:55:00 2.3 C 5.33 g/m*3 2.3 C 4.8 km/h
600 07-01-2015 03:00:00 2.3 C 5.33 g/m*3 0.47 C 6.4 km/h
Sensor: Nr:Datum:Temp:Abs-Feuchte:Windchill:Wind:
Aussen-T/F 601 07-01-2015 03:05:00 2.3 C 5.33 g/m*3 -0.87 C 11.3 km/h
602 07-01-2015 03:10:00 2.4 C 5.37 g/m*3 -0.74 C 11.3 km/h
603 07-01-2015 03:15:00 2.6 C 5.44 g/m*3 0.29 C 8.1 km/h
604 07-01-2015 03:20:00 2.6 C 5.38 g/m*3 -0.14 C 9.7 km/h
605 07-01-2015 03:25:00 2.5 C 5.35 g/m*3 -0.62 C 11.3 km/h
606 07-01-2015 03:30:00 2.4 C 5.31 g/m*3 0.59 C 6.4 km/h
607 07-01-2015 03:35:00 2.5 C 5.4 g/m*3 -0.26 C 9.7 km/h
608 07-01-2015 03:40:00 2.5 C 5.35 g/m*3 -0.26 C 9.7 km/h
609 07-01-2015 03:45:00 2.6 C 5.44 g/m*3 -0.5 C 11.3 km/h
610 07-01-2015 03:50:00 2.6 C 5.44 g/m*3 0.82 C 6.4 km/h
611 07-01-2015 03:55:00 2.5 C 5.4 g/m*3 0.71 C 6.4 km/h
612 07-01-2015 04:00:00 2.4 C 5.37 g/m*3 0.59 C 6.4 km/h
613 07-01-2015 04:05:00 2.4 C 5.37 g/m*3 2.4 C 4.8 km/h
614 07-01-2015 04:10:00 2.4 C 5.37 g/m*3 -1.37 C 14.5 km/h
615 07-01-2015 04:15:00 2.4 C 5.37 g/m*3 -0.37 C 9.7 km/h
616 07-01-2015 04:20:00 2.4 C 5.37 g/m*3 -0.74 C 11.3 km/h
617 07-01-2015 04:25:00 2.5 C 5.4 g/m*3 -0.26 C 9.7 km/h
618 07-01-2015 04:30:00 2.5 C 5.4 g/m*3 -1.52 C 16.1 km/h
619 07-01-2015 04:35:00 2.5 C 5.4 g/m*3 0.17 C 8.1 km/h
620 07-01-2015 04:40:00 2.6 C 5.44 g/m*3 -0.5 C 11.3 km/h
621 07-01-2015 04:45:00 2.5 C 5.4 g/m*3 0.71 C 6.4 km/h
622 07-01-2015 04:50:00 2.5 C 5.4 g/m*3 -0.62 C 11.3 km/h
623 07-01-2015 04:55:00 2.4 C 5.37 g/m*3 2.4 C 4.8 km/h
624 07-01-2015 05:00:00 2.4 C 5.37 g/m*3 0.59 C 6.4 km/h
625 07-01-2015 05:05:00 2.4 C 5.37 g/m*3 2.4 C 4.8 km/h
Sensor: Nr:Datum:Temp:Abs-Feuchte:Windchill:Wind:
Aussen-T/F 626 07-01-2015 05:10:00 2.4 C 5.37 g/m*3 0.05 C 8.1 km/h
627 07-01-2015 05:15:00 2.5 C 5.4 g/m*3 -0.26 C 9.7 km/h
628 07-01-2015 05:20:00 2.5 C 5.4 g/m*3 0.71 C 6.4 km/h
629 07-01-2015 05:25:00 2.6 C 5.44 g/m*3 2.6 C 4.8 km/h
630 07-01-2015 05:30:00 2.6 C 5.44 g/m*3 0.82 C 6.4 km/h
631 07-01-2015 05:35:00 2.6 C 5.44 g/m*3 -0.5 C 11.3 km/h
632 07-01-2015 05:40:00 2.5 C 5.4 g/m*3 0.71 C 6.4 km/h
633 07-01-2015 05:45:00 2.5 C 5.4 g/m*3 0.71 C 6.4 km/h
634 07-01-2015 05:50:00 2.4 C 5.37 g/m*3 2.4 C 4.8 km/h
635 07-01-2015 05:55:00 2.3 C 5.33 g/m*3 2.3 C 4.8 km/h
636 07-01-2015 06:00:00 2.1 C 5.26 g/m*3 2.1 C 3.2 km/h
637 07-01-2015 06:05:00 1.9 C 5.19 g/m*3 1.9 C 3.2 km/h
638 07-01-2015 06:10:00 1.8 C 5.15 g/m*3 1.8 C 1.6 km/h
639 07-01-2015 06:15:00 1.7 C 5.17 g/m*3 1.7 C 3.2 km/h
640 07-01-2015 06:20:00 1.6 C 5.14 g/m*3 1.6 C 1.6 km/h
641 07-01-2015 06:25:00 1.6 C 5.14 g/m*3 1.6 C 1.6 km/h
642 07-01-2015 06:30:00 1.4 C 5.07 g/m*3 1.4 C 0 km/h
643 07-01-2015 06:35:00 1.4 C 5.12 g/m*3 1.4 C 1.6 km/h
644 07-01-2015 06:40:00 1.4 C 5.12 g/m*3 1.4 C 4.8 km/h
645 07-01-2015 06:45:00 1.5 C 5.16 g/m*3 1.5 C 4.8 km/h
646 07-01-2015 06:50:00 1.4 C 5.12 g/m*3 1.4 C 3.2 km/h
647 07-01-2015 06:55:00 1.4 C 5.12 g/m*3 1.4 C 4.8 km/h
648 07-01-2015 07:00:00 1.3 C 5.09 g/m*3 1.3 C 4.8 km/h
649 07-01-2015 07:05:00 1.3 C 5.09 g/m*3 1.3 C 3.2 km/h
650 07-01-2015 07:10:00 1.4 C 5.12 g/m*3 1.4 C 3.2 km/h
Sensor: Nr:Datum:Temp:Abs-Feuchte:Windchill:Wind:
Aussen-T/F 651 07-01-2015 07:15:00 1.5 C 5.16 g/m*3 1.5 C 3.2 km/h
652 07-01-2015 07:20:00 1.4 C 5.12 g/m*3 1.4 C 3.2 km/h
653 07-01-2015 07:25:00 1.4 C 5.12 g/m*3 1.4 C 3.2 km/h
654 07-01-2015 07:30:00 1.4 C 5.12 g/m*3 -0.56 C 6.4 km/h
655 07-01-2015 07:35:00 1.4 C 5.12 g/m*3 1.4 C 3.2 km/h
656 07-01-2015 07:40:00 1.3 C 5.09 g/m*3 1.3 C 1.6 km/h
657 07-01-2015 07:45:00 1.3 C 5.09 g/m*3 -0.68 C 6.4 km/h
658 07-01-2015 07:50:00 1.4 C 5.12 g/m*3 1.4 C 3.2 km/h
659 07-01-2015 07:55:00 1.3 C 5.09 g/m*3 1.3 C 3.2 km/h
660 07-01-2015 08:00:00 1.3 C 5.09 g/m*3 1.3 C 3.2 km/h
661 07-01-2015 08:05:00 1.3 C 5.14 g/m*3 1.3 C 4.8 km/h
662 07-01-2015 08:10:00 1.4 C 5.17 g/m*3 1.4 C 4.8 km/h
663 07-01-2015 08:15:00 1.5 C 5.21 g/m*3 -1.01 C 8.1 km/h
664 07-01-2015 08:20:00 1.6 C 5.25 g/m*3 1.6 C 4.8 km/h
665 07-01-2015 08:25:00 1.7 C 5.28 g/m*3 -0.22 C 6.4 km/h
666 07-01-2015 08:30:00 1.7 C 5.28 g/m*3 -0.22 C 6.4 km/h
667 07-01-2015 08:35:00 1.7 C 5.23 g/m*3 -0.22 C 6.4 km/h
668 07-01-2015 08:40:00 1.8 C 5.26 g/m*3 1.8 C 3.2 km/h
669 07-01-2015 08:45:00 1.8 C 5.26 g/m*3 1.8 C 3.2 km/h
670 07-01-2015 08:50:00 1.8 C 5.26 g/m*3 -0.65 C 8.1 km/h
671 07-01-2015 08:55:00 1.9 C 5.35 g/m*3 1.9 C 4.8 km/h
672 07-01-2015 09:00:00 2 C 5.33 g/m*3 2 C 4.8 km/h
673 07-01-2015 09:05:00 2.1 C 5.37 g/m*3 2.1 C 4.8 km/h
674 07-01-2015 09:10:00 2 C 5.33 g/m*3 2 C 3.2 km/h
675 07-01-2015 09:15:00 2 C 5.33 g/m*3 2 C 1.6 km/h
Sensor: Nr:Datum:Temp:Abs-Feuchte:Windchill:Wind:
Aussen-T/F 676 07-01-2015 09:20:00 2 C 5.33 g/m*3 2 C 3.2 km/h
677 07-01-2015 09:25:00 2.1 C 5.37 g/m*3 2.1 C 4.8 km/h
678 07-01-2015 09:30:00 2.1 C 5.37 g/m*3 2.1 C 0 km/h
679 07-01-2015 09:35:00 2.1 C 5.37 g/m*3 2.1 C 4.8 km/h
680 07-01-2015 09:40:00 2.1 C 5.37 g/m*3 2.1 C 3.2 km/h
681 07-01-2015 11:40:00 3.2 C 5.54 g/m*3 -0.1 C 12.9 km/h
682 07-01-2015 11:45:00 3.3 C 5.58 g/m*3 1.63 C 6.4 km/h
683 07-01-2015 11:50:00 3.2 C 5.54 g/m*3 0.58 C 9.7 km/h
684 07-01-2015 11:55:00 3.2 C 5.54 g/m*3 3.2 C 4.8 km/h
685 07-01-2015 12:00:00 3.1 C 5.51 g/m*3 1.4 C 6.4 km/h
686 07-01-2015 12:05:00 3.1 C 5.51 g/m*3 3.1 C 4.8 km/h
687 07-01-2015 12:10:00 3.2 C 5.54 g/m*3 1.51 C 6.4 km/h
688 07-01-2015 12:15:00 3.1 C 5.51 g/m*3 1.4 C 6.4 km/h
689 07-01-2015 12:20:00 3.1 C 5.51 g/m*3 3.1 C 4.8 km/h
690 07-01-2015 12:25:00 3.1 C 5.51 g/m*3 0.1 C 11.3 km/h
691 07-01-2015 12:30:00 3.2 C 5.54 g/m*3 0.58 C 9.7 km/h
692 07-01-2015 12:35:00 3.2 C 5.48 g/m*3 1.51 C 6.4 km/h
693 07-01-2015 12:40:00 3.2 C 5.54 g/m*3 0.22 C 11.3 km/h
694 07-01-2015 12:45:00 3.3 C 5.52 g/m*3 0.34 C 11.3 km/h
695 07-01-2015 12:50:00 3.3 C 5.52 g/m*3 1.11 C 8.1 km/h
696 07-01-2015 12:55:00 3.4 C 5.56 g/m*3 0.46 C 11.3 km/h
697 07-01-2015 13:00:00 3.4 C 5.5 g/m*3 0.46 C 11.3 km/h
698 07-01-2015 13:05:00 3.4 C 5.5 g/m*3 0.46 C 11.3 km/h
699 07-01-2015 13:10:00 3.4 C 5.5 g/m*3 1.75 C 6.4 km/h
700 07-01-2015 13:15:00 3.4 C 5.5 g/m*3 1.23 C 8.1 km/h
Sensor: Nr:Datum:Temp:Abs-Feuchte:Windchill:Wind:
Aussen-T/F 701 07-01-2015 13:20:00 3.4 C 5.56 g/m*3 1.75 C 6.4 km/h
702 07-01-2015 13:25:00 3.4 C 5.56 g/m*3 0.46 C 11.3 km/h
703 07-01-2015 13:30:00 3.4 C 5.56 g/m*3 1.23 C 8.1 km/h
704 07-01-2015 13:35:00 3.4 C 5.56 g/m*3 0.82 C 9.7 km/h
705 07-01-2015 13:40:00 3.4 C 5.5 g/m*3 -0.14 C 14.5 km/h
706 07-01-2015 13:45:00 3.4 C 5.5 g/m*3 1.23 C 8.1 km/h
707 07-01-2015 13:50:00 3.4 C 5.5 g/m*3 0.14 C 12.9 km/h
708 07-01-2015 13:55:00 3.5 C 5.53 g/m*3 0.58 C 11.3 km/h
709 07-01-2015 14:00:00 3.5 C 5.53 g/m*3 0.94 C 9.7 km/h
710 07-01-2015 14:05:00 3.5 C 5.53 g/m*3 1.86 C 6.4 km/h
711 07-01-2015 14:10:00 3.5 C 5.53 g/m*3 0.94 C 9.7 km/h
712 07-01-2015 14:15:00 3.4 C 5.5 g/m*3 -0.4 C 16.1 km/h
713 07-01-2015 14:20:00 3.4 C 5.5 g/m*3 0.46 C 11.3 km/h
714 07-01-2015 14:25:00 3.4 C 5.5 g/m*3 0.82 C 9.7 km/h
715 07-01-2015 14:30:00 3.4 C 5.44 g/m*3 0.46 C 11.3 km/h
716 07-01-2015 14:35:00 3.4 C 5.44 g/m*3 0.82 C 9.7 km/h
717 07-01-2015 14:40:00 3.4 C 5.44 g/m*3 0.82 C 9.7 km/h
718 07-01-2015 14:45:00 3.4 C 5.44 g/m*3 0.82 C 9.7 km/h
719 07-01-2015 14:50:00 3.4 C 5.44 g/m*3 0.14 C 12.9 km/h
720 07-01-2015 14:55:00 3.4 C 5.44 g/m*3 0.46 C 11.3 km/h
721 07-01-2015 15:00:00 3.4 C 5.44 g/m*3 3.4 C 4.8 km/h
722 07-01-2015 15:05:00 3.4 C 5.37 g/m*3 3.4 C 4.8 km/h
723 07-01-2015 15:10:00 3.5 C 5.47 g/m*3 0.58 C 11.3 km/h
724 07-01-2015 15:15:00 3.5 C 5.47 g/m*3 1.86 C 6.4 km/h
725 07-01-2015 15:20:00 3.5 C 5.47 g/m*3 1.86 C 6.4 km/h
Sensor: Nr:Datum:Temp:Abs-Feuchte:Windchill:Wind:
Aussen-T/F 726 07-01-2015 15:25:00 3.5 C 5.41 g/m*3 3.5 C 4.8 km/h
727 07-01-2015 15:30:00 3.5 C 5.47 g/m*3 3.5 C 4.8 km/h
728 07-01-2015 15:35:00 3.4 C 5.44 g/m*3 0.82 C 9.7 km/h
729 07-01-2015 15:40:00 3.4 C 5.37 g/m*3 1.23 C 8.1 km/h
730 07-01-2015 15:45:00 3.3 C 5.34 g/m*3 0.7 C 9.7 km/h
731 07-01-2015 15:50:00 3.3 C 5.4 g/m*3 0.34 C 11.3 km/h
732 07-01-2015 15:55:00 3.3 C 5.4 g/m*3 0.7 C 9.7 km/h
733 07-01-2015 16:00:00 3.2 C 5.36 g/m*3 0.99 C 8.1 km/h
734 07-01-2015 16:05:00 3.2 C 5.36 g/m*3 3.2 C 4.8 km/h
735 07-01-2015 16:10:00 3.2 C 5.42 g/m*3 0.99 C 8.1 km/h
736 07-01-2015 16:15:00 3.2 C 5.36 g/m*3 0.58 C 9.7 km/h
737 07-01-2015 16:20:00 3.2 C 5.42 g/m*3 3.2 C 4.8 km/h
738 07-01-2015 16:25:00 3.2 C 5.42 g/m*3 3.2 C 3.2 km/h
739 07-01-2015 16:30:00 3.1 C 5.39 g/m*3 3.1 C 3.2 km/h
740 07-01-2015 16:35:00 3.1 C 5.39 g/m*3 3.1 C 4.8 km/h
741 07-01-2015 16:40:00 3.1 C 5.39 g/m*3 0.87 C 8.1 km/h
742 07-01-2015 16:45:00 3.1 C 5.39 g/m*3 1.4 C 6.4 km/h
743 07-01-2015 16:50:00 3.1 C 5.39 g/m*3 1.4 C 6.4 km/h
744 07-01-2015 16:55:00 3 C 5.35 g/m*3 3 C 4.8 km/h
745 07-01-2015 17:00:00 3 C 5.35 g/m*3 1.28 C 6.4 km/h
746 07-01-2015 17:05:00 2.9 C 5.32 g/m*3 2.9 C 3.2 km/h
747 07-01-2015 17:10:00 2.9 C 5.32 g/m*3 2.9 C 3.2 km/h
748 07-01-2015 17:15:00 2.9 C 5.32 g/m*3 0.22 C 9.7 km/h
749 07-01-2015 17:20:00 2.9 C 5.37 g/m*3 2.9 C 1.6 km/h
750 07-01-2015 17:25:00 2.8 C 5.34 g/m*3 2.8 C 0 km/h
Sensor: Nr:Datum:Temp:Abs-Feuchte:Windchill:Wind:
Aussen-T/F 751 07-01-2015 17:30:00 2.8 C 5.34 g/m*3 2.8 C 0 km/h
752 07-01-2015 17:35:00 2.8 C 5.34 g/m*3 2.8 C 0 km/h
753 07-01-2015 17:40:00 2.7 C 5.3 g/m*3 2.7 C 3.2 km/h
754 07-01-2015 17:45:00 2.7 C 5.3 g/m*3 0.4 C 8.1 km/h
755 07-01-2015 17:50:00 2.8 C 5.34 g/m*3 0.52 C 8.1 km/h
756 07-01-2015 17:55:00 2.8 C 5.34 g/m*3 1.05 C 6.4 km/h
757 07-01-2015 18:00:00 2.8 C 5.28 g/m*3 2.8 C 4.8 km/h
758 07-01-2015 18:05:00 2.8 C 5.28 g/m*3 0.1 C 9.7 km/h
759 07-01-2015 18:10:00 2.8 C 5.28 g/m*3 1.05 C 6.4 km/h
760 07-01-2015 18:15:00 2.8 C 5.28 g/m*3 2.8 C 3.2 km/h
761 07-01-2015 18:20:00 2.8 C 5.28 g/m*3 2.8 C 1.6 km/h
762 07-01-2015 18:25:00 2.8 C 5.28 g/m*3 2.8 C 3.2 km/h
763 07-01-2015 18:30:00 2.8 C 5.28 g/m*3 2.8 C 4.8 km/h
764 07-01-2015 18:35:00 2.8 C 5.28 g/m*3 2.8 C 3.2 km/h
765 07-01-2015 18:40:00 2.8 C 5.28 g/m*3 2.8 C 3.2 km/h
766 07-01-2015 18:45:00 2.8 C 5.34 g/m*3 2.8 C 0 km/h
767 07-01-2015 18:50:00 2.7 C 5.3 g/m*3 2.7 C 0 km/h
768 07-01-2015 18:55:00 2.7 C 5.3 g/m*3 2.7 C 1.6 km/h
769 07-01-2015 19:00:00 2.7 C 5.3 g/m*3 2.7 C 1.6 km/h
770 07-01-2015 19:05:00 2.7 C 5.3 g/m*3 2.7 C 0 km/h
771 07-01-2015 19:10:00 2.7 C 5.36 g/m*3 2.7 C 1.6 km/h
772 07-01-2015 19:15:00 2.6 C 5.32 g/m*3 2.6 C 0 km/h
773 07-01-2015 19:20:00 2.6 C 5.32 g/m*3 2.6 C 0 km/h
774 07-01-2015 19:25:00 2.6 C 5.32 g/m*3 2.6 C 1.6 km/h
775 07-01-2015 19:30:00 2.6 C 5.32 g/m*3 2.6 C 1.6 km/h
Sensor: Nr:Datum:Temp:Abs-Feuchte:Windchill:Wind:
Aussen-T/F 776 07-01-2015 19:35:00 2.5 C 5.35 g/m*3 2.5 C 1.6 km/h
777 07-01-2015 19:40:00 2.5 C 5.35 g/m*3 2.5 C 0 km/h
778 07-01-2015 19:45:00 2.5 C 5.35 g/m*3 2.5 C 0 km/h
779 07-01-2015 19:50:00 2.4 C 5.31 g/m*3 2.4 C 0 km/h
780 07-01-2015 19:55:00 2.4 C 5.31 g/m*3 2.4 C 3.2 km/h
781 07-01-2015 20:00:00 2.5 C 5.35 g/m*3 2.5 C 0 km/h
782 07-01-2015 20:05:00 2.5 C 5.35 g/m*3 2.5 C 0 km/h
783 07-01-2015 20:10:00 2.6 C 5.38 g/m*3 2.6 C 0 km/h
784 07-01-2015 20:15:00 2.6 C 5.38 g/m*3 2.6 C 0 km/h
785 07-01-2015 20:20:00 2.6 C 5.38 g/m*3 2.6 C 0 km/h
786 07-01-2015 20:25:00 2.6 C 5.38 g/m*3 2.6 C 0 km/h
787 07-01-2015 20:30:00 2.6 C 5.38 g/m*3 2.6 C 1.6 km/h
788 07-01-2015 20:35:00 2.6 C 5.32 g/m*3 2.6 C 4.8 km/h
789 07-01-2015 20:40:00 2.6 C 5.32 g/m*3 0.29 C 8.1 km/h
790 07-01-2015 20:45:00 2.7 C 5.36 g/m*3 0.94 C 6.4 km/h
791 07-01-2015 20:50:00 2.7 C 5.36 g/m*3 0.94 C 6.4 km/h
792 07-01-2015 20:55:00 2.7 C 5.36 g/m*3 2.7 C 3.2 km/h
793 07-01-2015 21:00:00 2.7 C 5.36 g/m*3 2.7 C 1.6 km/h
794 07-01-2015 21:05:00 2.7 C 5.36 g/m*3 2.7 C 1.6 km/h
795 07-01-2015 21:10:00 2.7 C 5.36 g/m*3 2.7 C 3.2 km/h
796 07-01-2015 21:15:00 2.6 C 5.32 g/m*3 2.6 C 3.2 km/h
797 07-01-2015 21:20:00 2.6 C 5.32 g/m*3 2.6 C 3.2 km/h
798 07-01-2015 21:25:00 2.6 C 5.27 g/m*3 2.6 C 3.2 km/h
799 07-01-2015 21:30:00 2.6 C 5.32 g/m*3 2.6 C 0 km/h
800 07-01-2015 21:35:00 2.6 C 5.32 g/m*3 2.6 C 1.6 km/h
Sensor: Nr:Datum:Temp:Abs-Feuchte:Windchill:Wind:
Aussen-T/F 801 07-01-2015 21:40:00 2.6 C 5.32 g/m*3 2.6 C 1.6 km/h
802 07-01-2015 21:45:00 2.5 C 5.29 g/m*3 2.5 C 0 km/h
803 07-01-2015 21:50:00 2.4 C 5.25 g/m*3 2.4 C 0 km/h
804 07-01-2015 21:55:00 2.4 C 5.31 g/m*3 2.4 C 0 km/h
805 07-01-2015 22:00:00 2.4 C 5.31 g/m*3 2.4 C 0 km/h
806 07-01-2015 22:05:00 2.4 C 5.31 g/m*3 2.4 C 0 km/h
807 07-01-2015 22:10:00 2.4 C 5.31 g/m*3 2.4 C 0 km/h
808 07-01-2015 22:15:00 2.4 C 5.31 g/m*3 2.4 C 0 km/h
809 07-01-2015 22:20:00 2.4 C 5.31 g/m*3 2.4 C 1.6 km/h
810 07-01-2015 22:25:00 2.4 C 5.25 g/m*3 2.4 C 1.6 km/h
811 07-01-2015 22:30:00 2.4 C 5.25 g/m*3 0.59 C 6.4 km/h
812 07-01-2015 22:35:00 2.4 C 5.2 g/m*3 2.4 C 3.2 km/h
813 07-01-2015 22:40:00 2.6 C 5.21 g/m*3 2.6 C 4.8 km/h
814 07-01-2015 22:45:00 2.6 C 5.15 g/m*3 2.6 C 3.2 km/h
815 07-01-2015 22:50:00 2.6 C 5.15 g/m*3 2.6 C 3.2 km/h
816 07-01-2015 22:55:00 2.7 C 5.19 g/m*3 2.7 C 1.6 km/h
817 07-01-2015 23:00:00 2.7 C 5.19 g/m*3 0.4 C 8.1 km/h
818 07-01-2015 23:05:00 2.7 C 5.13 g/m*3 0.94 C 6.4 km/h
819 07-01-2015 23:10:00 2.8 C 5.16 g/m*3 2.8 C 3.2 km/h
820 07-01-2015 23:15:00 2.8 C 5.16 g/m*3 2.8 C 0 km/h
821 07-01-2015 23:20:00 2.8 C 5.16 g/m*3 0.52 C 8.1 km/h
822 07-01-2015 23:25:00 2.8 C 5.16 g/m*3 2.8 C 3.2 km/h
823 07-01-2015 23:30:00 2.8 C 5.16 g/m*3 2.8 C 0 km/h
824 07-01-2015 23:35:00 2.8 C 5.16 g/m*3 2.8 C 3.2 km/h
825 07-01-2015 23:40:00 2.9 C 5.2 g/m*3 2.9 C 3.2 km/h
Sensor: Nr:Datum:Temp:Abs-Feuchte:Windchill:Wind:
Aussen-T/F 826 07-01-2015 23:45:00 2.9 C 5.2 g/m*3 2.9 C 0 km/h
827 07-01-2015 23:50:00 2.9 C 5.26 g/m*3 2.9 C 0 km/h
828 07-01-2015 23:55:00 2.8 C 5.22 g/m*3 2.8 C 0 km/h
829 08-01-2015 00:00:00 2.8 C 5.28 g/m*3 2.8 C 0 km/h
830 08-01-2015 00:05:00 2.7 C 5.3 g/m*3 2.7 C 3.2 km/h
831 08-01-2015 00:10:00 2.6 C 5.27 g/m*3 2.6 C 0 km/h
832 08-01-2015 00:15:00 2.6 C 5.32 g/m*3 2.6 C 0 km/h
833 08-01-2015 00:20:00 2.6 C 5.32 g/m*3 2.6 C 0 km/h
834 08-01-2015 00:25:00 2.6 C 5.32 g/m*3 2.6 C 1.6 km/h
835 08-01-2015 00:30:00 2.6 C 5.32 g/m*3 2.6 C 1.6 km/h
836 08-01-2015 00:35:00 2.6 C 5.32 g/m*3 2.6 C 0 km/h
837 08-01-2015 00:40:00 2.6 C 5.38 g/m*3 2.6 C 1.6 km/h
838 08-01-2015 00:45:00 2.6 C 5.38 g/m*3 2.6 C 1.6 km/h
839 08-01-2015 00:50:00 2.6 C 5.38 g/m*3 2.6 C 0 km/h
840 08-01-2015 00:55:00 2.6 C 5.38 g/m*3 2.6 C 1.6 km/h
841 08-01-2015 01:00:00 2.6 C 5.38 g/m*3 2.6 C 0 km/h
842 08-01-2015 01:05:00 2.6 C 5.38 g/m*3 2.6 C 0 km/h
843 08-01-2015 01:10:00 2.6 C 5.44 g/m*3 2.6 C 0 km/h
844 08-01-2015 01:15:00 2.6 C 5.44 g/m*3 2.6 C 0 km/h
845 08-01-2015 01:20:00 2.6 C 5.44 g/m*3 2.6 C 0 km/h
846 08-01-2015 01:25:00 2.6 C 5.44 g/m*3 2.6 C 0 km/h
847 08-01-2015 01:30:00 2.6 C 5.44 g/m*3 2.6 C 1.6 km/h
848 08-01-2015 01:35:00 2.6 C 5.44 g/m*3 2.6 C 0 km/h
849 08-01-2015 01:40:00 2.6 C 5.44 g/m*3 2.6 C 0 km/h
850 08-01-2015 01:45:00 2.7 C 5.48 g/m*3 2.7 C 0 km/h
Sensor: Nr:Datum:Temp:Abs-Feuchte:Windchill:Wind:
Aussen-T/F 851 08-01-2015 01:50:00 2.7 C 5.48 g/m*3 2.7 C 0 km/h
852 08-01-2015 01:55:00 2.7 C 5.48 g/m*3 2.7 C 0 km/h
853 08-01-2015 02:00:00 2.6 C 5.44 g/m*3 2.6 C 0 km/h
854 08-01-2015 02:05:00 2.7 C 5.48 g/m*3 2.7 C 0 km/h
855 08-01-2015 02:10:00 2.7 C 5.48 g/m*3 2.7 C 0 km/h
856 08-01-2015 02:15:00 2.7 C 5.48 g/m*3 2.7 C 0 km/h
857 08-01-2015 02:20:00 2.7 C 5.48 g/m*3 2.7 C 0 km/h
858 08-01-2015 02:25:00 2.7 C 5.48 g/m*3 2.7 C 0 km/h
859 08-01-2015 02:30:00 2.7 C 5.48 g/m*3 2.7 C 0 km/h
860 08-01-2015 02:35:00 2.8 C 5.51 g/m*3 2.8 C 0 km/h
861 08-01-2015 02:40:00 2.8 C 5.51 g/m*3 2.8 C 1.6 km/h
862 08-01-2015 02:45:00 2.9 C 5.55 g/m*3 2.9 C 0 km/h
863 08-01-2015 02:50:00 2.9 C 5.55 g/m*3 2.9 C 0 km/h
864 08-01-2015 02:55:00 3.2 C 5.66 g/m*3 1.51 C 6.4 km/h
865 08-01-2015 03:00:00 3.4 C 5.74 g/m*3 0.82 C 9.7 km/h
866 08-01-2015 03:05:00 3.8 C 5.9 g/m*3 0.35 C 14.5 km/h
867 08-01-2015 03:10:00 4 C 5.98 g/m*3 2.44 C 6.4 km/h
868 08-01-2015 03:15:00 4.2 C 5.99 g/m*3 1.43 C 11.3 km/h
869 08-01-2015 03:20:00 4.2 C 5.93 g/m*3 2.17 C 8.1 km/h
870 08-01-2015 03:25:00 4.3 C 5.97 g/m*3 1.24 C 12.9 km/h
871 08-01-2015 03:30:00 4.4 C 6.01 g/m*3 2.01 C 9.7 km/h
872 08-01-2015 03:35:00 4.5 C 6.05 g/m*3 1.48 C 12.9 km/h
873 08-01-2015 03:40:00 4.6 C 6.02 g/m*3 3.13 C 6.4 km/h
874 08-01-2015 03:45:00 4.7 C 6.06 g/m*3 2.37 C 9.7 km/h
875 08-01-2015 03:50:00 4.7 C 6.06 g/m*3 4.7 C 4.8 km/h
Sensor: Nr:Datum:Temp:Abs-Feuchte:Windchill:Wind:
Aussen-T/F 876 08-01-2015 03:55:00 4.6 C 6.02 g/m*3 3.13 C 6.4 km/h
877 08-01-2015 04:00:00 4.6 C 6.09 g/m*3 4.6 C 4.8 km/h
878 08-01-2015 04:05:00 4.5 C 6.05 g/m*3 4.5 C 4.8 km/h
879 08-01-2015 04:10:00 4.4 C 6.07 g/m*3 4.4 C 4.8 km/h
880 08-01-2015 04:15:00 4.4 C 6.14 g/m*3 4.4 C 4.8 km/h
881 08-01-2015 04:20:00 4.5 C 6.18 g/m*3 4.5 C 4.8 km/h
882 08-01-2015 04:25:00 4.5 C 6.18 g/m*3 4.5 C 0 km/h
883 08-01-2015 04:30:00 4.4 C 6.14 g/m*3 4.4 C 4.8 km/h
884 08-01-2015 04:35:00 4.3 C 6.16 g/m*3 4.3 C 0 km/h
885 08-01-2015 04:40:00 4.2 C 6.12 g/m*3 4.2 C 4.8 km/h
886 08-01-2015 04:45:00 4.2 C 6.12 g/m*3 4.2 C 3.2 km/h
887 08-01-2015 04:50:00 4.2 C 6.19 g/m*3 4.2 C 3.2 km/h
888 08-01-2015 04:55:00 4.2 C 6.19 g/m*3 4.2 C 3.2 km/h
889 08-01-2015 05:00:00 4.2 C 6.19 g/m*3 4.2 C 1.6 km/h
890 08-01-2015 05:05:00 4.3 C 6.23 g/m*3 4.3 C 1.6 km/h
891 08-01-2015 05:10:00 4.3 C 6.23 g/m*3 4.3 C 0 km/h
892 08-01-2015 05:15:00 4.2 C 6.19 g/m*3 4.2 C 0 km/h
893 08-01-2015 05:20:00 4.2 C 6.19 g/m*3 4.2 C 1.6 km/h
894 08-01-2015 05:25:00 4.3 C 6.23 g/m*3 4.3 C 3.2 km/h
895 08-01-2015 05:30:00 4.3 C 6.23 g/m*3 4.3 C 1.6 km/h
896 08-01-2015 05:35:00 4.3 C 6.23 g/m*3 4.3 C 1.6 km/h
897 08-01-2015 05:40:00 4.3 C 6.29 g/m*3 4.3 C 3.2 km/h
898 08-01-2015 05:45:00 4.3 C 6.23 g/m*3 4.3 C 4.8 km/h
899 08-01-2015 05:50:00 4.3 C 6.23 g/m*3 4.3 C 1.6 km/h
900 08-01-2015 05:55:00 4.3 C 6.23 g/m*3 4.3 C 0 km/h
Sensor: Nr:Datum:Temp:Abs-Feuchte:Windchill:Wind:
Aussen-T/F 901 08-01-2015 06:00:00 4.3 C 6.23 g/m*3 4.3 C 3.2 km/h
902 08-01-2015 06:05:00 4.3 C 6.29 g/m*3 4.3 C 1.6 km/h
903 08-01-2015 06:10:00 4.3 C 6.29 g/m*3 4.3 C 0 km/h
904 08-01-2015 06:15:00 4.2 C 6.25 g/m*3 4.2 C 1.6 km/h
905 08-01-2015 06:20:00 4.3 C 6.29 g/m*3 4.3 C 1.6 km/h
906 08-01-2015 06:25:00 4.3 C 6.29 g/m*3 4.3 C 0 km/h
907 08-01-2015 06:30:00 4.3 C 6.29 g/m*3 4.3 C 3.2 km/h
908 08-01-2015 06:35:00 4.3 C 6.29 g/m*3 4.3 C 1.6 km/h
909 08-01-2015 06:40:00 4.2 C 6.25 g/m*3 4.2 C 1.6 km/h
910 08-01-2015 06:45:00 4.3 C 6.29 g/m*3 4.3 C 0 km/h
911 08-01-2015 06:50:00 4.3 C 6.29 g/m*3 4.3 C 0 km/h
912 08-01-2015 06:55:00 4.3 C 6.29 g/m*3 4.3 C 0 km/h
913 08-01-2015 07:00:00 4.3 C 6.29 g/m*3 4.3 C 1.6 km/h
914 08-01-2015 07:05:00 4.4 C 6.33 g/m*3 4.4 C 1.6 km/h
915 08-01-2015 07:10:00 4.4 C 6.33 g/m*3 4.4 C 4.8 km/h
916 08-01-2015 07:15:00 4.5 C 6.38 g/m*3 4.5 C 3.2 km/h
917 08-01-2015 07:20:00 4.7 C 6.53 g/m*3 2.03 C 11.3 km/h
918 08-01-2015 07:25:00 4.9 C 6.62 g/m*3 2.99 C 8.1 km/h
919 08-01-2015 07:30:00 5.1 C 6.7 g/m*3 5.1 C 3.2 km/h
920 08-01-2015 07:35:00 5.2 C 6.68 g/m*3 3.34 C 8.1 km/h
921 08-01-2015 07:40:00 5.3 C 6.72 g/m*3 2.46 C 12.9 km/h
922 08-01-2015 07:45:00 5.4 C 6.77 g/m*3 2.08 C 16.1 km/h
923 08-01-2015 07:50:00 5.6 C 6.86 g/m*3 2.33 C 16.1 km/h
924 08-01-2015 07:55:00 5.6 C 6.79 g/m*3 2.11 C 17.7 km/h
925 08-01-2015 08:00:00 5.7 C 6.83 g/m*3 3.93 C 8.1 km/h
Sensor: Nr:Datum:Temp:Abs-Feuchte:Windchill:Wind:
Aussen-T/F 926 08-01-2015 08:05:00 5.6 C 6.79 g/m*3 5.6 C 4.8 km/h
927 08-01-2015 08:10:00 5.6 C 6.79 g/m*3 3.81 C 8.1 km/h
928 08-01-2015 08:15:00 5.7 C 6.83 g/m*3 3.56 C 9.7 km/h
929 08-01-2015 08:20:00 5.7 C 6.83 g/m*3 3.93 C 8.1 km/h
930 08-01-2015 08:25:00 5.7 C 6.83 g/m*3 4.4 C 6.4 km/h
931 08-01-2015 08:30:00 5.7 C 6.83 g/m*3 5.7 C 4.8 km/h
932 08-01-2015 08:35:00 5.6 C 6.79 g/m*3 5.6 C 1.6 km/h
933 08-01-2015 08:40:00 5.6 C 6.79 g/m*3 5.6 C 1.6 km/h
934 08-01-2015 08:45:00 5.6 C 6.79 g/m*3 5.6 C 0 km/h
935 08-01-2015 08:50:00 5.6 C 6.79 g/m*3 5.6 C 4.8 km/h
936 08-01-2015 08:55:00 5.5 C 6.74 g/m*3 5.5 C 3.2 km/h
937 08-01-2015 09:00:00 5.4 C 6.77 g/m*3 5.4 C 3.2 km/h
938 08-01-2015 09:05:00 5.4 C 6.77 g/m*3 5.4 C 3.2 km/h
939 08-01-2015 09:10:00 5.5 C 6.81 g/m*3 5.5 C 0 km/h
940 08-01-2015 09:15:00 5.5 C 6.81 g/m*3 5.5 C 1.6 km/h
941 08-01-2015 09:20:00 5.5 C 6.81 g/m*3 5.5 C 0 km/h
942 08-01-2015 09:25:00 5.5 C 6.81 g/m*3 5.5 C 0 km/h
943 08-01-2015 09:30:00 5.6 C 6.86 g/m*3 5.6 C 0 km/h
944 08-01-2015 09:35:00 5.6 C 6.86 g/m*3 5.6 C 3.2 km/h
945 08-01-2015 09:40:00 5.6 C 6.86 g/m*3 5.6 C 1.6 km/h
946 08-01-2015 09:45:00 5.7 C 6.97 g/m*3 5.7 C 1.6 km/h
947 08-01-2015 09:50:00 5.8 C 7.02 g/m*3 5.8 C 3.2 km/h
948 08-01-2015 09:55:00 5.9 C 7.07 g/m*3 5.9 C 1.6 km/h
949 08-01-2015 10:00:00 6 C 7.11 g/m*3 6 C 3.2 km/h
950 08-01-2015 10:05:00 6.1 C 7.16 g/m*3 6.1 C 3.2 km/h
Sensor: Nr:Datum:Temp:Abs-Feuchte:Windchill:Wind:
Aussen-T/F 951 08-01-2015 10:10:00 6.1 C 7.16 g/m*3 6.1 C 4.8 km/h
952 08-01-2015 10:15:00 6.2 C 7.21 g/m*3 6.2 C 1.6 km/h
953 08-01-2015 10:20:00 6.3 C 7.25 g/m*3 6.3 C 0 km/h
954 08-01-2015 10:25:00 6.4 C 7.3 g/m*3 6.4 C 3.2 km/h
955 08-01-2015 10:30:00 6.4 C 7.3 g/m*3 6.4 C 0 km/h
956 08-01-2015 10:35:00 6.6 C 7.4 g/m*3 6.6 C 4.8 km/h
957 08-01-2015 10:40:00 6.7 C 7.45 g/m*3 5.56 C 6.4 km/h
958 08-01-2015 10:45:00 6.8 C 7.5 g/m*3 6.8 C 1.6 km/h
959 08-01-2015 10:50:00 6.8 C 7.42 g/m*3 5.67 C 6.4 km/h
960 08-01-2015 10:55:00 6.9 C 7.47 g/m*3 4.68 C 11.3 km/h
961 08-01-2015 11:00:00 7.1 C 7.57 g/m*3 7.1 C 3.2 km/h
962 08-01-2015 11:05:00 7.1 C 7.57 g/m*3 7.1 C 4.8 km/h
963 08-01-2015 11:10:00 7.2 C 7.61 g/m*3 7.2 C 4.8 km/h
964 08-01-2015 11:15:00 7.2 C 7.61 g/m*3 7.2 C 4.8 km/h
965 08-01-2015 11:20:00 7.3 C 7.58 g/m*3 5.47 C 9.7 km/h
966 08-01-2015 11:25:00 7.4 C 7.63 g/m*3 5.93 C 8.1 km/h
967 08-01-2015 11:30:00 7.6 C 7.65 g/m*3 5.82 C 9.7 km/h
968 08-01-2015 11:35:00 7.7 C 7.7 g/m*3 6.28 C 8.1 km/h
969 08-01-2015 11:40:00 7.7 C 7.7 g/m*3 6.71 C 6.4 km/h
970 08-01-2015 11:45:00 7.8 C 7.75 g/m*3 6.06 C 9.7 km/h
971 08-01-2015 11:50:00 7.9 C 7.8 g/m*3 6.18 C 9.7 km/h
972 08-01-2015 11:55:00 8 C 7.85 g/m*3 6.3 C 9.7 km/h
973 08-01-2015 12:00:00 8.1 C 7.82 g/m*3 8.1 C 3.2 km/h
974 08-01-2015 12:05:00 8.1 C 7.82 g/m*3 8.1 C 3.2 km/h
975 08-01-2015 12:10:00 8.1 C 7.82 g/m*3 6.75 C 8.1 km/h
Sensor: Nr:Datum:Temp:Abs-Feuchte:Windchill:Wind:
Aussen-T/F 976 08-01-2015 12:15:00 8.1 C 7.82 g/m*3 6.75 C 8.1 km/h
977 08-01-2015 12:20:00 8.2 C 7.87 g/m*3 6.87 C 8.1 km/h
978 08-01-2015 12:25:00 8.2 C 7.87 g/m*3 6.87 C 8.1 km/h
979 08-01-2015 12:30:00 8.3 C 7.92 g/m*3 7.41 C 6.4 km/h
980 08-01-2015 12:35:00 8.4 C 7.89 g/m*3 6.49 C 11.3 km/h
981 08-01-2015 12:40:00 8.6 C 7.99 g/m*3 6.48 C 12.9 km/h
982 08-01-2015 12:45:00 8.7 C 7.96 g/m*3 7.46 C 8.1 km/h
983 08-01-2015 12:50:00 8.8 C 8.01 g/m*3 7.58 C 8.1 km/h
984 08-01-2015 12:55:00 8.9 C 8.06 g/m*3 6.85 C 12.9 km/h
985 08-01-2015 13:00:00 8.9 C 8.06 g/m*3 6.42 C 16.1 km/h
986 08-01-2015 13:05:00 8.9 C 8.06 g/m*3 6.42 C 16.1 km/h
987 08-01-2015 13:10:00 8.9 C 8.06 g/m*3 6.23 C 17.7 km/h
988 08-01-2015 13:15:00 8.9 C 8.06 g/m*3 5.6 C 24.1 km/h
989 08-01-2015 13:20:00 9 C 8.11 g/m*3 5.6 C 25.7 km/h
990 08-01-2015 13:25:00 9 C 8.11 g/m*3 5.73 C 24.1 km/h
991 08-01-2015 13:30:00 9.1 C 8.16 g/m*3 6.15 C 20.9 km/h
992 08-01-2015 13:35:00 9.1 C 8.16 g/m*3 5.73 C 25.7 km/h
993 08-01-2015 13:40:00 9.2 C 8.13 g/m*3 6.13 C 22.5 km/h
994 08-01-2015 13:45:00 9.2 C 8.13 g/m*3 5.86 C 25.7 km/h
995 08-01-2015 13:50:00 9.3 C 8.18 g/m*3 6.12 C 24.1 km/h
996 08-01-2015 13:55:00 9.3 C 8.18 g/m*3 5.98 C 25.7 km/h
997 08-01-2015 14:00:00 9.2 C 8.22 g/m*3 7.21 C 12.9 km/h
998 08-01-2015 14:05:00 9.2 C 8.22 g/m*3 6.61 C 17.7 km/h
999 08-01-2015 14:10:00 9.2 C 8.13 g/m*3 5.86 C 25.7 km/h
1000 08-01-2015 14:15:00 9.3 C 8.18 g/m*3 6.73 C 17.7 km/h
Sensor: Nr:Datum:Temp:Abs-Feuchte:Windchill:Wind:
Aussen-T/F 1001 08-01-2015 14:20:00 9.3 C 8.18 g/m*3 6.92 C 16.1 km/h
1002 08-01-2015 14:25:00 9.4 C 8.23 g/m*3 7.04 C 16.1 km/h
1003 08-01-2015 14:30:00 9.4 C 8.23 g/m*3 6.11 C 25.7 km/h
1004 08-01-2015 14:35:00 9.5 C 8.28 g/m*3 6.82 C 19.3 km/h
1005 08-01-2015 14:40:00 9.6 C 8.34 g/m*3 6.94 C 19.3 km/h
1006 08-01-2015 14:45:00 9.6 C 8.24 g/m*3 6.79 C 20.9 km/h
1007 08-01-2015 14:50:00 9.6 C 8.24 g/m*3 7.48 C 14.5 km/h
1008 08-01-2015 14:55:00 9.7 C 8.3 g/m*3 7.23 C 17.7 km/h
1009 08-01-2015 15:00:00 9.7 C 8.3 g/m*3 7.41 C 16.1 km/h
1010 08-01-2015 15:05:00 9.8 C 8.35 g/m*3 7.19 C 19.3 km/h
1011 08-01-2015 15:10:00 9.8 C 8.35 g/m*3 7.36 C 17.7 km/h
1012 08-01-2015 15:15:00 9.7 C 8.39 g/m*3 9.02 C 6.4 km/h
1013 08-01-2015 15:20:00 9.6 C 8.34 g/m*3 7.7 C 12.9 km/h
1014 08-01-2015 15:25:00 9.5 C 8.37 g/m*3 8.4 C 8.1 km/h
1015 08-01-2015 15:30:00 9.5 C 8.37 g/m*3 8.09 C 9.7 km/h
1016 08-01-2015 15:35:00 9.6 C 8.34 g/m*3 7.29 C 16.1 km/h
1017 08-01-2015 15:40:00 9.7 C 8.39 g/m*3 8.33 C 9.7 km/h
1018 08-01-2015 15:45:00 9.7 C 8.39 g/m*3 6.5 C 25.7 km/h
1019 08-01-2015 15:50:00 9.8 C 8.35 g/m*3 6.89 C 22.5 km/h
1020 08-01-2015 15:55:00 9.8 C 8.35 g/m*3 7.54 C 16.1 km/h
1021 08-01-2015 16:00:00 9.8 C 8.35 g/m*3 7.73 C 14.5 km/h
1022 08-01-2015 16:05:00 9.8 C 8.26 g/m*3 6.17 C 32.2 km/h
1023 08-01-2015 16:10:00 9.9 C 8.31 g/m*3 7.02 C 22.5 km/h
1024 08-01-2015 16:15:00 9.9 C 8.31 g/m*3 7.66 C 16.1 km/h
1025 08-01-2015 16:20:00 9.9 C 8.31 g/m*3 7.48 C 17.7 km/h
Sensor: Nr:Datum:Temp:Abs-Feuchte:Windchill:Wind:
Aussen-T/F 1026 08-01-2015 16:25:00 9.8 C 8.26 g/m*3 7.73 C 14.5 km/h
1027 08-01-2015 16:30:00 9.8 C 8.35 g/m*3 6.27 C 30.6 km/h
1028 08-01-2015 16:35:00 9.8 C 8.35 g/m*3 6.89 C 22.5 km/h
1029 08-01-2015 16:40:00 9.7 C 8.3 g/m*3 7.23 C 17.7 km/h
1030 08-01-2015 16:45:00 9.7 C 8.3 g/m*3 7.41 C 16.1 km/h
1031 08-01-2015 16:50:00 9.7 C 8.3 g/m*3 8.06 C 11.3 km/h
1032 08-01-2015 16:55:00 9.6 C 8.34 g/m*3 7.7 C 12.9 km/h
1033 08-01-2015 17:00:00 9.6 C 8.34 g/m*3 7.48 C 14.5 km/h
1034 08-01-2015 17:05:00 9.6 C 8.34 g/m*3 6.94 C 19.3 km/h
1035 08-01-2015 17:10:00 9.6 C 8.34 g/m*3 7.94 C 11.3 km/h
1036 08-01-2015 17:15:00 9.6 C 8.34 g/m*3 7.11 C 17.7 km/h
1037 08-01-2015 17:20:00 9.6 C 8.34 g/m*3 6.79 C 20.9 km/h
1038 08-01-2015 17:25:00 9.7 C 8.39 g/m*3 7.41 C 16.1 km/h
1039 08-01-2015 17:30:00 9.7 C 8.39 g/m*3 7.41 C 16.1 km/h
1040 08-01-2015 17:35:00 9.7 C 8.39 g/m*3 7.23 C 17.7 km/h
1041 08-01-2015 17:40:00 9.7 C 8.39 g/m*3 7.61 C 14.5 km/h
1042 08-01-2015 17:45:00 9.7 C 8.39 g/m*3 7.41 C 16.1 km/h
1043 08-01-2015 17:50:00 9.7 C 8.39 g/m*3 7.23 C 17.7 km/h
1044 08-01-2015 17:55:00 9.7 C 8.39 g/m*3 7.82 C 12.9 km/h
1045 08-01-2015 18:00:00 9.8 C 8.44 g/m*3 7.04 C 20.9 km/h
1046 08-01-2015 18:05:00 9.8 C 8.44 g/m*3 7.36 C 17.7 km/h
1047 08-01-2015 18:10:00 9.8 C 8.44 g/m*3 6.89 C 22.5 km/h
1048 08-01-2015 18:15:00 9.8 C 8.44 g/m*3 7.36 C 17.7 km/h
1049 08-01-2015 18:20:00 9.8 C 8.44 g/m*3 7.04 C 20.9 km/h
1050 08-01-2015 18:25:00 9.8 C 8.44 g/m*3 7.19 C 19.3 km/h
Sensor: Nr:Datum:Temp:Abs-Feuchte:Windchill:Wind:
Aussen-T/F 1051 08-01-2015 18:30:00 9.8 C 8.44 g/m*3 6.63 C 25.7 km/h
1052 08-01-2015 18:35:00 9.8 C 8.44 g/m*3 6.76 C 24.1 km/h
1053 08-01-2015 18:40:00 9.8 C 8.44 g/m*3 7.19 C 19.3 km/h
1054 08-01-2015 18:45:00 9.7 C 8.48 g/m*3 7.82 C 12.9 km/h
1055 08-01-2015 18:50:00 9.7 C 8.48 g/m*3 7.07 C 19.3 km/h
1056 08-01-2015 18:55:00 9.7 C 8.48 g/m*3 7.07 C 19.3 km/h
1057 08-01-2015 19:00:00 9.6 C 8.43 g/m*3 7.29 C 16.1 km/h
1058 08-01-2015 19:05:00 9.6 C 8.43 g/m*3 5.61 C 37 km/h
1059 08-01-2015 19:10:00 9.6 C 8.34 g/m*3 6.5 C 24.1 km/h
1060 08-01-2015 19:15:00 9.5 C 8.01 g/m*3 6.37 C 24.1 km/h
1061 08-01-2015 19:20:00 9.3 C 7.73 g/m*3 6.92 C 16.1 km/h
1062 08-01-2015 19:25:00 9.1 C 7.54 g/m*3 6.67 C 16.1 km/h
1063 08-01-2015 19:30:00 8.9 C 7.36 g/m*3 5.47 C 25.7 km/h
1064 08-01-2015 19:35:00 8.9 C 7.45 g/m*3 6.85 C 12.9 km/h
1065 08-01-2015 19:40:00 8.8 C 7.31 g/m*3 5.48 C 24.1 km/h
1066 08-01-2015 19:45:00 8.7 C 7.26 g/m*3 4.62 C 33.8 km/h
1067 08-01-2015 19:50:00 8.5 C 7.26 g/m*3 4.46 C 32.2 km/h
1068 08-01-2015 19:55:00 8.3 C 7.16 g/m*3 4.84 C 24.1 km/h
1069 08-01-2015 20:00:00 8.1 C 7.07 g/m*3 4.58 C 24.1 km/h
1070 08-01-2015 20:05:00 8 C 7.11 g/m*3 6.3 C 9.7 km/h
1071 08-01-2015 20:10:00 7.9 C 7.15 g/m*3 5.39 C 14.5 km/h
1072 08-01-2015 20:15:00 7.8 C 7.1 g/m*3 4.86 C 17.7 km/h
1073 08-01-2015 20:20:00 7.8 C 7.1 g/m*3 5.27 C 14.5 km/h
1074 08-01-2015 20:25:00 7.7 C 7.14 g/m*3 5.38 C 12.9 km/h
1075 08-01-2015 20:30:00 7.7 C 7.14 g/m*3 5.65 C 11.3 km/h
Sensor: Nr:Datum:Temp:Abs-Feuchte:Windchill:Wind:
Aussen-T/F 1076 08-01-2015 20:35:00 7.6 C 7.09 g/m*3 4.81 C 16.1 km/h
1077 08-01-2015 20:40:00 7.6 C 7.17 g/m*3 4.61 C 17.7 km/h
1078 08-01-2015 20:45:00 7.5 C 7.12 g/m*3 5.7 C 9.7 km/h
1079 08-01-2015 20:50:00 7.4 C 7.08 g/m*3 5.58 C 9.7 km/h
1080 08-01-2015 20:55:00 7.4 C 7.16 g/m*3 5.02 C 12.9 km/h
1081 08-01-2015 21:00:00 7.4 C 7.16 g/m*3 5.93 C 8.1 km/h
1082 08-01-2015 21:05:00 7.3 C 7.11 g/m*3 4.9 C 12.9 km/h
1083 08-01-2015 21:10:00 7.3 C 7.03 g/m*3 4.9 C 12.9 km/h
1084 08-01-2015 21:15:00 7.3 C 7.03 g/m*3 5.16 C 11.3 km/h
1085 08-01-2015 21:20:00 7.4 C 7.08 g/m*3 5.28 C 11.3 km/h
1086 08-01-2015 21:25:00 7.3 C 7.03 g/m*3 5.47 C 9.7 km/h
1087 08-01-2015 21:30:00 7.3 C 7.03 g/m*3 5.81 C 8.1 km/h
1088 08-01-2015 21:35:00 7.3 C 7.03 g/m*3 6.25 C 6.4 km/h
1089 08-01-2015 21:40:00 7.3 C 7.03 g/m*3 5.16 C 11.3 km/h
1090 08-01-2015 21:45:00 7.3 C 7.03 g/m*3 5.47 C 9.7 km/h
1091 08-01-2015 21:50:00 7.3 C 7.03 g/m*3 5.16 C 11.3 km/h
1092 08-01-2015 21:55:00 7.3 C 6.95 g/m*3 5.47 C 9.7 km/h
1093 08-01-2015 22:00:00 7.3 C 6.95 g/m*3 4.66 C 14.5 km/h
1094 08-01-2015 22:05:00 7.3 C 6.95 g/m*3 4.9 C 12.9 km/h
1095 08-01-2015 22:10:00 7.2 C 6.99 g/m*3 5.04 C 11.3 km/h
1096 08-01-2015 22:15:00 7.2 C 6.91 g/m*3 4.53 C 14.5 km/h
1097 08-01-2015 22:20:00 7.2 C 6.91 g/m*3 4.53 C 14.5 km/h
1098 08-01-2015 22:25:00 7.2 C 6.91 g/m*3 4.53 C 14.5 km/h
1099 08-01-2015 22:30:00 7.2 C 6.91 g/m*3 5.35 C 9.7 km/h
1100 08-01-2015 22:35:00 7.1 C 6.86 g/m*3 7.1 C 4.8 km/h
Sensor: Nr:Datum:Temp:Abs-Feuchte:Windchill:Wind:
Aussen-T/F 1101 08-01-2015 22:40:00 7.1 C 6.86 g/m*3 5.23 C 9.7 km/h
1102 08-01-2015 22:45:00 7.1 C 6.86 g/m*3 4.65 C 12.9 km/h
1103 08-01-2015 22:50:00 7 C 6.82 g/m*3 5.11 C 9.7 km/h
1104 08-01-2015 22:55:00 7 C 6.9 g/m*3 5.46 C 8.1 km/h
1105 08-01-2015 23:00:00 6.9 C 6.85 g/m*3 5.79 C 6.4 km/h
1106 08-01-2015 23:05:00 6.8 C 6.81 g/m*3 5.67 C 6.4 km/h
1107 08-01-2015 23:10:00 6.7 C 6.84 g/m*3 6.7 C 4.8 km/h
1108 08-01-2015 23:15:00 6.6 C 6.79 g/m*3 4.99 C 8.1 km/h
1109 08-01-2015 23:20:00 6.5 C 6.75 g/m*3 5.33 C 6.4 km/h
1110 08-01-2015 23:25:00 6.4 C 6.78 g/m*3 3.8 C 12.9 km/h
1111 08-01-2015 23:30:00 6.5 C 6.82 g/m*3 4.51 C 9.7 km/h
1112 08-01-2015 23:35:00 6.6 C 6.87 g/m*3 4.32 C 11.3 km/h
1113 08-01-2015 23:40:00 6.5 C 6.75 g/m*3 4.51 C 9.7 km/h
1114 08-01-2015 23:45:00 6.5 C 6.82 g/m*3 5.33 C 6.4 km/h
1115 08-01-2015 23:50:00 6.4 C 6.78 g/m*3 6.4 C 4.8 km/h
1116 08-01-2015 23:55:00 6.5 C 6.75 g/m*3 4.2 C 11.3 km/h
1117 09-01-2015 00:00:00 6.6 C 6.79 g/m*3 4.04 C 12.9 km/h
1118 09-01-2015 00:05:00 6.5 C 6.75 g/m*3 4.87 C 8.1 km/h
1119 09-01-2015 00:10:00 6.6 C 6.79 g/m*3 4.63 C 9.7 km/h
1120 09-01-2015 00:15:00 6.5 C 6.75 g/m*3 5.33 C 6.4 km/h
1121 09-01-2015 00:20:00 6.6 C 6.72 g/m*3 4.63 C 9.7 km/h
1122 09-01-2015 00:25:00 6.5 C 6.67 g/m*3 6.5 C 4.8 km/h
1123 09-01-2015 00:30:00 6.5 C 6.67 g/m*3 5.33 C 6.4 km/h
1124 09-01-2015 00:35:00 6.4 C 6.63 g/m*3 4.39 C 9.7 km/h
1125 09-01-2015 00:40:00 6.5 C 6.67 g/m*3 4.87 C 8.1 km/h
Sensor: Nr:Datum:Temp:Abs-Feuchte:Windchill:Wind:
Aussen-T/F 1126 09-01-2015 00:45:00 6.6 C 6.72 g/m*3 4.99 C 8.1 km/h
1127 09-01-2015 00:50:00 6.4 C 6.63 g/m*3 6.4 C 4.8 km/h
1128 09-01-2015 00:55:00 6.3 C 6.66 g/m*3 3.96 C 11.3 km/h
1129 09-01-2015 01:00:00 6.3 C 6.59 g/m*3 5.1 C 6.4 km/h
1130 09-01-2015 01:05:00 6.3 C 6.59 g/m*3 4.64 C 8.1 km/h
1131 09-01-2015 01:10:00 6.2 C 6.62 g/m*3 4.15 C 9.7 km/h
1132 09-01-2015 01:15:00 6.2 C 6.62 g/m*3 3.84 C 11.3 km/h
1133 09-01-2015 01:20:00 6.2 C 6.62 g/m*3 2.86 C 17.7 km/h
1134 09-01-2015 01:25:00 6.3 C 6.66 g/m*3 3.96 C 11.3 km/h
1135 09-01-2015 01:30:00 6.5 C 6.75 g/m*3 4.51 C 9.7 km/h
1136 09-01-2015 01:35:00 6.6 C 6.72 g/m*3 3.17 C 19.3 km/h
1137 09-01-2015 01:40:00 6.7 C 6.76 g/m*3 3.29 C 19.3 km/h
1138 09-01-2015 01:45:00 6.7 C 6.69 g/m*3 4.44 C 11.3 km/h
1139 09-01-2015 01:50:00 6.7 C 6.69 g/m*3 5.11 C 8.1 km/h
1140 09-01-2015 01:55:00 6.7 C 6.69 g/m*3 3.92 C 14.5 km/h
1141 09-01-2015 02:00:00 6.7 C 6.69 g/m*3 5.11 C 8.1 km/h
1142 09-01-2015 02:05:00 6.7 C 6.69 g/m*3 5.11 C 8.1 km/h
1143 09-01-2015 02:10:00 6.6 C 6.64 g/m*3 5.44 C 6.4 km/h
1144 09-01-2015 02:15:00 6.5 C 6.6 g/m*3 5.33 C 6.4 km/h
1145 09-01-2015 02:20:00 6.3 C 6.59 g/m*3 5.1 C 6.4 km/h
1146 09-01-2015 02:25:00 6.4 C 6.63 g/m*3 5.21 C 6.4 km/h
1147 09-01-2015 02:30:00 6.3 C 6.59 g/m*3 3.43 C 14.5 km/h
1148 09-01-2015 02:35:00 6.3 C 6.59 g/m*3 5.1 C 6.4 km/h
1149 09-01-2015 02:40:00 6.3 C 6.66 g/m*3 5.1 C 6.4 km/h
1150 09-01-2015 02:45:00 6.3 C 6.66 g/m*3 5.1 C 6.4 km/h
Sensor: Nr:Datum:Temp:Abs-Feuchte:Windchill:Wind:
Aussen-T/F 1151 09-01-2015 02:50:00 6.3 C 6.66 g/m*3 5.1 C 6.4 km/h
1152 09-01-2015 02:55:00 6.4 C 6.71 g/m*3 5.21 C 6.4 km/h
1153 09-01-2015 03:00:00 6.4 C 6.71 g/m*3 5.21 C 6.4 km/h
1154 09-01-2015 03:05:00 6.7 C 6.76 g/m*3 4.17 C 12.9 km/h
1155 09-01-2015 03:10:00 7 C 6.9 g/m*3 5.46 C 8.1 km/h
1156 09-01-2015 03:15:00 7.2 C 6.83 g/m*3 3.92 C 19.3 km/h
1157 09-01-2015 03:20:00 7.3 C 6.87 g/m*3 4.66 C 14.5 km/h
1158 09-01-2015 03:25:00 7.4 C 6.84 g/m*3 5.02 C 12.9 km/h
1159 09-01-2015 03:30:00 7.4 C 6.84 g/m*3 4.56 C 16.1 km/h
1160 09-01-2015 03:35:00 7.4 C 6.84 g/m*3 4.78 C 14.5 km/h
1161 09-01-2015 03:40:00 7.5 C 6.88 g/m*3 5.41 C 11.3 km/h
1162 09-01-2015 03:45:00 7.5 C 6.88 g/m*3 4.9 C 14.5 km/h
1163 09-01-2015 03:50:00 7.5 C 6.88 g/m*3 6.48 C 6.4 km/h
1164 09-01-2015 03:55:00 7.5 C 6.88 g/m*3 6.48 C 6.4 km/h
1165 09-01-2015 04:00:00 7.4 C 6.92 g/m*3 7.4 C 4.8 km/h
1166 09-01-2015 04:05:00 7.4 C 6.92 g/m*3 5.93 C 8.1 km/h
1167 09-01-2015 04:10:00 7.4 C 6.92 g/m*3 7.4 C 4.8 km/h
1168 09-01-2015 04:15:00 7.4 C 6.92 g/m*3 6.37 C 6.4 km/h
1169 09-01-2015 04:20:00 7.4 C 6.92 g/m*3 4.36 C 17.7 km/h
1170 09-01-2015 04:25:00 7.5 C 6.96 g/m*3 6.05 C 8.1 km/h
1171 09-01-2015 04:30:00 7.5 C 6.96 g/m*3 6.05 C 8.1 km/h
1172 09-01-2015 04:35:00 7.4 C 6.92 g/m*3 5.93 C 8.1 km/h
1173 09-01-2015 04:40:00 7.4 C 7 g/m*3 7.4 C 4.8 km/h
1174 09-01-2015 04:45:00 7.3 C 7.03 g/m*3 7.3 C 1.6 km/h
1175 09-01-2015 04:50:00 7.2 C 6.99 g/m*3 5.69 C 8.1 km/h
Sensor: Nr:Datum:Temp:Abs-Feuchte:Windchill:Wind:
Aussen-T/F 1176 09-01-2015 04:55:00 7.2 C 6.99 g/m*3 7.2 C 1.6 km/h
1177 09-01-2015 05:00:00 7.2 C 6.99 g/m*3 7.2 C 3.2 km/h
1178 09-01-2015 05:05:00 7.2 C 6.99 g/m*3 5.69 C 8.1 km/h
1179 09-01-2015 05:10:00 7.2 C 6.99 g/m*3 5.69 C 8.1 km/h
1180 09-01-2015 05:15:00 7.3 C 6.95 g/m*3 6.25 C 6.4 km/h
1181 09-01-2015 05:20:00 7.4 C 7 g/m*3 7.4 C 4.8 km/h
1182 09-01-2015 05:25:00 7.6 C 7.01 g/m*3 5.26 C 12.9 km/h
1183 09-01-2015 05:30:00 7.6 C 6.93 g/m*3 5.02 C 14.5 km/h
1184 09-01-2015 05:35:00 7.7 C 6.97 g/m*3 6.28 C 8.1 km/h
1185 09-01-2015 05:40:00 7.7 C 6.89 g/m*3 5.15 C 14.5 km/h
1186 09-01-2015 05:45:00 7.8 C 6.94 g/m*3 5.77 C 11.3 km/h
1187 09-01-2015 05:50:00 7.7 C 6.89 g/m*3 5.65 C 11.3 km/h
1188 09-01-2015 05:55:00 7.7 C 6.89 g/m*3 5.94 C 9.7 km/h
1189 09-01-2015 06:00:00 7.7 C 6.89 g/m*3 6.71 C 6.4 km/h
1190 09-01-2015 06:05:00 7.7 C 6.89 g/m*3 4.93 C 16.1 km/h
1191 09-01-2015 06:10:00 7.8 C 6.86 g/m*3 5.06 C 16.1 km/h
1192 09-01-2015 06:15:00 7.9 C 6.9 g/m*3 4.8 C 19.3 km/h
1193 09-01-2015 06:20:00 8.1 C 6.91 g/m*3 4.58 C 24.1 km/h
1194 09-01-2015 06:25:00 8.1 C 6.91 g/m*3 5.43 C 16.1 km/h
1195 09-01-2015 06:30:00 8.1 C 6.91 g/m*3 4.44 C 25.7 km/h
1196 09-01-2015 06:35:00 8.1 C 6.91 g/m*3 5.05 C 19.3 km/h
1197 09-01-2015 06:40:00 8.2 C 6.95 g/m*3 4.86 C 22.5 km/h
1198 09-01-2015 06:45:00 8.2 C 6.95 g/m*3 5.18 C 19.3 km/h
1199 09-01-2015 06:50:00 8.2 C 6.95 g/m*3 5.01 C 20.9 km/h
1200 09-01-2015 06:55:00 8.2 C 6.95 g/m*3 5.36 C 17.7 km/h
Sensor: Nr:Datum:Temp:Abs-Feuchte:Windchill:Wind:
Aussen-T/F 1201 09-01-2015 07:00:00 8.2 C 6.95 g/m*3 5.01 C 20.9 km/h
1202 09-01-2015 07:05:00 8.3 C 6.91 g/m*3 4.98 C 22.5 km/h
1203 09-01-2015 07:10:00 8.3 C 6.91 g/m*3 5.89 C 14.5 km/h
1204 09-01-2015 07:15:00 8.3 C 6.91 g/m*3 6.12 C 12.9 km/h
1205 09-01-2015 07:20:00 8.4 C 6.96 g/m*3 5.8 C 16.1 km/h
1206 09-01-2015 07:25:00 8.4 C 6.96 g/m*3 5.27 C 20.9 km/h
1207 09-01-2015 07:30:00 8.4 C 7.04 g/m*3 5.8 C 16.1 km/h
1208 09-01-2015 07:35:00 8.4 C 7.04 g/m*3 5.61 C 17.7 km/h
1209 09-01-2015 07:40:00 8.4 C 7.04 g/m*3 5.43 C 19.3 km/h
1210 09-01-2015 07:45:00 8.4 C 7.04 g/m*3 6.01 C 14.5 km/h
1211 09-01-2015 07:50:00 8.5 C 7.09 g/m*3 5.73 C 17.7 km/h
1212 09-01-2015 07:55:00 8.6 C 7.13 g/m*3 5.86 C 17.7 km/h
1213 09-01-2015 08:00:00 8.6 C 7.05 g/m*3 5.22 C 24.1 km/h
1214 09-01-2015 08:05:00 8.7 C 7.09 g/m*3 5.98 C 17.7 km/h
1215 09-01-2015 08:10:00 8.7 C 7.09 g/m*3 5.81 C 19.3 km/h
1216 09-01-2015 08:15:00 8.7 C 7.09 g/m*3 6.17 C 16.1 km/h
1217 09-01-2015 08:20:00 8.7 C 7.09 g/m*3 5.65 C 20.9 km/h
1218 09-01-2015 08:25:00 8.7 C 7.09 g/m*3 5.65 C 20.9 km/h
1219 09-01-2015 08:30:00 8.7 C 7.09 g/m*3 5.81 C 19.3 km/h
1220 09-01-2015 08:35:00 8.7 C 7.09 g/m*3 5.35 C 24.1 km/h
1221 09-01-2015 08:40:00 8.8 C 7.14 g/m*3 5.77 C 20.9 km/h
1222 09-01-2015 08:45:00 8.8 C 7.14 g/m*3 5.34 C 25.7 km/h
1223 09-01-2015 08:50:00 8.8 C 7.14 g/m*3 5.48 C 24.1 km/h
1224 09-01-2015 08:55:00 8.9 C 7.18 g/m*3 7.09 C 11.3 km/h
1225 09-01-2015 09:00:00 8.9 C 7.18 g/m*3 5.75 C 22.5 km/h
Sensor: Nr:Datum:Temp:Abs-Feuchte:Windchill:Wind:
Aussen-T/F 1226 09-01-2015 09:05:00 9 C 7.14 g/m*3 5.34 C 29 km/h
1227 09-01-2015 09:10:00 9.1 C 7.19 g/m*3 5.86 C 24.1 km/h
1228 09-01-2015 09:15:00 9.1 C 7.19 g/m*3 5.86 C 24.1 km/h
1229 09-01-2015 09:20:00 9.1 C 7.19 g/m*3 6.67 C 16.1 km/h
1230 09-01-2015 09:25:00 9.1 C 7.28 g/m*3 6.15 C 20.9 km/h
1231 09-01-2015 09:30:00 9.1 C 7.28 g/m*3 6.87 C 14.5 km/h
1232 09-01-2015 09:35:00 9.1 C 7.28 g/m*3 5.25 C 32.2 km/h
1233 09-01-2015 09:40:00 9.1 C 7.28 g/m*3 7.33 C 11.3 km/h
1234 09-01-2015 09:45:00 9.1 C 7.28 g/m*3 6.67 C 16.1 km/h
1235 09-01-2015 09:50:00 9.1 C 7.28 g/m*3 5.86 C 24.1 km/h
1236 09-01-2015 09:55:00 9.1 C 7.28 g/m*3 6.48 C 17.7 km/h
1237 09-01-2015 10:00:00 9 C 7.32 g/m*3 6.03 C 20.9 km/h
1238 09-01-2015 10:05:00 9 C 7.32 g/m*3 6.36 C 17.7 km/h
1239 09-01-2015 10:10:00 9 C 7.32 g/m*3 6.36 C 17.7 km/h
1240 09-01-2015 10:15:00 9 C 7.32 g/m*3 5.6 C 25.7 km/h
1241 09-01-2015 10:20:00 8.9 C 7.36 g/m*3 6.62 C 14.5 km/h
1242 09-01-2015 10:25:00 8.9 C 7.36 g/m*3 6.42 C 16.1 km/h
1243 09-01-2015 10:30:00 8.8 C 7.31 g/m*3 6.3 C 16.1 km/h
1244 09-01-2015 10:35:00 8.9 C 7.36 g/m*3 5.21 C 29 km/h
1245 09-01-2015 10:40:00 8.9 C 7.36 g/m*3 5.75 C 22.5 km/h
1246 09-01-2015 10:45:00 8.9 C 7.36 g/m*3 5.1 C 30.6 km/h
1247 09-01-2015 10:50:00 8.9 C 7.36 g/m*3 5.9 C 20.9 km/h
1248 09-01-2015 10:55:00 8.9 C 7.36 g/m*3 5.33 C 27.4 km/h
1249 09-01-2015 11:00:00 9 C 7.41 g/m*3 5.87 C 22.5 km/h
1250 09-01-2015 11:05:00 9.1 C 7.45 g/m*3 6 C 22.5 km/h
Sensor: Nr:Datum:Temp:Abs-Feuchte:Windchill:Wind:
Aussen-T/F 1251 09-01-2015 11:10:00 9.1 C 7.36 g/m*3 5.25 C 32.2 km/h
1252 09-01-2015 11:15:00 9.1 C 7.45 g/m*3 5.47 C 29 km/h
1253 09-01-2015 11:20:00 9.1 C 7.45 g/m*3 5.59 C 27.4 km/h
1254 09-01-2015 11:25:00 9.2 C 7.5 g/m*3 5.27 C 33.8 km/h
1255 09-01-2015 11:30:00 9.2 C 7.5 g/m*3 6.44 C 19.3 km/h
1256 09-01-2015 11:35:00 9.2 C 7.5 g/m*3 6.28 C 20.9 km/h
1257 09-01-2015 11:40:00 9.2 C 7.5 g/m*3 5.6 C 29 km/h
1258 09-01-2015 11:45:00 9.2 C 7.5 g/m*3 5.6 C 29 km/h
1259 09-01-2015 11:50:00 9.2 C 7.59 g/m*3 5.17 C 35.4 km/h
1260 09-01-2015 11:55:00 9.3 C 7.64 g/m*3 5.98 C 25.7 km/h
1261 09-01-2015 12:00:00 9.3 C 7.64 g/m*3 5.41 C 33.8 km/h
1262 09-01-2015 12:05:00 9.3 C 7.64 g/m*3 5.73 C 29 km/h
1263 09-01-2015 12:10:00 9.3 C 7.64 g/m*3 5.98 C 25.7 km/h
1264 09-01-2015 12:15:00 9.3 C 7.64 g/m*3 5.62 C 30.6 km/h
1265 09-01-2015 12:20:00 9.3 C 7.64 g/m*3 5.12 C 38.6 km/h
1266 09-01-2015 12:25:00 9.3 C 7.73 g/m*3 5.03 C 40.2 km/h
1267 09-01-2015 12:30:00 9.3 C 7.73 g/m*3 5.98 C 25.7 km/h
1268 09-01-2015 12:35:00 9.4 C 7.78 g/m*3 5.86 C 29 km/h
1269 09-01-2015 12:40:00 9.4 C 7.78 g/m*3 6.38 C 22.5 km/h
1270 09-01-2015 12:45:00 9.4 C 7.78 g/m*3 6.38 C 22.5 km/h
1271 09-01-2015 12:50:00 9.4 C 7.78 g/m*3 6.25 C 24.1 km/h
1272 09-01-2015 12:55:00 9.4 C 7.78 g/m*3 5.98 C 27.4 km/h
1273 09-01-2015 13:00:00 9.5 C 7.83 g/m*3 5.57 C 35.4 km/h
1274 09-01-2015 13:05:00 9.6 C 7.97 g/m*3 6.5 C 24.1 km/h
1275 09-01-2015 13:10:00 9.6 C 7.97 g/m*3 5.8 C 33.8 km/h
Sensor: Nr:Datum:Temp:Abs-Feuchte:Windchill:Wind:
Aussen-T/F 1276 09-01-2015 13:15:00 9.6 C 7.97 g/m*3 6.5 C 24.1 km/h
1277 09-01-2015 13:20:00 9.7 C 7.93 g/m*3 5.93 C 33.8 km/h
1278 09-01-2015 13:25:00 9.7 C 8.02 g/m*3 5.93 C 33.8 km/h
1279 09-01-2015 13:30:00 9.7 C 8.02 g/m*3 6.25 C 29 km/h
1280 09-01-2015 13:35:00 9.7 C 8.02 g/m*3 6.77 C 22.5 km/h
1281 09-01-2015 13:40:00 9.8 C 8.07 g/m*3 6.89 C 22.5 km/h
1282 09-01-2015 13:45:00 9.8 C 8.07 g/m*3 6.38 C 29 km/h
1283 09-01-2015 13:50:00 9.8 C 8.07 g/m*3 6.5 C 27.4 km/h
1284 09-01-2015 13:55:00 9.9 C 8.12 g/m*3 6.89 C 24.1 km/h
1285 09-01-2015 14:00:00 9.9 C 8.12 g/m*3 7.16 C 20.9 km/h
1286 09-01-2015 14:05:00 10.1 C 8.23 g/m*3 6.77 C 29 km/h
1287 09-01-2015 14:10:00 10.1 C 8.23 g/m*3 7.28 C 22.5 km/h
1288 09-01-2015 14:15:00 10.2 C 8.28 g/m*3 7.4 C 22.5 km/h
1289 09-01-2015 14:20:00 10.2 C 8.28 g/m*3 6.8 C 30.6 km/h
1290 09-01-2015 14:25:00 10.3 C 8.33 g/m*3 6.93 C 30.6 km/h
1291 09-01-2015 14:30:00 10.3 C 8.33 g/m*3 7.98 C 17.7 km/h
1292 09-01-2015 14:35:00 10.4 C 8.38 g/m*3 7.53 C 24.1 km/h
1293 09-01-2015 14:40:00 10.5 C 8.44 g/m*3 6.99 C 33.8 km/h
1294 09-01-2015 14:45:00 10.6 C 8.49 g/m*3 8.05 C 20.9 km/h
1295 09-01-2015 14:50:00 10.6 C 8.49 g/m*3 7.54 C 27.4 km/h
1296 09-01-2015 14:55:00 10.8 C 8.5 g/m*3 8.17 C 22.5 km/h
1297 09-01-2015 15:00:00 10.8 C 8.5 g/m*3 8.04 C 24.1 km/h
1298 09-01-2015 15:05:00 10.9 C 8.55 g/m*3 8.43 C 20.9 km/h
1299 09-01-2015 15:10:00 11.1 C 8.66 g/m*3 11.1 C 27.4 km/h
1300 09-01-2015 15:15:00 11.2 C 8.62 g/m*3 11.2 C 27.4 km/h
Sensor: Nr:Datum:Temp:Abs-Feuchte:Windchill:Wind:
Aussen-T/F 1301 09-01-2015 15:20:00 11.2 C 8.62 g/m*3 11.2 C 24.1 km/h
1302 09-01-2015 15:25:00 11.3 C 8.67 g/m*3 11.3 C 25.7 km/h
1303 09-01-2015 15:30:00 11.3 C 8.67 g/m*3 11.3 C 16.1 km/h
1304 09-01-2015 15:35:00 11.3 C 8.67 g/m*3 11.3 C 37 km/h
1305 09-01-2015 15:40:00 11.3 C 8.57 g/m*3 11.3 C 19.3 km/h
1306 09-01-2015 15:45:00 11.4 C 8.62 g/m*3 11.4 C 25.7 km/h
1307 09-01-2015 15:50:00 11.4 C 8.62 g/m*3 11.4 C 20.9 km/h
1308 09-01-2015 15:55:00 11.5 C 8.68 g/m*3 11.5 C 27.4 km/h
1309 09-01-2015 16:00:00 11.5 C 8.68 g/m*3 11.5 C 27.4 km/h
1310 09-01-2015 16:05:00 11.6 C 8.63 g/m*3 11.6 C 32.2 km/h
1311 09-01-2015 16:10:00 11.6 C 8.63 g/m*3 11.6 C 27.4 km/h
1312 09-01-2015 16:15:00 11.6 C 8.63 g/m*3 11.6 C 22.5 km/h
1313 09-01-2015 16:20:00 11.6 C 8.63 g/m*3 11.6 C 24.1 km/h
1314 09-01-2015 16:25:00 11.6 C 8.63 g/m*3 11.6 C 29 km/h
1315 09-01-2015 16:30:00 11.7 C 8.68 g/m*3 11.7 C 22.5 km/h
1316 09-01-2015 16:35:00 11.7 C 8.68 g/m*3 11.7 C 16.1 km/h
1317 09-01-2015 16:40:00 11.7 C 8.58 g/m*3 11.7 C 14.5 km/h
1318 09-01-2015 16:45:00 11.7 C 8.58 g/m*3 11.7 C 20.9 km/h
1319 09-01-2015 16:50:00 11.7 C 8.58 g/m*3 11.7 C 20.9 km/h
1320 09-01-2015 16:55:00 11.7 C 8.58 g/m*3 11.7 C 22.5 km/h
1321 09-01-2015 17:00:00 11.7 C 8.58 g/m*3 11.7 C 27.4 km/h
1322 09-01-2015 17:05:00 11.8 C 8.53 g/m*3 11.8 C 19.3 km/h
1323 09-01-2015 17:10:00 11.8 C 8.63 g/m*3 11.8 C 12.9 km/h
1324 09-01-2015 17:15:00 11.8 C 8.63 g/m*3 11.8 C 20.9 km/h
1325 09-01-2015 17:20:00 11.7 C 8.58 g/m*3 11.7 C 12.9 km/h
Sensor: Nr:Datum:Temp:Abs-Feuchte:Windchill:Wind:
Aussen-T/F 1326 09-01-2015 17:25:00 11.7 C 8.58 g/m*3 11.7 C 16.1 km/h
1327 09-01-2015 17:30:00 11.7 C 8.58 g/m*3 11.7 C 16.1 km/h
1328 09-01-2015 17:35:00 11.7 C 8.58 g/m*3 11.7 C 20.9 km/h
1329 09-01-2015 17:40:00 11.7 C 8.58 g/m*3 11.7 C 16.1 km/h
1330 09-01-2015 17:45:00 11.7 C 8.58 g/m*3 11.7 C 17.7 km/h
1331 09-01-2015 17:50:00 11.7 C 8.47 g/m*3 11.7 C 17.7 km/h
1332 09-01-2015 17:55:00 11.7 C 8.47 g/m*3 11.7 C 17.7 km/h
1333 09-01-2015 18:00:00 11.7 C 8.47 g/m*3 11.7 C 11.3 km/h
1334 09-01-2015 18:05:00 11.7 C 8.37 g/m*3 11.7 C 14.5 km/h
1335 09-01-2015 18:10:00 11.8 C 8.31 g/m*3 11.8 C 17.7 km/h
1336 09-01-2015 18:15:00 11.8 C 8.31 g/m*3 11.8 C 20.9 km/h
1337 09-01-2015 18:20:00 11.8 C 8.31 g/m*3 11.8 C 9.7 km/h
1338 09-01-2015 18:25:00 11.8 C 8.21 g/m*3 11.8 C 14.5 km/h
1339 09-01-2015 18:30:00 11.8 C 8.1 g/m*3 11.8 C 16.1 km/h
1340 09-01-2015 18:35:00 11.7 C 7.84 g/m*3 11.7 C 14.5 km/h
1341 09-01-2015 18:40:00 11.4 C 7.8 g/m*3 11.4 C 17.7 km/h
1342 09-01-2015 18:45:00 11.3 C 7.96 g/m*3 11.3 C 19.3 km/h
1343 09-01-2015 18:50:00 11.1 C 7.86 g/m*3 11.1 C 9.7 km/h
1344 09-01-2015 18:55:00 11.1 C 8.26 g/m*3 11.1 C 6.4 km/h
1345 09-01-2015 19:00:00 10.7 C 8.05 g/m*3 10.7 C 4.8 km/h
1346 09-01-2015 19:05:00 10.7 C 8.05 g/m*3 10.7 C 4.8 km/h
1347 09-01-2015 19:10:00 10.7 C 8.05 g/m*3 10.18 C 6.4 km/h
1348 09-01-2015 21:15:00 10 C 9.02 g/m*3 8.19 C 12.9 km/h
1349 09-01-2015 21:20:00 10.2 C 9.14 g/m*3 7.86 C 17.7 km/h
1350 09-01-2015 21:25:00 10.3 C 9.1 g/m*3 7.82 C 19.3 km/h
Sensor: Nr:Datum:Temp:Abs-Feuchte:Windchill:Wind:
Aussen-T/F 1351 09-01-2015 21:30:00 10.5 C 9.21 g/m*3 8.8 C 12.9 km/h
1352 09-01-2015 21:35:00 10.6 C 9.27 g/m*3 8.53 C 16.1 km/h
1353 09-01-2015 21:40:00 10.7 C 9.33 g/m*3 8.84 C 14.5 km/h
1354 09-01-2015 21:45:00 10.9 C 9.35 g/m*3 9.08 C 14.5 km/h
1355 09-01-2015 21:50:00 10.9 C 9.35 g/m*3 9.08 C 14.5 km/h
1356 09-01-2015 21:55:00 11 C 9.41 g/m*3 8.7 C 19.3 km/h
1357 09-01-2015 22:00:00 11.1 C 9.47 g/m*3 11.1 C 12.9 km/h
1358 09-01-2015 22:05:00 11.2 C 9.53 g/m*3 11.2 C 22.5 km/h
1359 09-01-2015 22:10:00 11.3 C 9.59 g/m*3 11.3 C 16.1 km/h
1360 09-01-2015 22:15:00 11.5 C 9.61 g/m*3 11.5 C 20.9 km/h
1361 09-01-2015 22:20:00 11.7 C 9.73 g/m*3 11.7 C 17.7 km/h
1362 09-01-2015 22:25:00 11.7 C 9.73 g/m*3 11.7 C 16.1 km/h
1363 09-01-2015 22:30:00 11.7 C 9.73 g/m*3 11.7 C 19.3 km/h
1364 09-01-2015 22:35:00 11.8 C 9.79 g/m*3 11.8 C 16.1 km/h
1365 09-01-2015 22:40:00 11.8 C 9.79 g/m*3 11.8 C 19.3 km/h
1366 09-01-2015 22:45:00 11.8 C 9.79 g/m*3 11.8 C 14.5 km/h
1367 09-01-2015 22:50:00 11.9 C 9.85 g/m*3 11.9 C 25.7 km/h
1368 09-01-2015 22:55:00 11.9 C 9.85 g/m*3 11.9 C 20.9 km/h
1369 09-01-2015 23:00:00 12 C 9.91 g/m*3 12 C 24.1 km/h
1370 09-01-2015 23:05:00 12.1 C 9.97 g/m*3 12.1 C 25.7 km/h
1371 09-01-2015 23:10:00 12.2 C 9.93 g/m*3 12.2 C 17.7 km/h
1372 09-01-2015 23:15:00 12.3 C 9.99 g/m*3 12.3 C 25.7 km/h
1373 09-01-2015 23:20:00 12.4 C 9.94 g/m*3 12.4 C 29 km/h
1374 09-01-2015 23:25:00 12.6 C 10.07 g/m*3 12.6 C 16.1 km/h
1375 09-01-2015 23:30:00 12.6 C 10.07 g/m*3 12.6 C 17.7 km/h
Sensor: Nr:Datum:Temp:Abs-Feuchte:Windchill:Wind:
Aussen-T/F 1376 09-01-2015 23:35:00 12.8 C 10.08 g/m*3 12.8 C 33.8 km/h
1377 09-01-2015 23:40:00 12.9 C 10.14 g/m*3 12.9 C 25.7 km/h
1378 09-01-2015 23:45:00 12.9 C 10.14 g/m*3 12.9 C 27.4 km/h
1379 09-01-2015 23:50:00 13 C 10.21 g/m*3 13 C 29 km/h
1380 09-01-2015 23:55:00 13.1 C 10.27 g/m*3 13.1 C 38.6 km/h
1381 10-01-2015 00:00:00 13 C 10.21 g/m*3 13 C 22.5 km/h
1382 10-01-2015 00:05:00 13 C 10.21 g/m*3 13 C 22.5 km/h
1383 10-01-2015 00:10:00 12.9 C 10.26 g/m*3 12.9 C 20.9 km/h
1384 10-01-2015 00:15:00 12.9 C 10.26 g/m*3 12.9 C 25.7 km/h
1385 10-01-2015 00:20:00 12.9 C 10.26 g/m*3 12.9 C 25.7 km/h
1386 10-01-2015 00:25:00 12.9 C 10.26 g/m*3 12.9 C 20.9 km/h
1387 10-01-2015 00:30:00 12.9 C 10.26 g/m*3 12.9 C 19.3 km/h
1388 10-01-2015 00:35:00 12.9 C 10.26 g/m*3 12.9 C 25.7 km/h
1389 10-01-2015 00:40:00 12.9 C 10.26 g/m*3 12.9 C 20.9 km/h
1390 10-01-2015 00:45:00 12.9 C 10.26 g/m*3 12.9 C 11.3 km/h
1391 10-01-2015 00:50:00 12.9 C 10.26 g/m*3 12.9 C 12.9 km/h
1392 10-01-2015 00:55:00 12.9 C 10.26 g/m*3 12.9 C 14.5 km/h
1393 10-01-2015 01:00:00 13.2 C 10.33 g/m*3 13.2 C 16.1 km/h
1394 10-01-2015 01:05:00 13.2 C 10.33 g/m*3 13.2 C 14.5 km/h
1395 10-01-2015 01:10:00 13.3 C 10.4 g/m*3 13.3 C 17.7 km/h
1396 10-01-2015 01:15:00 13.3 C 10.4 g/m*3 13.3 C 17.7 km/h
1397 10-01-2015 01:20:00 13.3 C 10.4 g/m*3 13.3 C 20.9 km/h
1398 10-01-2015 01:25:00 13.4 C 10.46 g/m*3 13.4 C 19.3 km/h
1399 10-01-2015 01:30:00 13.4 C 10.46 g/m*3 13.4 C 14.5 km/h
1400 10-01-2015 02:40:00 14 C 12.06 g/m*3 14 C 17.7 km/h
Sensor: Nr:Datum:Temp:Abs-Feuchte:Windchill:Wind:
Aussen-T/F 1401 10-01-2015 02:45:00 14 C 12.06 g/m*3 14 C 8.1 km/h
1402 10-01-2015 04:15:00 15.2 C 10.9 g/m*3 15.2 C 16.1 km/h
1403 10-01-2015 04:20:00 15.2 C 10.9 g/m*3 15.2 C 17.7 km/h
1404 10-01-2015 04:25:00 15.2 C 10.9 g/m*3 15.2 C 19.3 km/h
1405 10-01-2015 04:30:00 15.3 C 10.97 g/m*3 15.3 C 16.1 km/h
1406 10-01-2015 04:35:00 15.3 C 10.97 g/m*3 15.3 C 20.9 km/h
1407 10-01-2015 04:40:00 15.3 C 10.97 g/m*3 15.3 C 22.5 km/h
1408 10-01-2015 04:45:00 15.3 C 10.97 g/m*3 15.3 C 17.7 km/h
1409 10-01-2015 04:50:00 15.3 C 10.71 g/m*3 15.3 C 22.5 km/h
1410 10-01-2015 04:55:00 15.4 C 10.77 g/m*3 15.4 C 14.5 km/h
1411 10-01-2015 05:00:00 15.4 C 10.77 g/m*3 15.4 C 29 km/h
1412 10-01-2015 05:05:00 15.4 C 10.77 g/m*3 15.4 C 22.5 km/h
1413 10-01-2015 05:10:00 15.4 C 10.77 g/m*3 15.4 C 14.5 km/h
1414 10-01-2015 05:15:00 15.3 C 10.84 g/m*3 15.3 C 20.9 km/h
1415 10-01-2015 05:20:00 15.3 C 10.84 g/m*3 15.3 C 22.5 km/h
1416 10-01-2015 05:25:00 15.3 C 10.84 g/m*3 15.3 C 17.7 km/h
1417 10-01-2015 05:30:00 15.3 C 10.84 g/m*3 15.3 C 22.5 km/h
1418 10-01-2015 05:35:00 15.3 C 10.97 g/m*3 15.3 C 22.5 km/h
1419 10-01-2015 05:40:00 15.2 C 10.9 g/m*3 15.2 C 24.1 km/h
1420 10-01-2015 05:45:00 15.1 C 10.97 g/m*3 15.1 C 32.2 km/h
1421 10-01-2015 05:50:00 15 C 11.03 g/m*3 15 C 20.9 km/h
1422 10-01-2015 05:55:00 14.9 C 10.96 g/m*3 14.9 C 14.5 km/h
1423 10-01-2015 06:00:00 14.8 C 11.02 g/m*3 14.8 C 27.4 km/h
1424 10-01-2015 06:05:00 14.8 C 11.02 g/m*3 14.8 C 14.5 km/h
1425 10-01-2015 06:35:00 14.7 C 12.59 g/m*3 14.7 C 22.5 km/h
Sensor: Nr:Datum:Temp:Abs-Feuchte:Windchill:Wind:
Aussen-T/F 1426 10-01-2015 06:40:00 14.7 C 10.95 g/m*3 14.7 C 25.7 km/h
1427 10-01-2015 06:45:00 14.8 C 11.02 g/m*3 14.8 C 24.1 km/h
1428 10-01-2015 06:50:00 14.8 C 10.89 g/m*3 14.8 C 22.5 km/h
1429 10-01-2015 06:55:00 14.9 C 10.83 g/m*3 14.9 C 30.6 km/h
1430 10-01-2015 07:00:00 15 C 10.64 g/m*3 15 C 30.6 km/h
1431 10-01-2015 07:05:00 15.1 C 10.45 g/m*3 15.1 C 32.2 km/h
1432 10-01-2015 07:10:00 15.1 C 10.32 g/m*3 15.1 C 32.2 km/h
1433 10-01-2015 07:15:00 15.1 C 10.32 g/m*3 15.1 C 17.7 km/h
1434 10-01-2015 07:20:00 15.1 C 10.32 g/m*3 15.1 C 19.3 km/h
1435 10-01-2015 07:25:00 14.7 C 10.45 g/m*3 14.7 C 12.9 km/h
1436 10-01-2015 07:30:00 14.7 C 10.45 g/m*3 14.7 C 20.9 km/h
1437 10-01-2015 07:35:00 14.7 C 10.58 g/m*3 14.7 C 16.1 km/h
1438 10-01-2015 07:40:00 14.6 C 10.51 g/m*3 14.6 C 22.5 km/h
1439 10-01-2015 07:45:00 14.6 C 10.51 g/m*3 14.6 C 20.9 km/h
1440 10-01-2015 07:50:00 14.6 C 10.39 g/m*3 14.6 C 16.1 km/h
1441 10-01-2015 07:55:00 14.6 C 10.39 g/m*3 14.6 C 22.5 km/h
1442 10-01-2015 08:00:00 14.6 C 10.39 g/m*3 14.6 C 19.3 km/h
1443 10-01-2015 08:05:00 14.6 C 10.39 g/m*3 14.6 C 20.9 km/h
1444 10-01-2015 08:10:00 14.5 C 10.2 g/m*3 14.5 C 22.5 km/h
1445 10-01-2015 08:15:00 14.4 C 10.26 g/m*3 14.4 C 19.3 km/h
1446 10-01-2015 08:20:00 14.5 C 10.2 g/m*3 14.5 C 30.6 km/h
1447 10-01-2015 08:25:00 14.4 C 10.14 g/m*3 14.4 C 19.3 km/h
1448 10-01-2015 08:30:00 14.4 C 10.14 g/m*3 14.4 C 22.5 km/h
1449 10-01-2015 08:35:00 14.5 C 10.2 g/m*3 14.5 C 33.8 km/h
1450 10-01-2015 08:40:00 14.5 C 10.07 g/m*3 14.5 C 27.4 km/h
Sensor: Nr:Datum:Temp:Abs-Feuchte:Windchill:Wind:
Aussen-T/F 1451 10-01-2015 08:45:00 14.5 C 10.07 g/m*3 14.5 C 22.5 km/h
1452 10-01-2015 08:50:00 14.4 C 10.01 g/m*3 14.4 C 22.5 km/h
1453 10-01-2015 08:55:00 14.5 C 10.07 g/m*3 14.5 C 24.1 km/h
1454 10-01-2015 09:00:00 14.5 C 10.07 g/m*3 14.5 C 16.1 km/h
1455 10-01-2015 09:05:00 14.6 C 10.14 g/m*3 14.6 C 29 km/h
1456 10-01-2015 09:10:00 14.7 C 10.07 g/m*3 14.7 C 24.1 km/h
1457 10-01-2015 09:15:00 14.7 C 10.07 g/m*3 14.7 C 27.4 km/h
1458 10-01-2015 09:20:00 14.7 C 9.95 g/m*3 14.7 C 33.8 km/h
1459 10-01-2015 09:25:00 14.7 C 9.95 g/m*3 14.7 C 33.8 km/h
1460 10-01-2015 09:30:00 14.7 C 9.95 g/m*3 14.7 C 24.1 km/h
1461 10-01-2015 09:35:00 14.7 C 9.95 g/m*3 14.7 C 32.2 km/h
1462 10-01-2015 09:40:00 14.7 C 9.95 g/m*3 14.7 C 24.1 km/h
1463 10-01-2015 09:45:00 14.7 C 9.95 g/m*3 14.7 C 19.3 km/h
1464 10-01-2015 09:50:00 14.7 C 9.95 g/m*3 14.7 C 32.2 km/h
1465 10-01-2015 09:55:00 14.7 C 9.95 g/m*3 14.7 C 25.7 km/h
1466 10-01-2015 10:00:00 14.7 C 9.82 g/m*3 14.7 C 19.3 km/h
1467 10-01-2015 10:05:00 14.7 C 9.82 g/m*3 14.7 C 27.4 km/h
1468 10-01-2015 10:10:00 14.7 C 9.82 g/m*3 14.7 C 20.9 km/h
1469 10-01-2015 10:15:00 14.6 C 9.76 g/m*3 14.6 C 20.9 km/h
1470 10-01-2015 10:20:00 14.6 C 9.76 g/m*3 14.6 C 17.7 km/h
1471 10-01-2015 10:25:00 14.6 C 9.76 g/m*3 14.6 C 20.9 km/h
1472 10-01-2015 10:30:00 14.6 C 9.76 g/m*3 14.6 C 22.5 km/h
1473 10-01-2015 10:35:00 14.6 C 9.76 g/m*3 14.6 C 22.5 km/h
1474 10-01-2015 10:40:00 14.6 C 9.76 g/m*3 14.6 C 24.1 km/h
1475 10-01-2015 10:45:00 14.4 C 9.64 g/m*3 14.4 C 22.5 km/h
Sensor: Nr:Datum:Temp:Abs-Feuchte:Windchill:Wind:
Aussen-T/F 1476 10-01-2015 10:50:00 14.4 C 9.52 g/m*3 14.4 C 20.9 km/h
1477 10-01-2015 10:55:00 14.5 C 9.58 g/m*3 14.5 C 25.7 km/h
1478 10-01-2015 11:00:00 14.4 C 9.52 g/m*3 14.4 C 24.1 km/h
1479 10-01-2015 11:05:00 14.4 C 9.52 g/m*3 14.4 C 19.3 km/h
1480 10-01-2015 11:10:00 14.4 C 9.52 g/m*3 14.4 C 22.5 km/h
1481 10-01-2015 11:15:00 14.3 C 9.46 g/m*3 14.3 C 17.7 km/h
1482 10-01-2015 11:20:00 14.3 C 9.46 g/m*3 14.3 C 20.9 km/h
1483 10-01-2015 11:25:00 14.3 C 9.46 g/m*3 14.3 C 17.7 km/h
1484 10-01-2015 11:30:00 14.2 C 9.52 g/m*3 14.2 C 17.7 km/h
1485 10-01-2015 11:35:00 14.2 C 9.52 g/m*3 14.2 C 11.3 km/h
1486 10-01-2015 11:40:00 14.2 C 9.52 g/m*3 14.2 C 17.7 km/h
1487 10-01-2015 11:45:00 14.2 C 9.52 g/m*3 14.2 C 24.1 km/h
1488 10-01-2015 11:50:00 14.2 C 9.52 g/m*3 14.2 C 17.7 km/h
1489 10-01-2015 11:55:00 14.2 C 9.52 g/m*3 14.2 C 14.5 km/h
1490 10-01-2015 12:00:00 14.2 C 9.52 g/m*3 14.2 C 12.9 km/h
1491 10-01-2015 12:05:00 14.2 C 9.52 g/m*3 14.2 C 19.3 km/h
1492 10-01-2015 12:10:00 14.2 C 9.52 g/m*3 14.2 C 19.3 km/h
1493 10-01-2015 12:15:00 14.2 C 9.52 g/m*3 14.2 C 22.5 km/h
1494 10-01-2015 12:20:00 14.3 C 9.46 g/m*3 14.3 C 29 km/h
1495 10-01-2015 12:25:00 14.3 C 9.46 g/m*3 14.3 C 19.3 km/h
1496 10-01-2015 12:30:00 14.4 C 9.52 g/m*3 14.4 C 22.5 km/h
1497 10-01-2015 12:35:00 14.4 C 9.39 g/m*3 14.4 C 29 km/h
1498 10-01-2015 12:40:00 14.4 C 9.39 g/m*3 14.4 C 20.9 km/h
1499 10-01-2015 12:45:00 14.4 C 9.39 g/m*3 14.4 C 22.5 km/h
1500 10-01-2015 12:50:00 14.4 C 9.39 g/m*3 14.4 C 19.3 km/h
Sensor: Nr:Datum:Temp:Abs-Feuchte:Windchill:Wind:
Aussen-T/F 1501 10-01-2015 12:55:00 14.2 C 9.4 g/m*3 14.2 C 14.5 km/h
1502 10-01-2015 13:00:00 14.2 C 9.52 g/m*3 14.2 C 16.1 km/h
1503 10-01-2015 13:05:00 14.1 C 9.47 g/m*3 14.1 C 19.3 km/h
1504 10-01-2015 13:10:00 14 C 9.41 g/m*3 14 C 20.9 km/h
1505 10-01-2015 13:15:00 14 C 9.41 g/m*3 14 C 20.9 km/h
1506 10-01-2015 13:20:00 13.9 C 9.35 g/m*3 13.9 C 20.9 km/h
1507 10-01-2015 13:25:00 13.9 C 9.35 g/m*3 13.9 C 14.5 km/h
1508 10-01-2015 13:30:00 13.9 C 9.35 g/m*3 13.9 C 17.7 km/h
1509 10-01-2015 13:35:00 13.9 C 9.35 g/m*3 13.9 C 16.1 km/h
1510 10-01-2015 13:40:00 13.9 C 9.35 g/m*3 13.9 C 16.1 km/h
1511 10-01-2015 13:45:00 13.9 C 9.35 g/m*3 13.9 C 11.3 km/h
1512 10-01-2015 13:50:00 13.9 C 9.23 g/m*3 13.9 C 22.5 km/h
1513 10-01-2015 13:55:00 14 C 9.29 g/m*3 14 C 20.9 km/h
1514 10-01-2015 14:00:00 14.1 C 9.34 g/m*3 14.1 C 25.7 km/h
1515 10-01-2015 14:05:00 14.1 C 9.34 g/m*3 14.1 C 30.6 km/h
1516 10-01-2015 14:10:00 14 C 9.29 g/m*3 14 C 22.5 km/h
1517 10-01-2015 14:15:00 14 C 9.29 g/m*3 14 C 17.7 km/h
1518 10-01-2015 14:20:00 14 C 9.29 g/m*3 14 C 17.7 km/h
1519 10-01-2015 14:25:00 13.9 C 9.23 g/m*3 13.9 C 12.9 km/h
1520 10-01-2015 14:30:00 13.9 C 9.23 g/m*3 13.9 C 17.7 km/h
1521 10-01-2015 14:35:00 13.9 C 9.35 g/m*3 13.9 C 12.9 km/h
1522 10-01-2015 14:40:00 13.8 C 9.41 g/m*3 13.8 C 14.5 km/h
1523 10-01-2015 14:45:00 13.7 C 9.35 g/m*3 13.7 C 20.9 km/h
1524 10-01-2015 14:50:00 13.7 C 9.35 g/m*3 13.7 C 16.1 km/h
1525 10-01-2015 14:55:00 13.7 C 9.47 g/m*3 13.7 C 11.3 km/h
Sensor: Nr:Datum:Temp:Abs-Feuchte:Windchill:Wind:
Aussen-T/F 1526 10-01-2015 15:00:00 13.6 C 9.42 g/m*3 13.6 C 11.3 km/h
1527 10-01-2015 15:05:00 13.6 C 9.42 g/m*3 13.6 C 16.1 km/h
1528 10-01-2015 15:10:00 13.6 C 9.42 g/m*3 13.6 C 19.3 km/h
1529 10-01-2015 15:15:00 13.6 C 9.42 g/m*3 13.6 C 16.1 km/h
1530 10-01-2015 15:55:00 13.2 C 9.53 g/m*3 13.2 C 14.5 km/h
1531 10-01-2015 16:00:00 13.2 C 9.53 g/m*3 13.2 C 17.7 km/h
1532 10-01-2015 16:05:00 13.1 C 9.47 g/m*3 13.1 C 14.5 km/h
1533 10-01-2015 16:10:00 13.1 C 9.59 g/m*3 13.1 C 16.1 km/h
1534 10-01-2015 16:15:00 13 C 9.53 g/m*3 13 C 17.7 km/h
1535 10-01-2015 16:20:00 12.9 C 9.58 g/m*3 12.9 C 19.3 km/h
1536 10-01-2015 16:25:00 12.9 C 9.58 g/m*3 12.9 C 17.7 km/h
1537 10-01-2015 16:30:00 12.9 C 9.58 g/m*3 12.9 C 16.1 km/h
1538 10-01-2015 16:35:00 12.8 C 9.52 g/m*3 12.8 C 17.7 km/h
1539 10-01-2015 16:40:00 12.7 C 9.46 g/m*3 12.7 C 11.3 km/h
1540 10-01-2015 16:45:00 12.7 C 9.68 g/m*3 12.7 C 17.7 km/h
1541 10-01-2015 16:50:00 12.6 C 9.62 g/m*3 12.6 C 22.5 km/h
1542 10-01-2015 16:55:00 12.6 C 9.62 g/m*3 12.6 C 14.5 km/h
1543 10-01-2015 17:00:00 12.4 C 9.62 g/m*3 12.4 C 20.9 km/h
1544 10-01-2015 17:05:00 12.3 C 9.66 g/m*3 12.3 C 14.5 km/h
1545 10-01-2015 17:10:00 12.3 C 9.66 g/m*3 12.3 C 12.9 km/h
1546 10-01-2015 17:15:00 12.1 C 9.54 g/m*3 12.1 C 14.5 km/h
1547 10-01-2015 17:20:00 12 C 9.7 g/m*3 12 C 16.1 km/h
1548 10-01-2015 17:25:00 11.9 C 9.74 g/m*3 11.9 C 12.9 km/h
1549 10-01-2015 17:30:00 11.8 C 9.58 g/m*3 11.8 C 20.9 km/h
1550 10-01-2015 17:35:00 11.9 C 9.64 g/m*3 11.9 C 12.9 km/h
Sensor: Nr:Datum:Temp:Abs-Feuchte:Windchill:Wind:
Aussen-T/F 1551 10-01-2015 17:40:00 12 C 9.59 g/m*3 12 C 14.5 km/h
1552 10-01-2015 17:45:00 12.1 C 9.65 g/m*3 12.1 C 16.1 km/h
1553 10-01-2015 17:50:00 12.1 C 9.65 g/m*3 12.1 C 9.7 km/h
1554 10-01-2015 17:55:00 12.2 C 9.5 g/m*3 12.2 C 20.9 km/h
1555 10-01-2015 18:00:00 12.6 C 9.29 g/m*3 12.6 C 20.9 km/h
1556 10-01-2015 18:05:00 11.8 C 8.42 g/m*3 11.8 C 33.8 km/h
1557 10-01-2015 18:10:00 10.9 C 8.16 g/m*3 8.58 C 19.3 km/h
1558 10-01-2015 18:15:00 10.4 C 8.19 g/m*3 7.8 C 20.9 km/h
1559 10-01-2015 18:20:00 9.9 C 8.03 g/m*3 6.4 C 30.6 km/h
1560 10-01-2015 18:25:00 9.6 C 8.06 g/m*3 7.11 C 17.7 km/h
1561 10-01-2015 18:30:00 9.6 C 7.97 g/m*3 6.5 C 24.1 km/h
1562 10-01-2015 18:35:00 9.6 C 7.97 g/m*3 7.11 C 17.7 km/h
1563 10-01-2015 18:40:00 9.1 C 7.45 g/m*3 6 C 22.5 km/h
1564 10-01-2015 18:45:00 8.9 C 7.27 g/m*3 5.33 C 27.4 km/h
1565 10-01-2015 18:50:00 8.8 C 7.31 g/m*3 5.08 C 29 km/h
1566 10-01-2015 18:55:00 8.8 C 7.31 g/m*3 6.3 C 16.1 km/h
1567 10-01-2015 19:00:00 8.7 C 7.26 g/m*3 5.98 C 17.7 km/h
1568 10-01-2015 19:05:00 8.7 C 7.26 g/m*3 6.17 C 16.1 km/h
1569 10-01-2015 19:10:00 8.7 C 7.26 g/m*3 5.81 C 19.3 km/h
1570 10-01-2015 19:15:00 8.7 C 7.09 g/m*3 5.98 C 17.7 km/h
1571 10-01-2015 19:20:00 8.7 C 7.01 g/m*3 5.49 C 22.5 km/h
1572 10-01-2015 19:25:00 8.7 C 7.01 g/m*3 6.17 C 16.1 km/h
1573 10-01-2015 20:05:00 8.8 C 8.7 g/m*3 5.62 C 22.5 km/h
1574 10-01-2015 20:10:00 8.8 C 8.7 g/m*3 6.11 C 17.7 km/h
1575 10-01-2015 20:15:00 8.8 C 8.7 g/m*3 6.97 C 11.3 km/h
Sensor: Nr:Datum:Temp:Abs-Feuchte:Windchill:Wind:
Aussen-T/F 1576 11-01-2015 01:45:00 5.1 C 6.84 g/m*3 3.71 C 6.4 km/h
1577 11-01-2015 01:50:00 5.1 C 5.27 g/m*3 3.71 C 6.4 km/h
1578 11-01-2015 01:55:00 5 C 5.23 g/m*3 2.72 C 9.7 km/h
1579 11-01-2015 02:00:00 5 C 5.23 g/m*3 3.11 C 8.1 km/h
1580 11-01-2015 02:05:00 5 C 5.23 g/m*3 3.11 C 8.1 km/h
1581 11-01-2015 02:25:00 4.8 C 5.23 g/m*3 4.8 C 4.8 km/h
1582 11-01-2015 02:30:00 4.7 C 5.13 g/m*3 4.7 C 3.2 km/h
1583 11-01-2015 02:35:00 4.5 C 5.13 g/m*3 4.5 C 4.8 km/h
1584 11-01-2015 02:40:00 4.4 C 5.09 g/m*3 4.4 C 4.8 km/h
1585 11-01-2015 02:45:00 4.4 C 5.09 g/m*3 4.4 C 3.2 km/h
1586 11-01-2015 02:50:00 4.4 C 5.09 g/m*3 4.4 C 4.8 km/h
1587 11-01-2015 02:55:00 4.4 C 5.09 g/m*3 4.4 C 4.8 km/h
1588 11-01-2015 03:00:00 4.3 C 5.06 g/m*3 4.3 C 4.8 km/h
1589 11-01-2015 03:05:00 4.2 C 5.03 g/m*3 4.2 C 4.8 km/h
1590 11-01-2015 03:10:00 4.2 C 5.15 g/m*3 4.2 C 4.8 km/h
1591 11-01-2015 03:15:00 3.8 C 5.14 g/m*3 3.8 C 4.8 km/h
1592 11-01-2015 03:20:00 3.9 C 5.18 g/m*3 3.9 C 3.2 km/h
1593 11-01-2015 03:25:00 3.9 C 5.18 g/m*3 3.9 C 4.8 km/h
1594 11-01-2015 05:45:00 3.4 C 6.11 g/m*3 1.23 C 8.1 km/h
1595 11-01-2015 05:50:00 3.4 C 6.11 g/m*3 1.75 C 6.4 km/h
1596 11-01-2015 08:30:00 3.8 C 6.27 g/m*3 0.35 C 14.5 km/h
1597 11-01-2015 08:35:00 3.8 C 4.83 g/m*3 -1.57 C 30.6 km/h
1598 11-01-2015 08:40:00 3.8 C 4.83 g/m*3 -1.57 C 30.6 km/h
1599 11-01-2015 08:45:00 3.8 C 4.83 g/m*3 0.94 C 11.3 km/h
1600 11-01-2015 08:50:00 4.1 C 4.86 g/m*3 0.72 C 14.5 km/h
Sensor: Nr:Datum:Temp:Abs-Feuchte:Windchill:Wind:
Aussen-T/F 1601 11-01-2015 08:55:00 4.2 C 4.9 g/m*3 1.43 C 11.3 km/h
1602 11-01-2015 09:00:00 4.2 C 4.9 g/m*3 1.43 C 11.3 km/h
1603 11-01-2015 09:05:00 4.2 C 4.9 g/m*3 1.77 C 9.7 km/h
1604 11-01-2015 11:15:00 4.9 C 5.47 g/m*3 1.97 C 12.9 km/h
1605 11-01-2015 11:20:00 5 C 5.44 g/m*3 1.15 C 19.3 km/h
1606 11-01-2015 11:25:00 5.1 C 5.4 g/m*3 1.95 C 14.5 km/h
1607 11-01-2015 11:30:00 5.1 C 5.4 g/m*3 1.71 C 16.1 km/h
1608 11-01-2015 11:35:00 5.2 C 5.44 g/m*3 1.83 C 16.1 km/h
1609 11-01-2015 11:40:00 5.2 C 5.44 g/m*3 2.34 C 12.9 km/h
1610 11-01-2015 11:45:00 5.2 C 5.44 g/m*3 1.83 C 16.1 km/h
1611 11-01-2015 11:50:00 5.2 C 5.37 g/m*3 2.07 C 14.5 km/h
1612 11-01-2015 11:55:00 5.2 C 5.37 g/m*3 1.83 C 16.1 km/h
1613 11-01-2015 12:00:00 5.2 C 5.37 g/m*3 2.07 C 14.5 km/h
1614 11-01-2015 12:05:00 5.2 C 5.37 g/m*3 1.4 C 19.3 km/h
1615 11-01-2015 12:10:00 5.2 C 5.37 g/m*3 2.07 C 14.5 km/h
1616 11-01-2015 12:15:00 5.3 C 5.41 g/m*3 1.96 C 16.1 km/h
1617 11-01-2015 12:20:00 5.5 C 5.41 g/m*3 1.59 C 20.9 km/h
1618 11-01-2015 12:25:00 5.6 C 5.23 g/m*3 1.54 C 22.5 km/h
1619 11-01-2015 12:30:00 5.6 C 5.16 g/m*3 2.57 C 14.5 km/h
1620 11-01-2015 12:35:00 5.6 C 5.16 g/m*3 1.91 C 19.3 km/h
1621 11-01-2015 12:40:00 5.6 C 5.16 g/m*3 1.91 C 19.3 km/h
1622 11-01-2015 12:45:00 5.7 C 5.19 g/m*3 2.24 C 17.7 km/h
1623 11-01-2015 12:50:00 5.7 C 5.19 g/m*3 1.35 C 25.7 km/h
1624 11-01-2015 12:55:00 5.8 C 5.16 g/m*3 1.32 C 27.4 km/h
1625 11-01-2015 13:00:00 5.9 C 5.12 g/m*3 2.29 C 19.3 km/h
Sensor: Nr:Datum:Temp:Abs-Feuchte:Windchill:Wind:
Aussen-T/F 1626 11-01-2015 13:05:00 6.1 C 5.19 g/m*3 2.18 C 22.5 km/h
1627 11-01-2015 13:10:00 6 C 5.15 g/m*3 1.44 C 29 km/h
1628 11-01-2015 13:15:00 6 C 5.08 g/m*3 2.41 C 19.3 km/h
1629 11-01-2015 13:20:00 6 C 5.15 g/m*3 2.41 C 19.3 km/h
1630 11-01-2015 13:25:00 6 C 5.08 g/m*3 1.31 C 30.6 km/h
1631 11-01-2015 13:30:00 6.1 C 5.11 g/m*3 2.02 C 24.1 km/h
1632 11-01-2015 13:35:00 6.1 C 5.04 g/m*3 1.86 C 25.7 km/h
1633 11-01-2015 13:40:00 6.1 C 5.04 g/m*3 1.71 C 27.4 km/h
1634 11-01-2015 13:45:00 6.1 C 5.11 g/m*3 2.18 C 22.5 km/h
1635 11-01-2015 13:50:00 6 C 5.08 g/m*3 2.61 C 17.7 km/h
1636 11-01-2015 13:55:00 6 C 5.15 g/m*3 2.41 C 19.3 km/h
1637 11-01-2015 14:00:00 6.1 C 5.19 g/m*3 2.35 C 20.9 km/h
1638 11-01-2015 14:05:00 6.1 C 5.04 g/m*3 2.35 C 20.9 km/h
1639 11-01-2015 14:10:00 6.2 C 5.07 g/m*3 2.48 C 20.9 km/h
1640 11-01-2015 14:15:00 6.2 C 5.07 g/m*3 2.48 C 20.9 km/h
1641 11-01-2015 14:20:00 6.2 C 5.07 g/m*3 1.7 C 29 km/h
1642 11-01-2015 14:25:00 6.2 C 5.15 g/m*3 2.66 C 19.3 km/h
1643 11-01-2015 14:30:00 6.1 C 5.11 g/m*3 2.95 C 16.1 km/h
1644 11-01-2015 14:35:00 6.1 C 5.11 g/m*3 2.73 C 17.7 km/h
1645 11-01-2015 14:40:00 6.1 C 5.11 g/m*3 2.35 C 20.9 km/h
1646 11-01-2015 15:00:00 6.1 C 5.11 g/m*3 2.35 C 20.9 km/h
1647 11-01-2015 15:05:00 6.2 C 5.07 g/m*3 2.66 C 19.3 km/h
1648 11-01-2015 15:10:00 6.2 C 5.15 g/m*3 2.86 C 17.7 km/h
1649 11-01-2015 15:15:00 6.1 C 5.11 g/m*3 1.44 C 30.6 km/h
1650 11-01-2015 15:20:00 6.1 C 5.11 g/m*3 2.54 C 19.3 km/h
Sensor: Nr:Datum:Temp:Abs-Feuchte:Windchill:Wind:
Aussen-T/F 1651 11-01-2015 15:25:00 6.1 C 5.04 g/m*3 2.02 C 24.1 km/h
1652 11-01-2015 15:30:00 6.1 C 5.04 g/m*3 1.31 C 32.2 km/h
1653 11-01-2015 15:35:00 6.1 C 5.04 g/m*3 1.31 C 32.2 km/h
1654 11-01-2015 15:40:00 6 C 5.08 g/m*3 2.23 C 20.9 km/h
1655 11-01-2015 15:45:00 5.9 C 5.12 g/m*3 2.48 C 17.7 km/h
1656 11-01-2015 15:50:00 5.8 C 5.16 g/m*3 2.58 C 16.1 km/h
1657 11-01-2015 15:55:00 5.8 C 5.16 g/m*3 2.36 C 17.7 km/h
1658 11-01-2015 16:00:00 5.8 C 5.16 g/m*3 2.36 C 17.7 km/h
1659 11-01-2015 16:05:00 5.7 C 5.12 g/m*3 2.45 C 16.1 km/h
1660 11-01-2015 16:10:00 5.7 C 5.12 g/m*3 2.45 C 16.1 km/h
1661 11-01-2015 16:15:00 5.7 C 5.05 g/m*3 2.24 C 17.7 km/h
1662 11-01-2015 16:20:00 5.7 C 5.12 g/m*3 2.45 C 16.1 km/h
1663 11-01-2015 16:25:00 5.7 C 5.12 g/m*3 2.45 C 16.1 km/h
1664 11-01-2015 16:30:00 5.7 C 5.12 g/m*3 2.69 C 14.5 km/h
1665 11-01-2015 16:35:00 5.6 C 5.09 g/m*3 3.44 C 9.7 km/h
1666 11-01-2015 16:40:00 5.6 C 5.09 g/m*3 3.11 C 11.3 km/h
1667 11-01-2015 16:45:00 5.6 C 5.09 g/m*3 1.91 C 19.3 km/h
1668 11-01-2015 17:05:00 5.5 C 7.02 g/m*3 2.7 C 12.9 km/h
1669 11-01-2015 17:10:00 5.5 C 7.02 g/m*3 1.78 C 19.3 km/h
1670 11-01-2015 17:15:00 5.5 C 7.02 g/m*3 2.7 C 12.9 km/h
1671 11-01-2015 17:20:00 5.5 C 7.02 g/m*3 2.7 C 12.9 km/h
1672 11-01-2015 17:25:00 5.4 C 6.98 g/m*3 2.32 C 14.5 km/h
1673 11-01-2015 17:30:00 5.5 C 7.02 g/m*3 2.7 C 12.9 km/h
1674 11-01-2015 17:35:00 5.5 C 7.02 g/m*3 2.44 C 14.5 km/h
1675 11-01-2015 18:15:00 5.6 C 7.07 g/m*3 2.33 C 16.1 km/h
Sensor: Nr:Datum:Temp:Abs-Feuchte:Windchill:Wind:
Aussen-T/F 1676 11-01-2015 18:20:00 5.6 C 7.07 g/m*3 3.11 C 11.3 km/h
1677 11-01-2015 18:25:00 5.6 C 5.02 g/m*3 3.44 C 9.7 km/h
1678 11-01-2015 18:30:00 5.6 C 5.02 g/m*3 3.11 C 11.3 km/h
1679 11-01-2015 18:35:00 5.5 C 5.06 g/m*3 4.17 C 6.4 km/h
1680 11-01-2015 18:40:00 5.4 C 5.02 g/m*3 2.58 C 12.9 km/h
1681 11-01-2015 18:45:00 5.5 C 5.06 g/m*3 3.32 C 9.7 km/h
1682 11-01-2015 18:50:00 5.4 C 5.09 g/m*3 3.58 C 8.1 km/h
1683 11-01-2015 18:55:00 5.4 C 5.09 g/m*3 2.87 C 11.3 km/h
1684 11-01-2015 19:00:00 5.5 C 5.13 g/m*3 1.78 C 19.3 km/h
1685 11-01-2015 19:05:00 5.6 C 5.16 g/m*3 3.11 C 11.3 km/h
1686 11-01-2015 19:10:00 5.5 C 5.13 g/m*3 2.99 C 11.3 km/h
1687 11-01-2015 19:15:00 5.5 C 5.13 g/m*3 1.99 C 17.7 km/h
1688 11-01-2015 19:20:00 5.6 C 5.16 g/m*3 3.44 C 9.7 km/h
1689 11-01-2015 19:25:00 5.6 C 5.16 g/m*3 2.57 C 14.5 km/h
1690 11-01-2015 19:30:00 5.6 C 5.16 g/m*3 2.57 C 14.5 km/h
1691 11-01-2015 19:35:00 5.6 C 5.16 g/m*3 3.81 C 8.1 km/h
1692 11-01-2015 19:40:00 5.7 C 5.19 g/m*3 2.69 C 14.5 km/h
1693 11-01-2015 19:45:00 5.7 C 5.19 g/m*3 2.45 C 16.1 km/h
1694 11-01-2015 19:50:00 5.8 C 5.23 g/m*3 1.8 C 22.5 km/h
1695 11-01-2015 19:55:00 5.8 C 5.23 g/m*3 3.07 C 12.9 km/h
1696 11-01-2015 20:00:00 5.8 C 5.23 g/m*3 2.81 C 14.5 km/h
1697 11-01-2015 20:05:00 5.8 C 5.23 g/m*3 3.07 C 12.9 km/h
1698 11-01-2015 20:10:00 5.8 C 5.23 g/m*3 2.81 C 14.5 km/h
1699 11-01-2015 20:15:00 5.8 C 5.23 g/m*3 3.07 C 12.9 km/h
1700 11-01-2015 20:20:00 5.8 C 5.23 g/m*3 3.68 C 9.7 km/h
Sensor: Nr:Datum:Temp:Abs-Feuchte:Windchill:Wind:
Aussen-T/F 1701 11-01-2015 20:25:00 5.7 C 5.19 g/m*3 3.23 C 11.3 km/h
1702 11-01-2015 20:30:00 5.7 C 5.19 g/m*3 2.24 C 17.7 km/h
1703 11-01-2015 20:35:00 5.7 C 5.27 g/m*3 3.56 C 9.7 km/h
1704 11-01-2015 20:40:00 5.7 C 5.27 g/m*3 3.56 C 9.7 km/h
1705 11-01-2015 20:45:00 5.7 C 5.27 g/m*3 3.23 C 11.3 km/h
1706 11-01-2015 20:50:00 5.7 C 5.27 g/m*3 2.69 C 14.5 km/h
1707 11-01-2015 20:55:00 5.8 C 5.3 g/m*3 3.07 C 12.9 km/h
1708 11-01-2015 21:00:00 5.8 C 5.3 g/m*3 3.36 C 11.3 km/h
1709 11-01-2015 21:05:00 5.9 C 5.34 g/m*3 4.17 C 8.1 km/h
1710 11-01-2015 21:10:00 5.9 C 5.34 g/m*3 2.7 C 16.1 km/h
1711 11-01-2015 21:15:00 5.9 C 5.34 g/m*3 3.48 C 11.3 km/h
1712 11-01-2015 21:20:00 5.9 C 5.41 g/m*3 3.19 C 12.9 km/h
1713 11-01-2015 21:25:00 5.9 C 5.48 g/m*3 2.1 C 20.9 km/h
1714 11-01-2015 21:30:00 5.8 C 5.44 g/m*3 3.36 C 11.3 km/h
1715 11-01-2015 21:35:00 5.8 C 5.44 g/m*3 3.07 C 12.9 km/h
1716 11-01-2015 21:40:00 5.8 C 5.44 g/m*3 3.36 C 11.3 km/h
1717 11-01-2015 21:45:00 5.8 C 5.44 g/m*3 2.58 C 16.1 km/h
1718 11-01-2015 21:50:00 5.8 C 5.44 g/m*3 3.07 C 12.9 km/h
1719 11-01-2015 21:55:00 5.8 C 5.44 g/m*3 3.36 C 11.3 km/h
1720 11-01-2015 22:00:00 5.8 C 5.52 g/m*3 3.36 C 11.3 km/h
1721 11-01-2015 22:05:00 5.8 C 5.52 g/m*3 3.68 C 9.7 km/h
1722 11-01-2015 22:10:00 5.8 C 5.52 g/m*3 3.07 C 12.9 km/h
1723 11-01-2015 22:15:00 5.8 C 5.52 g/m*3 3.36 C 11.3 km/h
1724 12-01-2015 00:10:00 5.8 C 5.95 g/m*3 2.16 C 19.3 km/h
1725 12-01-2015 00:15:00 5.8 C 5.95 g/m*3 3.07 C 12.9 km/h
Sensor: Nr:Datum:Temp:Abs-Feuchte:Windchill:Wind:
Aussen-T/F 1726 12-01-2015 00:20:00 5.6 C 5.87 g/m*3 2.57 C 14.5 km/h
1727 12-01-2015 00:25:00 5.6 C 5.87 g/m*3 1.54 C 22.5 km/h
1728 12-01-2015 00:30:00 5.6 C 5.94 g/m*3 1.54 C 22.5 km/h
1729 12-01-2015 00:35:00 5.6 C 5.94 g/m*3 2.83 C 12.9 km/h
1730 12-01-2015 00:40:00 5.6 C 6.01 g/m*3 1.54 C 22.5 km/h
1731 12-01-2015 00:45:00 5.6 C 6.08 g/m*3 1.72 C 20.9 km/h
1732 12-01-2015 00:50:00 5.6 C 6.08 g/m*3 1.38 C 24.1 km/h
1733 12-01-2015 00:55:00 5.6 C 6.08 g/m*3 1.38 C 24.1 km/h
1734 12-01-2015 01:00:00 5.5 C 6.11 g/m*3 2.7 C 12.9 km/h
1735 12-01-2015 01:05:00 5.5 C 6.11 g/m*3 2.7 C 12.9 km/h
1736 12-01-2015 01:10:00 5.4 C 6.07 g/m*3 2.32 C 14.5 km/h
1737 12-01-2015 01:15:00 5.3 C 6.03 g/m*3 1.74 C 17.7 km/h
1738 12-01-2015 01:20:00 5.3 C 6.17 g/m*3 2.46 C 12.9 km/h
1739 12-01-2015 01:25:00 5.3 C 6.17 g/m*3 1.53 C 19.3 km/h
1740 12-01-2015 01:30:00 5.2 C 6.2 g/m*3 1.83 C 16.1 km/h
1741 12-01-2015 01:35:00 5.2 C 6.2 g/m*3 1.83 C 16.1 km/h
1742 12-01-2015 01:40:00 5.1 C 6.16 g/m*3 1.28 C 19.3 km/h
1743 12-01-2015 01:45:00 5.2 C 6.2 g/m*3 1.61 C 17.7 km/h
1744 12-01-2015 01:50:00 5.2 C 6.2 g/m*3 1.83 C 16.1 km/h
1745 12-01-2015 01:55:00 5.2 C 6.2 g/m*3 1.61 C 17.7 km/h
1746 12-01-2015 02:00:00 5.3 C 6.24 g/m*3 1.96 C 16.1 km/h
1747 12-01-2015 02:05:00 5.3 C 6.24 g/m*3 1.74 C 17.7 km/h
1748 12-01-2015 02:10:00 5.3 C 6.17 g/m*3 2.46 C 12.9 km/h
1749 12-01-2015 02:15:00 5.4 C 6.21 g/m*3 1.86 C 17.7 km/h
1750 12-01-2015 02:20:00 5.4 C 6.21 g/m*3 2.32 C 14.5 km/h
Sensor: Nr:Datum:Temp:Abs-Feuchte:Windchill:Wind:
Aussen-T/F 1751 12-01-2015 02:25:00 5.4 C 6.21 g/m*3 2.08 C 16.1 km/h
1752 12-01-2015 02:30:00 5.4 C 6.21 g/m*3 2.87 C 11.3 km/h
1753 12-01-2015 02:35:00 5.7 C 6.26 g/m*3 2.95 C 12.9 km/h
1754 12-01-2015 02:40:00 5.7 C 6.26 g/m*3 2.69 C 14.5 km/h
1755 12-01-2015 02:45:00 5.8 C 6.3 g/m*3 2.81 C 14.5 km/h
1756 12-01-2015 02:50:00 5.8 C 6.3 g/m*3 3.07 C 12.9 km/h
1757 12-01-2015 02:55:00 5.8 C 6.3 g/m*3 2.81 C 14.5 km/h
1758 12-01-2015 03:00:00 5.8 C 6.3 g/m*3 3.36 C 11.3 km/h
1759 12-01-2015 03:05:00 5.8 C 6.3 g/m*3 3.36 C 11.3 km/h
1760 12-01-2015 03:10:00 5.9 C 6.35 g/m*3 3.8 C 9.7 km/h
1761 12-01-2015 03:15:00 5.9 C 6.35 g/m*3 2.48 C 17.7 km/h
1762 12-01-2015 03:20:00 6 C 6.31 g/m*3 3.6 C 11.3 km/h
1763 12-01-2015 03:25:00 6 C 6.31 g/m*3 3.92 C 9.7 km/h
1764 12-01-2015 03:30:00 6.1 C 6.36 g/m*3 2.54 C 19.3 km/h
1765 12-01-2015 03:35:00 6.1 C 6.36 g/m*3 3.43 C 12.9 km/h
1766 12-01-2015 03:40:00 6.1 C 6.36 g/m*3 3.72 C 11.3 km/h
1767 12-01-2015 03:45:00 6.1 C 6.43 g/m*3 3.72 C 11.3 km/h
1768 12-01-2015 03:50:00 6.1 C 6.43 g/m*3 3.72 C 11.3 km/h
1769 12-01-2015 03:55:00 6.1 C 6.43 g/m*3 2.73 C 17.7 km/h
1770 12-01-2015 04:00:00 6.1 C 6.43 g/m*3 3.18 C 14.5 km/h
1771 12-01-2015 04:05:00 6.1 C 6.43 g/m*3 2.73 C 17.7 km/h
1772 12-01-2015 04:10:00 6.1 C 6.43 g/m*3 3.72 C 11.3 km/h
1773 12-01-2015 04:15:00 6.1 C 6.5 g/m*3 3.18 C 14.5 km/h
1774 12-01-2015 04:20:00 6 C 6.46 g/m*3 3.31 C 12.9 km/h
1775 12-01-2015 04:25:00 6 C 6.46 g/m*3 3.92 C 9.7 km/h
Sensor: Nr:Datum:Temp:Abs-Feuchte:Windchill:Wind:
Aussen-T/F 1776 12-01-2015 04:30:00 6 C 6.46 g/m*3 3.31 C 12.9 km/h
1777 12-01-2015 04:35:00 6 C 6.46 g/m*3 3.92 C 9.7 km/h
1778 12-01-2015 04:40:00 6.1 C 6.5 g/m*3 2.73 C 17.7 km/h
1779 12-01-2015 04:45:00 6.1 C 6.5 g/m*3 2.95 C 16.1 km/h
1780 12-01-2015 04:50:00 6.1 C 6.5 g/m*3 3.43 C 12.9 km/h
1781 12-01-2015 04:55:00 6.2 C 6.55 g/m*3 4.52 C 8.1 km/h
1782 12-01-2015 05:00:00 6.2 C 6.47 g/m*3 4.52 C 8.1 km/h
1783 12-01-2015 05:05:00 6.2 C 6.55 g/m*3 6.2 C 4.8 km/h
1784 12-01-2015 05:10:00 6.2 C 6.55 g/m*3 4.98 C 6.4 km/h
1785 12-01-2015 05:15:00 6.2 C 6.55 g/m*3 3.56 C 12.9 km/h
1786 12-01-2015 05:20:00 6.2 C 6.55 g/m*3 4.52 C 8.1 km/h
1787 12-01-2015 05:25:00 6.2 C 6.55 g/m*3 3.84 C 11.3 km/h
1788 12-01-2015 05:30:00 6.2 C 6.55 g/m*3 4.15 C 9.7 km/h
1789 12-01-2015 05:35:00 6.2 C 6.55 g/m*3 3.56 C 12.9 km/h
1790 12-01-2015 05:40:00 6.2 C 6.47 g/m*3 3.56 C 12.9 km/h
1791 12-01-2015 05:45:00 6.3 C 6.44 g/m*3 3.43 C 14.5 km/h
1792 12-01-2015 05:50:00 6.3 C 6.44 g/m*3 3.43 C 14.5 km/h
1793 12-01-2015 05:55:00 6.3 C 6.44 g/m*3 3.43 C 14.5 km/h
1794 12-01-2015 06:00:00 6.3 C 6.44 g/m*3 3.68 C 12.9 km/h
1795 12-01-2015 06:05:00 6.4 C 6.41 g/m*3 2.91 C 19.3 km/h
1796 12-01-2015 06:10:00 6.4 C 6.41 g/m*3 3.8 C 12.9 km/h
1797 12-01-2015 06:15:00 6.4 C 6.41 g/m*3 4.08 C 11.3 km/h
1798 12-01-2015 06:20:00 6.5 C 6.45 g/m*3 3.23 C 17.7 km/h
1799 12-01-2015 06:25:00 6.6 C 6.42 g/m*3 2.82 C 22.5 km/h
1800 12-01-2015 06:30:00 6.6 C 6.42 g/m*3 3.17 C 19.3 km/h
Sensor: Nr:Datum:Temp:Abs-Feuchte:Windchill:Wind:
Aussen-T/F 1801 12-01-2015 06:35:00 6.6 C 6.42 g/m*3 3.57 C 16.1 km/h
1802 12-01-2015 06:40:00 6.6 C 6.42 g/m*3 3.57 C 16.1 km/h
1803 12-01-2015 06:45:00 6.5 C 6.45 g/m*3 4.2 C 11.3 km/h
1804 12-01-2015 06:50:00 6.5 C 6.45 g/m*3 3.92 C 12.9 km/h
1805 12-01-2015 06:55:00 6.5 C 6.37 g/m*3 3.92 C 12.9 km/h
1806 12-01-2015 07:00:00 6.5 C 6.45 g/m*3 4.2 C 11.3 km/h
1807 12-01-2015 07:05:00 6.4 C 6.33 g/m*3 3.11 C 17.7 km/h
1808 12-01-2015 07:10:00 6.4 C 6.33 g/m*3 4.08 C 11.3 km/h
1809 12-01-2015 07:15:00 6.5 C 6.45 g/m*3 3.92 C 12.9 km/h
1810 12-01-2015 07:20:00 6.5 C 6.37 g/m*3 3.44 C 16.1 km/h
1811 12-01-2015 07:25:00 6.5 C 6.37 g/m*3 3.92 C 12.9 km/h
1812 12-01-2015 07:30:00 6.5 C 6.37 g/m*3 3.04 C 19.3 km/h
1813 12-01-2015 07:35:00 6.6 C 6.34 g/m*3 3.79 C 14.5 km/h
1814 12-01-2015 07:40:00 6.6 C 6.34 g/m*3 2.99 C 20.9 km/h
1815 12-01-2015 07:45:00 6.6 C 6.34 g/m*3 3.57 C 16.1 km/h
1816 12-01-2015 07:50:00 6.7 C 6.38 g/m*3 2.64 C 25.7 km/h
1817 12-01-2015 07:55:00 6.7 C 6.38 g/m*3 3.92 C 14.5 km/h
1818 12-01-2015 08:00:00 6.7 C 6.38 g/m*3 4.17 C 12.9 km/h
1819 12-01-2015 08:05:00 6.6 C 6.27 g/m*3 3.57 C 16.1 km/h
1820 12-01-2015 08:10:00 6.6 C 6.27 g/m*3 3.79 C 14.5 km/h
1821 12-01-2015 08:15:00 6.7 C 6.31 g/m*3 2.79 C 24.1 km/h
1822 12-01-2015 08:20:00 6.7 C 6.31 g/m*3 3.92 C 14.5 km/h
1823 12-01-2015 08:25:00 6.7 C 6.31 g/m*3 4.17 C 12.9 km/h
1824 12-01-2015 08:30:00 6.7 C 6.31 g/m*3 4.17 C 12.9 km/h
1825 12-01-2015 08:35:00 6.7 C 6.31 g/m*3 3.69 C 16.1 km/h
Sensor: Nr:Datum:Temp:Abs-Feuchte:Windchill:Wind:
Aussen-T/F 1826 12-01-2015 08:40:00 6.7 C 6.31 g/m*3 3.29 C 19.3 km/h
1827 12-01-2015 08:45:00 6.7 C 6.31 g/m*3 4.17 C 12.9 km/h
1828 12-01-2015 08:50:00 6.7 C 6.31 g/m*3 4.17 C 12.9 km/h
1829 12-01-2015 08:55:00 6.7 C 6.31 g/m*3 4.44 C 11.3 km/h
1830 12-01-2015 09:00:00 6.7 C 6.23 g/m*3 3.11 C 20.9 km/h
1831 12-01-2015 09:05:00 6.7 C 6.23 g/m*3 4.17 C 12.9 km/h
1832 12-01-2015 09:10:00 6.8 C 6.27 g/m*3 3.61 C 17.7 km/h
1833 12-01-2015 09:15:00 6.8 C 6.27 g/m*3 3.61 C 17.7 km/h
1834 12-01-2015 09:20:00 6.8 C 6.27 g/m*3 3.61 C 17.7 km/h
1835 12-01-2015 09:25:00 6.8 C 6.19 g/m*3 3.61 C 17.7 km/h
1836 12-01-2015 09:30:00 6.8 C 6.19 g/m*3 4.04 C 14.5 km/h
1837 12-01-2015 09:35:00 6.9 C 6.24 g/m*3 3.94 C 16.1 km/h
1838 12-01-2015 09:40:00 6.8 C 6.19 g/m*3 4.87 C 9.7 km/h
1839 12-01-2015 09:45:00 6.8 C 6.19 g/m*3 4.04 C 14.5 km/h
1840 12-01-2015 09:50:00 6.8 C 6.19 g/m*3 4.56 C 11.3 km/h
1841 12-01-2015 09:55:00 6.9 C 6.24 g/m*3 4.41 C 12.9 km/h
1842 12-01-2015 10:00:00 6.9 C 6.24 g/m*3 4.16 C 14.5 km/h
1843 12-01-2015 10:05:00 6.9 C 6.24 g/m*3 4.99 C 9.7 km/h
1844 12-01-2015 10:10:00 6.9 C 6.24 g/m*3 3.2 C 22.5 km/h
1845 12-01-2015 10:15:00 6.9 C 6.24 g/m*3 4.16 C 14.5 km/h
1846 12-01-2015 10:20:00 7 C 6.28 g/m*3 4.29 C 14.5 km/h
1847 12-01-2015 10:25:00 7.1 C 6.24 g/m*3 3.62 C 20.9 km/h
1848 12-01-2015 10:30:00 7.1 C 6.24 g/m*3 4.19 C 16.1 km/h
1849 12-01-2015 10:35:00 7.1 C 6.24 g/m*3 4.19 C 16.1 km/h
1850 12-01-2015 10:40:00 7.1 C 6.24 g/m*3 4.19 C 16.1 km/h
Sensor: Nr:Datum:Temp:Abs-Feuchte:Windchill:Wind:
Aussen-T/F 1851 12-01-2015 10:45:00 7.1 C 6.32 g/m*3 4.41 C 14.5 km/h
1852 12-01-2015 10:50:00 7.1 C 6.32 g/m*3 5.58 C 8.1 km/h
1853 12-01-2015 10:55:00 7 C 6.28 g/m*3 3.86 C 17.7 km/h
1854 12-01-2015 11:00:00 7 C 6.35 g/m*3 3.49 C 20.9 km/h
1855 12-01-2015 11:05:00 6.9 C 6.31 g/m*3 4.41 C 12.9 km/h
1856 12-01-2015 11:10:00 6.9 C 6.39 g/m*3 3.54 C 19.3 km/h
1857 12-01-2015 11:15:00 6.8 C 6.35 g/m*3 3.82 C 16.1 km/h
1858 12-01-2015 11:20:00 6.8 C 6.42 g/m*3 4.56 C 11.3 km/h
1859 12-01-2015 11:25:00 6.7 C 6.38 g/m*3 3.92 C 14.5 km/h
1860 12-01-2015 11:30:00 6.7 C 6.46 g/m*3 4.75 C 9.7 km/h
1861 12-01-2015 11:35:00 6.6 C 6.42 g/m*3 4.04 C 12.9 km/h
1862 12-01-2015 11:40:00 6.6 C 6.42 g/m*3 3.57 C 16.1 km/h
1863 12-01-2015 11:45:00 6.6 C 6.42 g/m*3 4.04 C 12.9 km/h
1864 12-01-2015 11:50:00 6.6 C 6.42 g/m*3 3.57 C 16.1 km/h
1865 12-01-2015 11:55:00 6.7 C 6.46 g/m*3 3.92 C 14.5 km/h
1866 12-01-2015 12:00:00 6.7 C 6.46 g/m*3 5.11 C 8.1 km/h
1867 12-01-2015 12:05:00 6.7 C 6.38 g/m*3 3.92 C 14.5 km/h
1868 12-01-2015 12:10:00 6.8 C 6.42 g/m*3 5.22 C 8.1 km/h
1869 12-01-2015 12:15:00 6.8 C 6.42 g/m*3 3.61 C 17.7 km/h
1870 12-01-2015 12:20:00 6.8 C 6.42 g/m*3 3.82 C 16.1 km/h
1871 12-01-2015 12:25:00 6.8 C 6.42 g/m*3 4.29 C 12.9 km/h
1872 12-01-2015 12:30:00 6.9 C 6.47 g/m*3 4.68 C 11.3 km/h
1873 12-01-2015 12:35:00 6.9 C 6.47 g/m*3 4.68 C 11.3 km/h
1874 12-01-2015 13:10:00 7.3 C 7.9 g/m*3 5.47 C 9.7 km/h
1875 12-01-2015 13:15:00 7.3 C 6.48 g/m*3 4.9 C 12.9 km/h
Sensor: Nr:Datum:Temp:Abs-Feuchte:Windchill:Wind:
Aussen-T/F 1876 12-01-2015 13:20:00 7.3 C 6.4 g/m*3 5.81 C 8.1 km/h
1877 12-01-2015 13:25:00 7.3 C 6.4 g/m*3 5.47 C 9.7 km/h
1878 12-01-2015 13:30:00 7.3 C 6.4 g/m*3 4.66 C 14.5 km/h
1879 12-01-2015 13:35:00 7.4 C 6.44 g/m*3 4.78 C 14.5 km/h
1880 12-01-2015 13:40:00 7.4 C 6.44 g/m*3 5.28 C 11.3 km/h
1881 12-01-2015 13:45:00 7.4 C 6.44 g/m*3 4.56 C 16.1 km/h
1882 12-01-2015 13:50:00 7.4 C 6.44 g/m*3 4.56 C 16.1 km/h
1883 12-01-2015 13:55:00 7.5 C 6.48 g/m*3 5.14 C 12.9 km/h
1884 12-01-2015 14:00:00 7.5 C 6.48 g/m*3 5.14 C 12.9 km/h
1885 12-01-2015 14:05:00 7.6 C 6.53 g/m*3 4.61 C 17.7 km/h
1886 12-01-2015 14:10:00 7.6 C 6.53 g/m*3 4.81 C 16.1 km/h
1887 12-01-2015 14:15:00 7.6 C 6.53 g/m*3 5.26 C 12.9 km/h
1888 12-01-2015 14:20:00 7.6 C 6.53 g/m*3 4.81 C 16.1 km/h
1889 12-01-2015 14:25:00 7.6 C 6.53 g/m*3 4.81 C 16.1 km/h
1890 12-01-2015 14:30:00 7.6 C 6.53 g/m*3 4.81 C 16.1 km/h
1891 12-01-2015 14:35:00 7.6 C 6.53 g/m*3 5.02 C 14.5 km/h
1892 12-01-2015 14:40:00 7.6 C 6.53 g/m*3 4.81 C 16.1 km/h
1893 12-01-2015 14:45:00 7.6 C 6.53 g/m*3 5.82 C 9.7 km/h
1894 12-01-2015 14:50:00 7.6 C 6.53 g/m*3 5.53 C 11.3 km/h
1895 12-01-2015 14:55:00 7.6 C 6.53 g/m*3 4.25 C 20.9 km/h
1896 12-01-2015 15:20:00 7.5 C 6.56 g/m*3 4.9 C 14.5 km/h
1897 12-01-2015 15:25:00 7.4 C 6.52 g/m*3 5.02 C 12.9 km/h
1898 12-01-2015 15:30:00 7.4 C 6.6 g/m*3 5.28 C 11.3 km/h
1899 12-01-2015 15:35:00 7.4 C 6.6 g/m*3 5.02 C 12.9 km/h
1900 12-01-2015 15:40:00 7.4 C 6.6 g/m*3 4.78 C 14.5 km/h
Sensor: Nr:Datum:Temp:Abs-Feuchte:Windchill:Wind:
Aussen-T/F 1901 12-01-2015 15:45:00 7.3 C 6.64 g/m*3 3.71 C 22.5 km/h
1902 12-01-2015 15:50:00 7.3 C 6.64 g/m*3 4.9 C 12.9 km/h
1903 12-01-2015 15:55:00 7.2 C 6.59 g/m*3 5.35 C 9.7 km/h
1904 12-01-2015 16:00:00 7.2 C 6.59 g/m*3 4.11 C 17.7 km/h
1905 12-01-2015 16:05:00 7.2 C 6.59 g/m*3 3.75 C 20.9 km/h
1906 12-01-2015 16:10:00 7.2 C 6.59 g/m*3 4.77 C 12.9 km/h
1907 12-01-2015 16:15:00 7.1 C 6.55 g/m*3 3.8 C 19.3 km/h
1908 12-01-2015 16:20:00 7.1 C 6.55 g/m*3 4.65 C 12.9 km/h
1909 12-01-2015 16:25:00 7.1 C 6.55 g/m*3 4.41 C 14.5 km/h
1910 12-01-2015 16:45:00 7.1 C 7.8 g/m*3 2.62 C 32.2 km/h
1911 12-01-2015 16:50:00 7.1 C 6.63 g/m*3 2.62 C 32.2 km/h
1912 12-01-2015 16:55:00 7.1 C 6.63 g/m*3 3.15 C 25.7 km/h
1913 12-01-2015 17:00:00 7.1 C 6.63 g/m*3 3.98 C 17.7 km/h
1914 12-01-2015 17:05:00 7.1 C 6.63 g/m*3 3.98 C 17.7 km/h
1915 12-01-2015 17:10:00 7.1 C 6.63 g/m*3 4.19 C 16.1 km/h
1916 12-01-2015 17:15:00 7.1 C 6.63 g/m*3 3.3 C 24.1 km/h
1917 12-01-2015 17:20:00 7.1 C 6.63 g/m*3 3.8 C 19.3 km/h
1918 12-01-2015 17:25:00 7.1 C 6.63 g/m*3 3.8 C 19.3 km/h
1919 12-01-2015 17:30:00 7.1 C 6.55 g/m*3 4.19 C 16.1 km/h
1920 12-01-2015 17:35:00 7.1 C 6.55 g/m*3 4.65 C 12.9 km/h
1921 12-01-2015 17:40:00 7.1 C 6.55 g/m*3 4.19 C 16.1 km/h
1922 12-01-2015 17:45:00 7.1 C 6.55 g/m*3 4.41 C 14.5 km/h
1923 12-01-2015 17:50:00 7.1 C 6.47 g/m*3 3.62 C 20.9 km/h
1924 12-01-2015 17:55:00 7.2 C 6.52 g/m*3 4.53 C 14.5 km/h
1925 12-01-2015 18:00:00 7.2 C 6.52 g/m*3 5.04 C 11.3 km/h
Sensor: Nr:Datum:Temp:Abs-Feuchte:Windchill:Wind:
Aussen-T/F 1926 12-01-2015 18:05:00 7.2 C 6.44 g/m*3 5.04 C 11.3 km/h
1927 12-01-2015 18:10:00 7.2 C 6.44 g/m*3 4.77 C 12.9 km/h
1928 12-01-2015 18:15:00 7.3 C 6.48 g/m*3 3.71 C 22.5 km/h
1929 12-01-2015 18:20:00 7.3 C 6.4 g/m*3 4.44 C 16.1 km/h
1930 12-01-2015 18:25:00 7.4 C 6.44 g/m*3 4.78 C 14.5 km/h
1931 12-01-2015 18:30:00 7.5 C 6.4 g/m*3 4.13 C 20.9 km/h
1932 12-01-2015 18:35:00 7.6 C 6.44 g/m*3 5.02 C 14.5 km/h
1933 12-01-2015 18:40:00 7.6 C 6.44 g/m*3 4.61 C 17.7 km/h
1934 12-01-2015 18:45:00 7.6 C 6.44 g/m*3 4.61 C 17.7 km/h
1935 12-01-2015 18:50:00 7.7 C 6.49 g/m*3 4.93 C 16.1 km/h
1936 12-01-2015 18:55:00 7.7 C 6.49 g/m*3 3.92 C 25.7 km/h
1937 12-01-2015 19:00:00 7.7 C 6.49 g/m*3 5.94 C 9.7 km/h
1938 12-01-2015 19:05:00 7.7 C 6.49 g/m*3 5.38 C 12.9 km/h
1939 12-01-2015 19:10:00 7.7 C 6.49 g/m*3 5.15 C 14.5 km/h
1940 12-01-2015 19:15:00 7.7 C 6.49 g/m*3 5.65 C 11.3 km/h
1941 12-01-2015 19:20:00 7.7 C 6.57 g/m*3 5.15 C 14.5 km/h
1942 12-01-2015 19:25:00 7.7 C 6.57 g/m*3 4.73 C 17.7 km/h
1943 12-01-2015 19:30:00 7.8 C 6.61 g/m*3 5.51 C 12.9 km/h
1944 12-01-2015 19:35:00 7.8 C 6.61 g/m*3 5.06 C 16.1 km/h
1945 12-01-2015 19:40:00 7.8 C 6.61 g/m*3 5.27 C 14.5 km/h
1946 12-01-2015 19:45:00 7.8 C 6.61 g/m*3 5.51 C 12.9 km/h
1947 12-01-2015 19:50:00 7.8 C 6.61 g/m*3 6.06 C 9.7 km/h
1948 12-01-2015 19:55:00 7.8 C 6.61 g/m*3 5.51 C 12.9 km/h
1949 12-01-2015 20:00:00 7.9 C 6.65 g/m*3 5.39 C 14.5 km/h
1950 12-01-2015 20:05:00 7.9 C 6.65 g/m*3 5.39 C 14.5 km/h
Sensor: Nr:Datum:Temp:Abs-Feuchte:Windchill:Wind:
Aussen-T/F 1951 12-01-2015 20:10:00 7.9 C 6.65 g/m*3 5.89 C 11.3 km/h
1952 12-01-2015 20:15:00 8 C 6.7 g/m*3 6.01 C 11.3 km/h
1953 12-01-2015 20:20:00 8.1 C 6.66 g/m*3 5.64 C 14.5 km/h
1954 12-01-2015 20:25:00 8.1 C 6.66 g/m*3 6.42 C 9.7 km/h
1955 12-01-2015 20:30:00 8.2 C 6.7 g/m*3 5.01 C 20.9 km/h
1956 12-01-2015 20:35:00 8.3 C 6.74 g/m*3 5.89 C 14.5 km/h
1957 12-01-2015 20:40:00 8.3 C 6.74 g/m*3 6.12 C 12.9 km/h
1958 12-01-2015 20:45:00 8.3 C 6.74 g/m*3 5.14 C 20.9 km/h
1959 12-01-2015 20:50:00 8.3 C 6.74 g/m*3 5.89 C 14.5 km/h
1960 12-01-2015 21:15:00 8.4 C 6.62 g/m*3 5.27 C 20.9 km/h
1961 12-01-2015 21:20:00 8.4 C 6.62 g/m*3 5.27 C 20.9 km/h
1962 12-01-2015 21:25:00 8.4 C 6.53 g/m*3 5.43 C 19.3 km/h
1963 12-01-2015 21:30:00 8.5 C 6.57 g/m*3 5.56 C 19.3 km/h
1964 12-01-2015 21:35:00 8.5 C 6.57 g/m*3 5.73 C 17.7 km/h
1965 12-01-2015 21:40:00 8.4 C 6.53 g/m*3 5.11 C 22.5 km/h
1966 12-01-2015 21:45:00 8.5 C 6.49 g/m*3 5.39 C 20.9 km/h
1967 12-01-2015 21:50:00 8.5 C 6.49 g/m*3 4.95 C 25.7 km/h
1968 12-01-2015 21:55:00 8.4 C 6.45 g/m*3 5.43 C 19.3 km/h
1969 12-01-2015 22:00:00 8.4 C 6.45 g/m*3 5.43 C 19.3 km/h
1970 12-01-2015 22:05:00 8.4 C 6.45 g/m*3 5.27 C 20.9 km/h
1971 12-01-2015 22:10:00 8.3 C 6.41 g/m*3 5.68 C 16.1 km/h
1972 12-01-2015 22:15:00 8.3 C 6.41 g/m*3 6.37 C 11.3 km/h
1973 12-01-2015 22:20:00 8.3 C 6.41 g/m*3 5.48 C 17.7 km/h
1974 12-01-2015 22:25:00 8.3 C 6.41 g/m*3 5.48 C 17.7 km/h
1975 12-01-2015 22:30:00 8.3 C 6.41 g/m*3 5.48 C 17.7 km/h
Sensor: Nr:Datum:Temp:Abs-Feuchte:Windchill:Wind:
Aussen-T/F 1976 12-01-2015 22:35:00 8.3 C 6.41 g/m*3 4.7 C 25.7 km/h
1977 12-01-2015 22:40:00 8.3 C 6.41 g/m*3 5.31 C 19.3 km/h
1978 12-01-2015 22:45:00 8.3 C 6.41 g/m*3 5.68 C 16.1 km/h
1979 12-01-2015 23:10:00 8.6 C 6.44 g/m*3 5.22 C 24.1 km/h
1980 12-01-2015 23:15:00 8.6 C 6.44 g/m*3 5.22 C 24.1 km/h
1981 12-01-2015 23:20:00 8.6 C 6.44 g/m*3 5.68 C 19.3 km/h
1982 12-01-2015 23:25:00 8.6 C 6.44 g/m*3 5.86 C 17.7 km/h
1983 12-01-2015 23:30:00 8.6 C 6.44 g/m*3 6.05 C 16.1 km/h
1984 12-01-2015 23:35:00 8.6 C 6.44 g/m*3 5.68 C 19.3 km/h
1985 12-01-2015 23:40:00 8.7 C 6.49 g/m*3 6.6 C 12.9 km/h
1986 12-01-2015 23:45:00 8.7 C 6.49 g/m*3 5.98 C 17.7 km/h
1987 12-01-2015 23:50:00 8.7 C 6.49 g/m*3 5.81 C 19.3 km/h
1988 12-01-2015 23:55:00 8.7 C 6.49 g/m*3 5.81 C 19.3 km/h
1989 13-01-2015 00:00:00 8.7 C 6.57 g/m*3 5.81 C 19.3 km/h
1990 13-01-2015 00:05:00 8.7 C 6.57 g/m*3 5.65 C 20.9 km/h
1991 13-01-2015 00:10:00 8.7 C 6.57 g/m*3 5.65 C 20.9 km/h
1992 13-01-2015 00:15:00 8.8 C 6.61 g/m*3 6.11 C 17.7 km/h
1993 13-01-2015 00:20:00 8.8 C 6.61 g/m*3 5.2 C 27.4 km/h
1994 13-01-2015 00:25:00 8.8 C 6.61 g/m*3 5.2 C 27.4 km/h
1995 13-01-2015 00:30:00 8.8 C 6.61 g/m*3 5.93 C 19.3 km/h
1996 13-01-2015 00:35:00 8.8 C 6.61 g/m*3 5.62 C 22.5 km/h
1997 13-01-2015 00:40:00 8.8 C 6.7 g/m*3 5.34 C 25.7 km/h
1998 13-01-2015 00:45:00 8.9 C 6.66 g/m*3 6.23 C 17.7 km/h
1999 13-01-2015 00:50:00 8.9 C 6.75 g/m*3 5.75 C 22.5 km/h
2000 13-01-2015 00:55:00 8.9 C 6.66 g/m*3 5.6 C 24.1 km/h
Sensor: Nr:Datum:Temp:Abs-Feuchte:Windchill:Wind:
Aussen-T/F 2001 13-01-2015 01:00:00 8.9 C 6.66 g/m*3 5.9 C 20.9 km/h
2002 13-01-2015 01:05:00 8.9 C 6.66 g/m*3 6.42 C 16.1 km/h
2003 13-01-2015 01:10:00 8.9 C 6.66 g/m*3 5.9 C 20.9 km/h
2004 13-01-2015 01:15:00 9 C 6.7 g/m*3 5.46 C 27.4 km/h
2005 13-01-2015 01:20:00 8.9 C 6.66 g/m*3 5.9 C 20.9 km/h
2006 13-01-2015 01:25:00 8.9 C 6.66 g/m*3 6.42 C 16.1 km/h
2007 13-01-2015 01:30:00 8.9 C 6.66 g/m*3 5.6 C 24.1 km/h
2008 13-01-2015 01:35:00 8.9 C 6.75 g/m*3 6.23 C 17.7 km/h
2009 13-01-2015 01:40:00 8.9 C 6.75 g/m*3 5.9 C 20.9 km/h
2010 13-01-2015 01:45:00 8.9 C 6.75 g/m*3 6.42 C 16.1 km/h
2011 13-01-2015 01:50:00 8.9 C 6.75 g/m*3 5.6 C 24.1 km/h
2012 13-01-2015 01:55:00 9 C 6.79 g/m*3 6.19 C 19.3 km/h
2013 13-01-2015 02:00:00 9.1 C 6.74 g/m*3 6.15 C 20.9 km/h
2014 13-01-2015 02:05:00 9.1 C 6.74 g/m*3 6 C 22.5 km/h
2015 13-01-2015 02:10:00 9.1 C 6.74 g/m*3 6.67 C 16.1 km/h
2016 13-01-2015 02:15:00 8.9 C 6.75 g/m*3 5.9 C 20.9 km/h
2017 13-01-2015 02:20:00 8.9 C 6.75 g/m*3 5.75 C 22.5 km/h
2018 13-01-2015 02:25:00 8.9 C 6.75 g/m*3 6.42 C 16.1 km/h
2019 13-01-2015 02:30:00 8.9 C 6.75 g/m*3 6.23 C 17.7 km/h
2020 13-01-2015 02:35:00 8.9 C 6.75 g/m*3 5.75 C 22.5 km/h
2021 13-01-2015 02:40:00 8.9 C 6.75 g/m*3 6.06 C 19.3 km/h
2022 13-01-2015 02:45:00 8.9 C 6.75 g/m*3 6.06 C 19.3 km/h
2023 13-01-2015 02:50:00 8.9 C 6.75 g/m*3 6.23 C 17.7 km/h
2024 13-01-2015 02:55:00 8.9 C 6.75 g/m*3 5.9 C 20.9 km/h
2025 13-01-2015 03:00:00 8.8 C 6.79 g/m*3 6.5 C 14.5 km/h
Sensor: Nr:Datum:Temp:Abs-Feuchte:Windchill:Wind:
Aussen-T/F 2026 13-01-2015 03:05:00 8.8 C 6.79 g/m*3 6.11 C 17.7 km/h
2027 13-01-2015 03:10:00 8.9 C 6.75 g/m*3 5.9 C 20.9 km/h
2028 13-01-2015 03:15:00 8.8 C 6.79 g/m*3 6.3 C 16.1 km/h
2029 13-01-2015 03:20:00 8.9 C 6.83 g/m*3 6.62 C 14.5 km/h
2030 13-01-2015 03:25:00 8.9 C 6.75 g/m*3 6.85 C 12.9 km/h
2031 13-01-2015 03:30:00 8.9 C 6.83 g/m*3 6.06 C 19.3 km/h
2032 13-01-2015 03:35:00 8.9 C 6.83 g/m*3 6.42 C 16.1 km/h
2033 13-01-2015 03:40:00 8.9 C 6.83 g/m*3 7.37 C 9.7 km/h
2034 13-01-2015 03:45:00 8.9 C 6.83 g/m*3 7.37 C 9.7 km/h
2035 13-01-2015 03:50:00 8.9 C 6.83 g/m*3 7.09 C 11.3 km/h
2036 13-01-2015 03:55:00 8.9 C 6.83 g/m*3 7.69 C 8.1 km/h
2037 13-01-2015 04:00:00 8.9 C 6.75 g/m*3 7.69 C 8.1 km/h
2038 13-01-2015 04:05:00 9.1 C 6.83 g/m*3 7.33 C 11.3 km/h
2039 13-01-2015 04:10:00 9.1 C 6.74 g/m*3 7.09 C 12.9 km/h
2040 13-01-2015 04:15:00 9.1 C 6.74 g/m*3 7.61 C 9.7 km/h
2041 13-01-2015 04:20:00 9.1 C 6.74 g/m*3 7.33 C 11.3 km/h
2042 13-01-2015 04:25:00 9.1 C 6.74 g/m*3 7.33 C 11.3 km/h
2043 13-01-2015 04:30:00 9.2 C 6.7 g/m*3 7.21 C 12.9 km/h
2044 13-01-2015 04:35:00 9.3 C 6.65 g/m*3 7.12 C 14.5 km/h
2045 13-01-2015 04:40:00 9.3 C 6.65 g/m*3 7.58 C 11.3 km/h
2046 13-01-2015 04:45:00 9.3 C 6.65 g/m*3 6.56 C 19.3 km/h
2047 13-01-2015 04:50:00 9.4 C 6.6 g/m*3 7.24 C 14.5 km/h
2048 13-01-2015 04:55:00 9.4 C 6.6 g/m*3 7.46 C 12.9 km/h
2049 13-01-2015 05:00:00 9.4 C 6.6 g/m*3 6.86 C 17.7 km/h
2050 13-01-2015 05:05:00 9.4 C 6.51 g/m*3 7.24 C 14.5 km/h
Sensor: Nr:Datum:Temp:Abs-Feuchte:Windchill:Wind:
Aussen-T/F 2051 13-01-2015 05:10:00 9.4 C 6.51 g/m*3 7.24 C 14.5 km/h
2052 13-01-2015 05:15:00 9.4 C 6.51 g/m*3 7.7 C 11.3 km/h
2053 13-01-2015 05:20:00 9.2 C 6.52 g/m*3 7.46 C 11.3 km/h
2054 13-01-2015 05:25:00 9.1 C 6.57 g/m*3 8.33 C 6.4 km/h
2055 13-01-2015 05:30:00 9 C 6.52 g/m*3 7.21 C 11.3 km/h
2056 13-01-2015 05:35:00 9.1 C 6.48 g/m*3 8.33 C 6.4 km/h
2057 13-01-2015 05:40:00 9.1 C 6.57 g/m*3 7.93 C 8.1 km/h
2058 13-01-2015 05:45:00 9.1 C 6.57 g/m*3 8.33 C 6.4 km/h
2059 13-01-2015 05:50:00 9.1 C 6.65 g/m*3 9.1 C 4.8 km/h
2060 13-01-2015 05:55:00 9 C 6.52 g/m*3 8.21 C 6.4 km/h
2061 13-01-2015 06:00:00 9.1 C 6.48 g/m*3 9.1 C 3.2 km/h
2062 13-01-2015 06:05:00 9.2 C 6.43 g/m*3 7.46 C 11.3 km/h
2063 13-01-2015 06:10:00 9.4 C 6.42 g/m*3 8.68 C 6.4 km/h
2064 13-01-2015 06:15:00 9.3 C 6.47 g/m*3 8.56 C 6.4 km/h
2065 13-01-2015 06:20:00 9.3 C 6.38 g/m*3 8.56 C 6.4 km/h
2066 13-01-2015 06:25:00 9.4 C 6.42 g/m*3 7.7 C 11.3 km/h
2067 13-01-2015 06:30:00 9.4 C 6.51 g/m*3 9.4 C 4.8 km/h
2068 13-01-2015 06:35:00 9.4 C 6.42 g/m*3 8.68 C 6.4 km/h
2069 13-01-2015 06:40:00 9.4 C 6.33 g/m*3 9.4 C 4.8 km/h
2070 13-01-2015 06:45:00 9.3 C 6.29 g/m*3 9.3 C 4.8 km/h
2071 13-01-2015 06:50:00 9.2 C 6.34 g/m*3 9.2 C 3.2 km/h
2072 13-01-2015 06:55:00 9.2 C 6.34 g/m*3 9.2 C 4.8 km/h
2073 13-01-2015 07:00:00 8.9 C 6.39 g/m*3 8.9 C 1.6 km/h
2074 13-01-2015 07:05:00 8.7 C 6.31 g/m*3 8.7 C 4.8 km/h
2075 13-01-2015 07:10:00 8.6 C 6.27 g/m*3 7.75 C 6.4 km/h
Sensor: Nr:Datum:Temp:Abs-Feuchte:Windchill:Wind:
Aussen-T/F 2076 13-01-2015 07:15:00 8.6 C 6.19 g/m*3 8.6 C 4.8 km/h
2077 13-01-2015 07:20:00 8.6 C 6.19 g/m*3 8.6 C 3.2 km/h
2078 13-01-2015 07:25:00 8.4 C 6.45 g/m*3 7.52 C 6.4 km/h
2079 13-01-2015 07:30:00 8.2 C 6.62 g/m*3 8.2 C 3.2 km/h
2080 13-01-2015 07:35:00 8.3 C 6.41 g/m*3 6.66 C 9.7 km/h
2081 13-01-2015 07:40:00 8.7 C 6.4 g/m*3 7.87 C 6.4 km/h
2082 13-01-2015 07:45:00 8.8 C 6.61 g/m*3 8.8 C 3.2 km/h
2083 13-01-2015 07:50:00 8.8 C 6.61 g/m*3 8.8 C 3.2 km/h
2084 13-01-2015 08:05:00 9 C 8.82 g/m*3 7.81 C 8.1 km/h
2085 13-01-2015 08:10:00 9 C 8.82 g/m*3 7.81 C 8.1 km/h
2086 13-01-2015 12:10:00 11.2 C 10.14 g/m*3 11.2 C 20.9 km/h
2087 13-01-2015 12:15:00 11.2 C 6.59 g/m*3 11.2 C 22.5 km/h
2088 13-01-2015 12:20:00 11.3 C 6.63 g/m*3 11.3 C 9.7 km/h
2089 13-01-2015 12:25:00 11.3 C 6.63 g/m*3 11.3 C 14.5 km/h
2090 13-01-2015 12:30:00 11.4 C 6.57 g/m*3 11.4 C 16.1 km/h
2091 13-01-2015 12:35:00 11.3 C 6.63 g/m*3 11.3 C 11.3 km/h
2092 13-01-2015 12:40:00 11.3 C 6.53 g/m*3 11.3 C 17.7 km/h
2093 13-01-2015 12:45:00 11.6 C 6.65 g/m*3 11.6 C 16.1 km/h
2094 13-01-2015 12:50:00 11.7 C 6.59 g/m*3 11.7 C 20.9 km/h
2095 13-01-2015 12:55:00 11.8 C 6.63 g/m*3 11.8 C 19.3 km/h
2096 13-01-2015 13:00:00 11.9 C 6.57 g/m*3 11.9 C 17.7 km/h
2097 13-01-2015 13:05:00 11.9 C 6.67 g/m*3 11.9 C 14.5 km/h
2098 13-01-2015 13:10:00 12.2 C 6.69 g/m*3 12.2 C 20.9 km/h
2099 13-01-2015 13:15:00 12.4 C 6.56 g/m*3 12.4 C 22.5 km/h
2100 13-01-2015 13:20:00 12.6 C 6.53 g/m*3 12.6 C 24.1 km/h
Sensor: Nr:Datum:Temp:Abs-Feuchte:Windchill:Wind:
Aussen-T/F 2101 13-01-2015 13:25:00 12.8 C 6.61 g/m*3 12.8 C 16.1 km/h
2102 13-01-2015 13:30:00 12.9 C 6.65 g/m*3 12.9 C 17.7 km/h
2103 13-01-2015 13:35:00 13.1 C 6.62 g/m*3 13.1 C 14.5 km/h
2104 13-01-2015 13:40:00 13.2 C 6.66 g/m*3 13.2 C 14.5 km/h
2105 13-01-2015 13:45:00 13.2 C 6.66 g/m*3 13.2 C 20.9 km/h
2106 13-01-2015 13:50:00 13.2 C 6.54 g/m*3 13.2 C 19.3 km/h
2107 13-01-2015 13:55:00 13.3 C 6.59 g/m*3 13.3 C 25.7 km/h
2108 13-01-2015 14:00:00 13.3 C 6.47 g/m*3 13.3 C 17.7 km/h
2109 13-01-2015 14:05:00 13.3 C 6.59 g/m*3 13.3 C 27.4 km/h
2110 13-01-2015 14:10:00 13.4 C 6.51 g/m*3 13.4 C 25.7 km/h
2111 13-01-2015 14:15:00 13.3 C 6.47 g/m*3 13.3 C 25.7 km/h
2112 13-01-2015 14:20:00 13.4 C 6.51 g/m*3 13.4 C 20.9 km/h
2113 13-01-2015 14:25:00 13.6 C 6.71 g/m*3 13.6 C 20.9 km/h
2114 13-01-2015 14:30:00 13.6 C 6.59 g/m*3 13.6 C 22.5 km/h
2115 13-01-2015 14:35:00 13.6 C 6.59 g/m*3 13.6 C 24.1 km/h
2116 13-01-2015 14:40:00 13.6 C 6.59 g/m*3 13.6 C 17.7 km/h
2117 13-01-2015 14:45:00 13.6 C 6.59 g/m*3 13.6 C 14.5 km/h
2118 13-01-2015 14:50:00 13.5 C 6.55 g/m*3 13.5 C 24.1 km/h
2119 13-01-2015 14:55:00 13.5 C 6.55 g/m*3 13.5 C 20.9 km/h
2120 13-01-2015 15:00:00 13.4 C 6.63 g/m*3 13.4 C 24.1 km/h
2121 13-01-2015 15:05:00 13.4 C 6.63 g/m*3 13.4 C 19.3 km/h
2122 13-01-2015 15:10:00 13.5 C 6.78 g/m*3 13.5 C 16.1 km/h
2123 13-01-2015 15:15:00 13.5 C 6.78 g/m*3 13.5 C 14.5 km/h
2124 13-01-2015 15:20:00 13.4 C 6.74 g/m*3 13.4 C 25.7 km/h
2125 13-01-2015 15:25:00 13.4 C 6.74 g/m*3 13.4 C 14.5 km/h
Sensor: Nr:Datum:Temp:Abs-Feuchte:Windchill:Wind:
Aussen-T/F 2126 13-01-2015 15:30:00 13.4 C 6.74 g/m*3 13.4 C 11.3 km/h
2127 13-01-2015 15:35:00 13.1 C 6.62 g/m*3 13.1 C 16.1 km/h
2128 13-01-2015 15:40:00 13.1 C 6.62 g/m*3 13.1 C 12.9 km/h
2129 13-01-2015 16:10:00 11.9 C 7.84 g/m*3 11.9 C 19.3 km/h
2130 13-01-2015 16:15:00 11.9 C 7.84 g/m*3 11.9 C 17.7 km/h
2131 13-01-2015 16:20:00 11.9 C 7.94 g/m*3 11.9 C 20.9 km/h
2132 13-01-2015 16:25:00 11.8 C 8 g/m*3 11.8 C 11.3 km/h
2133 13-01-2015 16:30:00 11.7 C 7.95 g/m*3 11.7 C 22.5 km/h
2134 13-01-2015 16:35:00 11.7 C 8.05 g/m*3 11.7 C 16.1 km/h
2135 13-01-2015 16:40:00 11.7 C 8.05 g/m*3 11.7 C 32.2 km/h
2136 13-01-2015 16:45:00 11.7 C 8.05 g/m*3 11.7 C 19.3 km/h
2137 13-01-2015 16:50:00 11.6 C 8.11 g/m*3 11.6 C 19.3 km/h
2138 13-01-2015 16:55:00 11.5 C 8.06 g/m*3 11.5 C 22.5 km/h
2139 13-01-2015 17:00:00 11.4 C 8.11 g/m*3 11.4 C 11.3 km/h
2140 13-01-2015 17:05:00 11.4 C 8.21 g/m*3 11.4 C 17.7 km/h
2141 13-01-2015 17:10:00 11.3 C 8.16 g/m*3 11.3 C 14.5 km/h
2142 13-01-2015 17:15:00 11.3 C 8.26 g/m*3 11.3 C 19.3 km/h
2143 13-01-2015 17:20:00 11.2 C 8.21 g/m*3 11.2 C 14.5 km/h
2144 13-01-2015 17:25:00 11.2 C 8.21 g/m*3 11.2 C 32.2 km/h
2145 13-01-2015 17:30:00 11.1 C 8.16 g/m*3 11.1 C 17.7 km/h
2146 13-01-2015 17:35:00 11.1 C 8.16 g/m*3 11.1 C 17.7 km/h
2147 13-01-2015 17:40:00 11.1 C 8.16 g/m*3 11.1 C 22.5 km/h
2148 13-01-2015 17:45:00 11.1 C 8.26 g/m*3 11.1 C 11.3 km/h
2149 13-01-2015 17:50:00 11 C 8.21 g/m*3 9.02 C 16.1 km/h
2150 13-01-2015 17:55:00 10.9 C 8.26 g/m*3 8.73 C 17.7 km/h
Sensor: Nr:Datum:Temp:Abs-Feuchte:Windchill:Wind:
Aussen-T/F 2151 13-01-2015 18:00:00 10.8 C 8.2 g/m*3 8.61 C 17.7 km/h
2152 13-01-2015 18:05:00 10.8 C 8.2 g/m*3 8.61 C 17.7 km/h
2153 13-01-2015 18:10:00 10.8 C 8.2 g/m*3 8.78 C 16.1 km/h
2154 13-01-2015 18:15:00 10.8 C 8.2 g/m*3 8.3 C 20.9 km/h
2155 13-01-2015 18:20:00 10.8 C 8.11 g/m*3 8.3 C 20.9 km/h
2156 13-01-2015 18:25:00 10.8 C 8.2 g/m*3 8.45 C 19.3 km/h
2157 13-01-2015 18:30:00 10.8 C 8.11 g/m*3 8.3 C 20.9 km/h
2158 13-01-2015 18:35:00 10.8 C 8.11 g/m*3 8.04 C 24.1 km/h
2159 13-01-2015 18:40:00 10.8 C 8.11 g/m*3 7.68 C 29 km/h
2160 13-01-2015 18:45:00 10.7 C 8.15 g/m*3 8.18 C 20.9 km/h
2161 13-01-2015 18:50:00 10.6 C 8.1 g/m*3 7.66 C 25.7 km/h
2162 13-01-2015 18:55:00 10.4 C 8.19 g/m*3 7.16 C 29 km/h
2163 13-01-2015 19:00:00 10.3 C 8.14 g/m*3 7.98 C 17.7 km/h
2164 13-01-2015 19:05:00 10.2 C 8.09 g/m*3 7.4 C 22.5 km/h
2165 13-01-2015 19:10:00 10.2 C 8.09 g/m*3 7.02 C 27.4 km/h
2166 13-01-2015 19:15:00 10.2 C 8.09 g/m*3 7.4 C 22.5 km/h
2167 13-01-2015 19:20:00 10.1 C 8.04 g/m*3 7.42 C 20.9 km/h
2168 13-01-2015 19:25:00 10.1 C 8.04 g/m*3 7.42 C 20.9 km/h
2169 13-01-2015 19:30:00 10.2 C 7.99 g/m*3 7.02 C 27.4 km/h
2170 13-01-2015 19:35:00 10.1 C 8.04 g/m*3 7.91 C 16.1 km/h
2171 13-01-2015 19:40:00 10.1 C 8.04 g/m*3 7.91 C 16.1 km/h
2172 13-01-2015 19:45:00 10.1 C 8.04 g/m*3 8.1 C 14.5 km/h
2173 13-01-2015 19:50:00 10.1 C 8.04 g/m*3 7.91 C 16.1 km/h
2174 13-01-2015 19:55:00 9.9 C 8.03 g/m*3 7.16 C 20.9 km/h
2175 13-01-2015 20:00:00 9.9 C 8.03 g/m*3 7.32 C 19.3 km/h
Sensor: Nr:Datum:Temp:Abs-Feuchte:Windchill:Wind:
Aussen-T/F 2176 13-01-2015 20:05:00 9.9 C 8.03 g/m*3 7.48 C 17.7 km/h
2177 13-01-2015 20:10:00 9.8 C 7.98 g/m*3 7.73 C 14.5 km/h
2178 13-01-2015 20:15:00 9.6 C 8.06 g/m*3 6.94 C 19.3 km/h
2179 13-01-2015 20:20:00 9.6 C 8.06 g/m*3 7.94 C 11.3 km/h
2180 13-01-2015 20:25:00 9.5 C 8.01 g/m*3 8.4 C 8.1 km/h
2181 13-01-2015 20:30:00 9.5 C 8.01 g/m*3 7.82 C 11.3 km/h
2182 13-01-2015 21:40:00 8.9 C 7.36 g/m*3 8.1 C 6.4 km/h
2183 13-01-2015 21:45:00 8.9 C 7.36 g/m*3 7.09 C 11.3 km/h
2184 13-01-2015 21:50:00 8.7 C 7.26 g/m*3 8.7 C 4.8 km/h
2185 13-01-2015 21:55:00 8.6 C 7.3 g/m*3 7.01 C 9.7 km/h
2186 13-01-2015 22:00:00 8.7 C 7.35 g/m*3 8.7 C 4.8 km/h
2187 13-01-2015 22:05:00 8.7 C 7.35 g/m*3 7.13 C 9.7 km/h
2188 13-01-2015 22:10:00 8.8 C 7.4 g/m*3 7.25 C 9.7 km/h
2189 13-01-2015 22:15:00 8.8 C 7.31 g/m*3 7.58 C 8.1 km/h
2190 13-01-2015 22:20:00 8.8 C 7.31 g/m*3 7.25 C 9.7 km/h
2191 13-01-2015 22:25:00 8.8 C 7.31 g/m*3 6.97 C 11.3 km/h
2192 13-01-2015 22:30:00 8.9 C 7.36 g/m*3 7.09 C 11.3 km/h
2193 13-01-2015 22:35:00 8.8 C 7.31 g/m*3 6.97 C 11.3 km/h
2194 13-01-2015 22:40:00 8.8 C 7.31 g/m*3 7.58 C 8.1 km/h
2195 13-01-2015 22:45:00 8.8 C 7.31 g/m*3 8.8 C 4.8 km/h
2196 13-01-2015 22:50:00 8.7 C 7.35 g/m*3 7.87 C 6.4 km/h
2197 13-01-2015 22:55:00 8.5 C 7.34 g/m*3 8.5 C 4.8 km/h
2198 13-01-2015 23:00:00 8.4 C 7.3 g/m*3 8.4 C 4.8 km/h
2199 13-01-2015 23:05:00 8.3 C 7.25 g/m*3 8.3 C 3.2 km/h
2200 13-01-2015 23:10:00 8.3 C 7.25 g/m*3 8.3 C 4.8 km/h
Sensor: Nr:Datum:Temp:Abs-Feuchte:Windchill:Wind:
Aussen-T/F 2201 13-01-2015 23:15:00 8.3 C 7.25 g/m*3 6.37 C 11.3 km/h
2202 13-01-2015 23:20:00 8.3 C 7.25 g/m*3 6.66 C 9.7 km/h
2203 13-01-2015 23:25:00 8.3 C 7.25 g/m*3 7.41 C 6.4 km/h
2204 13-01-2015 23:30:00 8.4 C 7.3 g/m*3 8.4 C 4.8 km/h
2205 13-01-2015 23:35:00 8.4 C 7.3 g/m*3 7.52 C 6.4 km/h
2206 13-01-2015 23:40:00 8.5 C 7.34 g/m*3 8.5 C 4.8 km/h
2207 13-01-2015 23:45:00 8.4 C 7.3 g/m*3 8.4 C 4.8 km/h
2208 13-01-2015 23:50:00 8.4 C 7.3 g/m*3 6.78 C 9.7 km/h
2209 13-01-2015 23:55:00 8.4 C 7.3 g/m*3 8.4 C 4.8 km/h
2210 14-01-2015 00:00:00 8.4 C 7.3 g/m*3 7.52 C 6.4 km/h
2211 14-01-2015 00:05:00 8.3 C 7.25 g/m*3 8.3 C 3.2 km/h
2212 14-01-2015 00:10:00 8.3 C 7.33 g/m*3 8.3 C 4.8 km/h
2213 14-01-2015 00:15:00 8.3 C 7.33 g/m*3 7.41 C 6.4 km/h
2214 14-01-2015 00:20:00 8.4 C 7.3 g/m*3 8.4 C 4.8 km/h
2215 14-01-2015 00:25:00 8.5 C 7.34 g/m*3 7.64 C 6.4 km/h
2216 14-01-2015 00:30:00 8.5 C 7.34 g/m*3 7.22 C 8.1 km/h
2217 14-01-2015 00:35:00 8.6 C 7.39 g/m*3 6.73 C 11.3 km/h
2218 14-01-2015 00:40:00 8.6 C 7.39 g/m*3 6.73 C 11.3 km/h
2219 14-01-2015 00:45:00 8.6 C 7.39 g/m*3 7.75 C 6.4 km/h
2220 14-01-2015 00:50:00 8.6 C 7.39 g/m*3 8.6 C 4.8 km/h
2221 14-01-2015 00:55:00 8.4 C 7.3 g/m*3 7.52 C 6.4 km/h
2222 14-01-2015 01:00:00 8.4 C 7.3 g/m*3 8.4 C 4.8 km/h
2223 14-01-2015 01:05:00 8.4 C 7.3 g/m*3 8.4 C 3.2 km/h
2224 14-01-2015 01:10:00 8.3 C 7.33 g/m*3 8.3 C 4.8 km/h
2225 14-01-2015 01:15:00 8.2 C 7.29 g/m*3 8.2 C 3.2 km/h
Sensor: Nr:Datum:Temp:Abs-Feuchte:Windchill:Wind:
Aussen-T/F 2226 14-01-2015 01:20:00 8.2 C 7.37 g/m*3 8.2 C 4.8 km/h
2227 14-01-2015 01:25:00 8.1 C 7.32 g/m*3 8.1 C 1.6 km/h
2228 14-01-2015 01:30:00 8 C 7.36 g/m*3 8 C 1.6 km/h
2229 14-01-2015 01:35:00 7.9 C 7.31 g/m*3 7.9 C 1.6 km/h
2230 14-01-2015 01:40:00 8 C 7.36 g/m*3 7.06 C 6.4 km/h
2231 14-01-2015 01:45:00 8.1 C 7.32 g/m*3 7.17 C 6.4 km/h
2232 14-01-2015 01:50:00 8.3 C 7.33 g/m*3 6.66 C 9.7 km/h
2233 14-01-2015 01:55:00 8.3 C 7.25 g/m*3 6.99 C 8.1 km/h
2234 14-01-2015 02:00:00 8.3 C 7.25 g/m*3 6.66 C 9.7 km/h
2235 14-01-2015 02:05:00 8.2 C 7.2 g/m*3 7.29 C 6.4 km/h
2236 14-01-2015 02:10:00 8.2 C 7.2 g/m*3 6.87 C 8.1 km/h
2237 14-01-2015 02:15:00 8.2 C 7.2 g/m*3 7.29 C 6.4 km/h
2238 14-01-2015 02:20:00 8.1 C 7.16 g/m*3 7.17 C 6.4 km/h
2239 14-01-2015 02:25:00 8.2 C 7.2 g/m*3 8.2 C 3.2 km/h
2240 14-01-2015 02:30:00 8.2 C 7.2 g/m*3 8.2 C 3.2 km/h
2241 14-01-2015 02:35:00 8 C 7.11 g/m*3 7.06 C 6.4 km/h
2242 14-01-2015 02:40:00 8.1 C 7.16 g/m*3 5.87 C 12.9 km/h
2243 14-01-2015 02:45:00 8.3 C 7.08 g/m*3 5.68 C 16.1 km/h
2244 14-01-2015 02:50:00 8.5 C 7 g/m*3 5.09 C 24.1 km/h
2245 14-01-2015 02:55:00 8.6 C 6.96 g/m*3 5.37 C 22.5 km/h
2246 14-01-2015 03:00:00 8.6 C 6.87 g/m*3 6.73 C 11.3 km/h
2247 14-01-2015 03:05:00 8.6 C 6.79 g/m*3 5.37 C 22.5 km/h
2248 14-01-2015 03:10:00 8.7 C 6.83 g/m*3 6.17 C 16.1 km/h
2249 14-01-2015 03:15:00 8.7 C 6.83 g/m*3 7.13 C 9.7 km/h
2250 14-01-2015 03:20:00 8.7 C 6.83 g/m*3 5.98 C 17.7 km/h
Sensor: Nr:Datum:Temp:Abs-Feuchte:Windchill:Wind:
Aussen-T/F 2251 14-01-2015 03:25:00 8.7 C 6.75 g/m*3 5.49 C 22.5 km/h
2252 14-01-2015 03:30:00 8.7 C 6.75 g/m*3 6.17 C 16.1 km/h
2253 14-01-2015 03:35:00 8.7 C 6.83 g/m*3 6.17 C 16.1 km/h
2254 14-01-2015 03:40:00 8.8 C 6.79 g/m*3 5.48 C 24.1 km/h
2255 14-01-2015 03:45:00 8.7 C 6.75 g/m*3 6.6 C 12.9 km/h
2256 14-01-2015 03:50:00 8.7 C 6.66 g/m*3 5.35 C 24.1 km/h
2257 14-01-2015 03:55:00 8.8 C 6.61 g/m*3 4.75 C 33.8 km/h
2258 14-01-2015 04:00:00 8.8 C 6.53 g/m*3 4.97 C 30.6 km/h
2259 14-01-2015 04:05:00 8.8 C 6.53 g/m*3 5.77 C 20.9 km/h
2260 14-01-2015 04:10:00 8.8 C 6.53 g/m*3 5.62 C 22.5 km/h
2261 14-01-2015 04:15:00 8.8 C 6.53 g/m*3 5.62 C 22.5 km/h
2262 14-01-2015 04:20:00 8.8 C 6.44 g/m*3 5.62 C 22.5 km/h
2263 14-01-2015 04:25:00 8.7 C 6.49 g/m*3 5.81 C 19.3 km/h
2264 14-01-2015 04:30:00 8.7 C 6.49 g/m*3 5.81 C 19.3 km/h
2265 14-01-2015 04:35:00 8.8 C 6.61 g/m*3 4.45 C 38.6 km/h
2266 14-01-2015 04:40:00 8.6 C 6.79 g/m*3 5.52 C 20.9 km/h
2267 14-01-2015 04:45:00 8.4 C 6.7 g/m*3 6.24 C 12.9 km/h
2268 14-01-2015 04:50:00 8.4 C 6.87 g/m*3 6.24 C 12.9 km/h
2269 14-01-2015 04:55:00 7.8 C 6.94 g/m*3 4.51 C 20.9 km/h
2270 14-01-2015 05:00:00 7.4 C 6.92 g/m*3 3.68 C 24.1 km/h
2271 14-01-2015 05:05:00 7 C 6.66 g/m*3 3.17 C 24.1 km/h
2272 14-01-2015 05:10:00 6.7 C 6.46 g/m*3 3.29 C 19.3 km/h
2273 14-01-2015 05:15:00 6.6 C 6.34 g/m*3 2.36 C 27.4 km/h
2274 14-01-2015 05:20:00 6.3 C 6.22 g/m*3 3.68 C 12.9 km/h
2275 14-01-2015 05:25:00 6.2 C 6.25 g/m*3 3.84 C 11.3 km/h
Sensor: Nr:Datum:Temp:Abs-Feuchte:Windchill:Wind:
Aussen-T/F 2276 14-01-2015 05:30:00 6.1 C 6.28 g/m*3 4.04 C 9.7 km/h
2277 14-01-2015 05:35:00 6.1 C 6.28 g/m*3 4.04 C 9.7 km/h
2278 14-01-2015 05:40:00 5.9 C 6.06 g/m*3 2.1 C 20.9 km/h
2279 14-01-2015 05:45:00 5.9 C 6.06 g/m*3 3.8 C 9.7 km/h
2280 14-01-2015 05:50:00 5.9 C 6.06 g/m*3 3.48 C 11.3 km/h
2281 14-01-2015 05:55:00 5.8 C 6.09 g/m*3 4.05 C 8.1 km/h
2282 14-01-2015 06:00:00 5.6 C 6.08 g/m*3 4.29 C 6.4 km/h
2283 14-01-2015 06:05:00 5.4 C 6 g/m*3 3.58 C 8.1 km/h
2284 14-01-2015 06:10:00 5.4 C 6 g/m*3 4.06 C 6.4 km/h
2285 14-01-2015 06:15:00 5.3 C 6.03 g/m*3 3.46 C 8.1 km/h
2286 14-01-2015 06:20:00 5.3 C 5.96 g/m*3 3.46 C 8.1 km/h
2287 14-01-2015 06:25:00 5.3 C 5.96 g/m*3 2.46 C 12.9 km/h
2288 14-01-2015 06:30:00 5.3 C 5.89 g/m*3 2.75 C 11.3 km/h
2289 14-01-2015 06:35:00 5.3 C 5.89 g/m*3 5.3 C 3.2 km/h
2290 14-01-2015 06:40:00 5.3 C 5.89 g/m*3 5.3 C 4.8 km/h
2291 14-01-2015 06:45:00 5.2 C 5.85 g/m*3 2.96 C 9.7 km/h
2292 14-01-2015 06:50:00 5.2 C 5.85 g/m*3 2.96 C 9.7 km/h
2293 14-01-2015 06:55:00 5.3 C 5.82 g/m*3 2.46 C 12.9 km/h
2294 14-01-2015 07:00:00 5.3 C 5.75 g/m*3 3.94 C 6.4 km/h
2295 14-01-2015 07:05:00 5.3 C 5.75 g/m*3 3.08 C 9.7 km/h
2296 14-01-2015 07:10:00 5.4 C 5.79 g/m*3 2.58 C 12.9 km/h
2297 14-01-2015 07:15:00 5.4 C 5.79 g/m*3 2.58 C 12.9 km/h
2298 14-01-2015 07:20:00 5.6 C 5.73 g/m*3 2.83 C 12.9 km/h
2299 14-01-2015 07:25:00 5.6 C 5.73 g/m*3 3.81 C 8.1 km/h
2300 14-01-2015 07:30:00 5.6 C 5.73 g/m*3 4.29 C 6.4 km/h
Sensor: Nr:Datum:Temp:Abs-Feuchte:Windchill:Wind:
Aussen-T/F 2301 14-01-2015 07:35:00 5.2 C 5.71 g/m*3 3.82 C 6.4 km/h
2302 14-01-2015 07:40:00 5.2 C 5.71 g/m*3 5.2 C 4.8 km/h
2303 14-01-2015 07:45:00 5.2 C 5.78 g/m*3 2.96 C 9.7 km/h
2304 14-01-2015 07:50:00 5.1 C 5.68 g/m*3 3.71 C 6.4 km/h
2305 14-01-2015 07:55:00 5.1 C 5.75 g/m*3 3.71 C 6.4 km/h
2306 14-01-2015 08:00:00 5 C 5.71 g/m*3 2.72 C 9.7 km/h
2307 14-01-2015 08:05:00 4.9 C 5.67 g/m*3 2.99 C 8.1 km/h
2308 14-01-2015 08:10:00 5.1 C 5.68 g/m*3 2.51 C 11.3 km/h
2309 14-01-2015 08:15:00 5.2 C 5.65 g/m*3 2.63 C 11.3 km/h
2310 14-01-2015 08:20:00 5.2 C 5.65 g/m*3 2.96 C 9.7 km/h
2311 14-01-2015 08:25:00 5.1 C 5.61 g/m*3 5.1 C 4.8 km/h
2312 14-01-2015 08:30:00 5.1 C 5.61 g/m*3 1.71 C 16.1 km/h
2313 14-01-2015 08:35:00 5.1 C 5.68 g/m*3 5.1 C 4.8 km/h
2314 14-01-2015 08:40:00 5 C 5.57 g/m*3 3.11 C 8.1 km/h
2315 14-01-2015 08:45:00 5.1 C 5.61 g/m*3 3.23 C 8.1 km/h
2316 14-01-2015 08:50:00 5.1 C 5.61 g/m*3 2.84 C 9.7 km/h
2317 14-01-2015 08:55:00 5.1 C 5.61 g/m*3 3.71 C 6.4 km/h
2318 14-01-2015 09:00:00 5 C 5.57 g/m*3 3.59 C 6.4 km/h
2319 14-01-2015 09:05:00 5 C 5.64 g/m*3 3.59 C 6.4 km/h
2320 14-01-2015 09:10:00 5 C 5.64 g/m*3 5 C 4.8 km/h
2321 14-01-2015 09:15:00 5.1 C 5.68 g/m*3 2.84 C 9.7 km/h
2322 14-01-2015 09:20:00 5.2 C 5.71 g/m*3 5.2 C 4.8 km/h
2323 14-01-2015 09:25:00 5.3 C 5.75 g/m*3 3.08 C 9.7 km/h
2324 14-01-2015 09:30:00 5.4 C 5.72 g/m*3 2.32 C 14.5 km/h
2325 14-01-2015 09:35:00 5.4 C 5.72 g/m*3 2.08 C 16.1 km/h
Sensor: Nr:Datum:Temp:Abs-Feuchte:Windchill:Wind:
Aussen-T/F 2326 14-01-2015 09:40:00 5.5 C 5.76 g/m*3 3.32 C 9.7 km/h
2327 14-01-2015 09:45:00 5.5 C 5.69 g/m*3 2.7 C 12.9 km/h
2328 14-01-2015 09:50:00 5.5 C 5.69 g/m*3 1.99 C 17.7 km/h
2329 14-01-2015 09:55:00 5.5 C 5.69 g/m*3 1.78 C 19.3 km/h
2330 14-01-2015 10:00:00 5.8 C 5.73 g/m*3 2.16 C 19.3 km/h
2331 14-01-2015 10:05:00 5.9 C 5.77 g/m*3 2.93 C 14.5 km/h
2332 14-01-2015 10:10:00 5.9 C 5.77 g/m*3 3.19 C 12.9 km/h
2333 14-01-2015 10:15:00 6 C 5.81 g/m*3 2.82 C 16.1 km/h
2334 14-01-2015 10:20:00 6.1 C 5.84 g/m*3 3.18 C 14.5 km/h
2335 14-01-2015 10:25:00 6.1 C 5.92 g/m*3 3.72 C 11.3 km/h
2336 14-01-2015 10:30:00 6.2 C 5.88 g/m*3 2.66 C 19.3 km/h
2337 14-01-2015 10:35:00 6.3 C 5.92 g/m*3 2.98 C 17.7 km/h
2338 14-01-2015 10:40:00 6.3 C 5.85 g/m*3 4.27 C 9.7 km/h
2339 14-01-2015 10:45:00 6.5 C 5.85 g/m*3 2.69 C 22.5 km/h
2340 14-01-2015 10:50:00 6.6 C 5.89 g/m*3 3.57 C 16.1 km/h
2341 14-01-2015 10:55:00 6.6 C 5.96 g/m*3 4.04 C 12.9 km/h
2342 14-01-2015 11:00:00 6.6 C 5.96 g/m*3 4.04 C 12.9 km/h
2343 14-01-2015 11:05:00 6.7 C 5.93 g/m*3 2.22 C 30.6 km/h
2344 14-01-2015 11:10:00 6.8 C 5.97 g/m*3 3.24 C 20.9 km/h
2345 14-01-2015 11:15:00 6.9 C 6 g/m*3 3.94 C 16.1 km/h
2346 14-01-2015 11:20:00 6.9 C 5.93 g/m*3 3.37 C 20.9 km/h
2347 14-01-2015 11:25:00 6.9 C 5.85 g/m*3 3.04 C 24.1 km/h
2348 14-01-2015 11:30:00 6.8 C 5.97 g/m*3 2.76 C 25.7 km/h
2349 14-01-2015 11:35:00 6.6 C 6.19 g/m*3 2.82 C 22.5 km/h
2350 14-01-2015 11:40:00 6.4 C 6.11 g/m*3 3.55 C 14.5 km/h
Sensor: Nr:Datum:Temp:Abs-Feuchte:Windchill:Wind:
Aussen-T/F 2351 14-01-2015 11:45:00 6.4 C 6.18 g/m*3 3.8 C 12.9 km/h
2352 14-01-2015 11:50:00 6.5 C 6.15 g/m*3 3.92 C 12.9 km/h
2353 14-01-2015 11:55:00 6.6 C 6.19 g/m*3 3.79 C 14.5 km/h
2354 14-01-2015 12:00:00 6.8 C 6.12 g/m*3 3.61 C 17.7 km/h
2355 14-01-2015 12:05:00 6.8 C 6.12 g/m*3 2.91 C 24.1 km/h
2356 14-01-2015 12:10:00 7 C 6.12 g/m*3 2.87 C 27.4 km/h
2357 14-01-2015 12:15:00 7 C 6.12 g/m*3 3.02 C 25.7 km/h
2358 14-01-2015 12:20:00 6.9 C 6 g/m*3 3.54 C 19.3 km/h
2359 14-01-2015 12:25:00 6.8 C 5.97 g/m*3 2.76 C 25.7 km/h
2360 14-01-2015 12:30:00 6.4 C 6.04 g/m*3 2.25 C 25.7 km/h
2361 14-01-2015 12:35:00 6 C 6.02 g/m*3 2.05 C 22.5 km/h
2362 14-01-2015 12:40:00 5.6 C 6.08 g/m*3 3.11 C 11.3 km/h
2363 14-01-2015 12:45:00 5.3 C 6.03 g/m*3 1.74 C 17.7 km/h
2364 14-01-2015 12:50:00 5.2 C 5.99 g/m*3 2.34 C 12.9 km/h
2365 14-01-2015 12:55:00 5.1 C 6.16 g/m*3 1.95 C 14.5 km/h
2366 14-01-2015 13:00:00 5.1 C 6.16 g/m*3 1.95 C 14.5 km/h
2367 14-01-2015 13:05:00 5 C 6.12 g/m*3 1.15 C 19.3 km/h
2368 14-01-2015 13:10:00 4.9 C 6.14 g/m*3 2.27 C 11.3 km/h
2369 14-01-2015 13:15:00 4.8 C 6.1 g/m*3 1.58 C 14.5 km/h
2370 14-01-2015 13:20:00 4.8 C 6.1 g/m*3 1.34 C 16.1 km/h
2371 14-01-2015 13:25:00 4.9 C 6.14 g/m*3 2.27 C 11.3 km/h
2372 14-01-2015 13:30:00 5.1 C 6.16 g/m*3 2.51 C 11.3 km/h
2373 14-01-2015 13:35:00 5.2 C 6.2 g/m*3 2.96 C 9.7 km/h
2374 14-01-2015 13:40:00 5.3 C 6.24 g/m*3 2.46 C 12.9 km/h
2375 14-01-2015 13:45:00 5.3 C 6.17 g/m*3 1.96 C 16.1 km/h
Sensor: Nr:Datum:Temp:Abs-Feuchte:Windchill:Wind:
Aussen-T/F 2376 14-01-2015 13:50:00 5.3 C 6.17 g/m*3 2.75 C 11.3 km/h
2377 14-01-2015 13:55:00 5.4 C 6.21 g/m*3 3.2 C 9.7 km/h
2378 14-01-2015 14:00:00 5.5 C 6.25 g/m*3 1.78 C 19.3 km/h
2379 14-01-2015 14:05:00 5.6 C 6.22 g/m*3 2.33 C 16.1 km/h
2380 14-01-2015 14:10:00 5.7 C 6.19 g/m*3 2.24 C 17.7 km/h
2381 14-01-2015 14:15:00 5.7 C 6.19 g/m*3 2.95 C 12.9 km/h
2382 14-01-2015 14:20:00 5.8 C 6.23 g/m*3 2.36 C 17.7 km/h
2383 14-01-2015 14:25:00 5.8 C 6.23 g/m*3 2.58 C 16.1 km/h
2384 14-01-2015 14:30:00 5.9 C 6.27 g/m*3 3.48 C 11.3 km/h
2385 14-01-2015 14:35:00 6 C 6.31 g/m*3 3.06 C 14.5 km/h
2386 14-01-2015 14:40:00 6 C 6.31 g/m*3 1.73 C 25.7 km/h
2387 14-01-2015 14:45:00 5.9 C 6.27 g/m*3 2.48 C 17.7 km/h
2388 14-01-2015 14:50:00 5.9 C 6.27 g/m*3 2.93 C 14.5 km/h
2389 14-01-2015 14:55:00 5.7 C 6.19 g/m*3 1.67 C 22.5 km/h
2390 14-01-2015 15:00:00 4.7 C 5.8 g/m*3 1.21 C 16.1 km/h
2391 14-01-2015 15:05:00 4.2 C 5.67 g/m*3 0.59 C 16.1 km/h
2392 14-01-2015 15:10:00 4.2 C 5.67 g/m*3 0.36 C 17.7 km/h
2393 14-01-2015 15:15:00 4.2 C 5.67 g/m*3 0.84 C 14.5 km/h
2394 14-01-2015 15:20:00 4.2 C 5.73 g/m*3 0.84 C 14.5 km/h
2395 14-01-2015 15:25:00 4.3 C 5.77 g/m*3 0.72 C 16.1 km/h
2396 14-01-2015 15:30:00 4.3 C 5.71 g/m*3 0.72 C 16.1 km/h
2397 14-01-2015 15:35:00 4.4 C 5.75 g/m*3 1.67 C 11.3 km/h
2398 14-01-2015 15:40:00 4.6 C 5.76 g/m*3 -0.07 C 25.7 km/h
2399 14-01-2015 15:45:00 4.7 C 5.8 g/m*3 1.21 C 16.1 km/h
2400 14-01-2015 15:50:00 4.7 C 5.8 g/m*3 1.73 C 12.9 km/h
Sensor: Nr:Datum:Temp:Abs-Feuchte:Windchill:Wind:
Aussen-T/F 2401 14-01-2015 15:55:00 4.7 C 5.8 g/m*3 1.21 C 16.1 km/h
2402 14-01-2015 16:00:00 4.7 C 5.8 g/m*3 2.03 C 11.3 km/h
2403 14-01-2015 16:05:00 4.8 C 5.9 g/m*3 0.71 C 20.9 km/h
2404 14-01-2015 16:10:00 4.8 C 5.9 g/m*3 1.34 C 16.1 km/h
2405 14-01-2015 16:15:00 4.8 C 5.83 g/m*3 2.15 C 11.3 km/h
2406 14-01-2015 16:20:00 4.8 C 5.83 g/m*3 2.15 C 11.3 km/h
2407 14-01-2015 16:25:00 4.8 C 5.77 g/m*3 2.49 C 9.7 km/h
2408 14-01-2015 16:30:00 4.8 C 5.77 g/m*3 1.85 C 12.9 km/h
2409 14-01-2015 16:35:00 4.8 C 5.63 g/m*3 1.11 C 17.7 km/h
2410 14-01-2015 16:40:00 4.8 C 5.7 g/m*3 2.15 C 11.3 km/h
2411 14-01-2015 16:45:00 4.8 C 5.7 g/m*3 1.85 C 12.9 km/h
2412 14-01-2015 16:50:00 4.7 C 5.66 g/m*3 2.76 C 8.1 km/h
2413 14-01-2015 16:55:00 4.6 C 5.62 g/m*3 2.64 C 8.1 km/h
2414 14-01-2015 17:00:00 4.4 C 5.55 g/m*3 2.9 C 6.4 km/h
2415 14-01-2015 17:05:00 4.2 C 5.61 g/m*3 4.2 C 4.8 km/h
2416 14-01-2015 17:10:00 4.1 C 5.57 g/m*3 4.1 C 3.2 km/h
2417 14-01-2015 17:15:00 4.1 C 5.57 g/m*3 4.1 C 3.2 km/h
2418 14-01-2015 17:35:00 3.9 C 6.32 g/m*3 3.9 C 3.2 km/h
2419 14-01-2015 17:40:00 3.8 C 5.52 g/m*3 3.8 C 4.8 km/h
2420 14-01-2015 17:45:00 3.7 C 5.48 g/m*3 3.7 C 4.8 km/h
2421 14-01-2015 17:50:00 3.7 C 5.48 g/m*3 3.7 C 3.2 km/h
2422 14-01-2015 17:55:00 3.6 C 5.57 g/m*3 3.6 C 3.2 km/h
2423 14-01-2015 18:00:00 3.5 C 5.53 g/m*3 0.94 C 9.7 km/h
2424 14-01-2015 18:05:00 3.6 C 5.45 g/m*3 -0.15 C 16.1 km/h
2425 14-01-2015 18:10:00 3.7 C 5.48 g/m*3 3.7 C 4.8 km/h
Sensor: Nr:Datum:Temp:Abs-Feuchte:Windchill:Wind:
Aussen-T/F 2426 14-01-2015 18:15:00 3.7 C 5.48 g/m*3 3.7 C 3.2 km/h
2427 14-01-2015 18:50:00 3.2 C 5.42 g/m*3 1.51 C 6.4 km/h
2428 14-01-2015 18:55:00 3.2 C 5.42 g/m*3 3.2 C 3.2 km/h
2429 14-01-2015 19:00:00 3.5 C 5.41 g/m*3 1.34 C 8.1 km/h
2430 14-01-2015 19:05:00 3.5 C 5.41 g/m*3 3.5 C 3.2 km/h
2431 14-01-2015 19:10:00 3.5 C 5.41 g/m*3 -0.73 C 19.3 km/h
2432 14-01-2015 19:15:00 3.5 C 5.41 g/m*3 0.94 C 9.7 km/h
2433 14-01-2015 19:20:00 3.8 C 5.52 g/m*3 1.29 C 9.7 km/h
2434 14-01-2015 19:25:00 3.9 C 5.37 g/m*3 1.82 C 8.1 km/h
2435 14-01-2015 19:30:00 3.8 C 5.33 g/m*3 1.29 C 9.7 km/h
2436 14-01-2015 19:35:00 3.8 C 5.33 g/m*3 3.8 C 4.8 km/h
2437 14-01-2015 19:40:00 3.7 C 5.36 g/m*3 0.82 C 11.3 km/h
2438 14-01-2015 19:45:00 3.7 C 5.36 g/m*3 2.09 C 6.4 km/h
2439 14-01-2015 22:30:00 2.3 C 5.33 g/m*3 2.3 C 1.6 km/h
2440 14-01-2015 22:35:00 2.4 C 5.37 g/m*3 2.4 C 3.2 km/h
2441 14-01-2015 22:40:00 2.4 C 5.37 g/m*3 2.4 C 0 km/h
2442 14-01-2015 23:05:00 2.2 C 5.63 g/m*3 2.2 C 1.6 km/h
2443 14-01-2015 23:10:00 2.2 C 5.63 g/m*3 2.2 C 1.6 km/h
2444 14-01-2015 23:15:00 2.2 C 5.63 g/m*3 2.2 C 1.6 km/h
2445 14-01-2015 23:20:00 2.2 C 5.63 g/m*3 2.2 C 4.8 km/h
2446 15-01-2015 08:10:00 7.8 C 7.02 g/m*3 5.77 C 11.3 km/h
2447 15-01-2015 08:15:00 7.8 C 7.02 g/m*3 4.86 C 17.7 km/h
2448 15-01-2015 08:20:00 7.8 C 7.02 g/m*3 4.86 C 17.7 km/h
2449 15-01-2015 08:25:00 7.9 C 7.06 g/m*3 5.89 C 11.3 km/h
2450 15-01-2015 08:30:00 7.8 C 7.02 g/m*3 6.06 C 9.7 km/h
Sensor: Nr:Datum:Temp:Abs-Feuchte:Windchill:Wind:
Aussen-T/F 2451 15-01-2015 08:35:00 7.9 C 7.06 g/m*3 6.18 C 9.7 km/h
2452 15-01-2015 08:40:00 7.9 C 7.06 g/m*3 6.52 C 8.1 km/h
2453 15-01-2015 08:45:00 7.9 C 7.06 g/m*3 5.89 C 11.3 km/h
2454 15-01-2015 08:50:00 8 C 7.11 g/m*3 5.75 C 12.9 km/h
2455 15-01-2015 08:55:00 8.1 C 7.07 g/m*3 5.87 C 12.9 km/h
2456 15-01-2015 09:00:00 8.2 C 7.12 g/m*3 5.76 C 14.5 km/h
2457 15-01-2015 09:05:00 8.3 C 7.16 g/m*3 5.31 C 19.3 km/h
2458 15-01-2015 09:10:00 8.3 C 7.08 g/m*3 6.37 C 11.3 km/h
2459 15-01-2015 09:15:00 8.3 C 7.08 g/m*3 5.68 C 16.1 km/h
2460 15-01-2015 09:20:00 8.4 C 7.04 g/m*3 5.27 C 20.9 km/h
2461 15-01-2015 09:25:00 8.5 C 7.09 g/m*3 6.36 C 12.9 km/h
2462 15-01-2015 09:30:00 8.6 C 7.13 g/m*3 6.73 C 11.3 km/h
2463 15-01-2015 09:35:00 8.6 C 7.13 g/m*3 6.05 C 16.1 km/h
2464 15-01-2015 09:40:00 8.7 C 7.18 g/m*3 7.46 C 8.1 km/h
2465 15-01-2015 09:45:00 8.8 C 7.05 g/m*3 7.25 C 9.7 km/h
2466 15-01-2015 09:50:00 8.8 C 7.05 g/m*3 7.98 C 6.4 km/h
2467 15-01-2015 09:55:00 8.8 C 7.05 g/m*3 7.25 C 9.7 km/h
2468 15-01-2015 10:00:00 8.9 C 7.01 g/m*3 6.85 C 12.9 km/h
2469 15-01-2015 10:05:00 8.9 C 7.01 g/m*3 8.1 C 6.4 km/h
2470 15-01-2015 10:10:00 8.9 C 7.01 g/m*3 8.1 C 6.4 km/h
2471 15-01-2015 10:15:00 8.9 C 7.01 g/m*3 8.9 C 4.8 km/h
2472 15-01-2015 10:20:00 8.9 C 7.01 g/m*3 8.9 C 4.8 km/h
2473 15-01-2015 17:05:00 11.5 C 10.33 g/m*3 11.5 C 11.3 km/h
2474 15-01-2015 17:10:00 11.4 C 6.77 g/m*3 11.4 C 17.7 km/h
2475 15-01-2015 17:15:00 11.5 C 6.92 g/m*3 11.5 C 12.9 km/h
Sensor: Nr:Datum:Temp:Abs-Feuchte:Windchill:Wind:
Aussen-T/F 2476 15-01-2015 17:20:00 11.5 C 6.92 g/m*3 11.5 C 20.9 km/h
2477 15-01-2015 17:25:00 11.5 C 6.92 g/m*3 11.5 C 16.1 km/h
2478 15-01-2015 17:30:00 11.4 C 6.77 g/m*3 11.4 C 35.4 km/h
2479 15-01-2015 17:35:00 11.4 C 6.77 g/m*3 11.4 C 35.4 km/h
2480 15-01-2015 17:40:00 11.4 C 6.77 g/m*3 11.4 C 17.7 km/h
2481 15-01-2015 17:45:00 11.4 C 6.77 g/m*3 11.4 C 12.9 km/h
2482 15-01-2015 17:50:00 11.4 C 6.77 g/m*3 11.4 C 33.8 km/h
2483 15-01-2015 17:55:00 11.4 C 6.77 g/m*3 11.4 C 19.3 km/h
2484 15-01-2015 18:10:00 11.4 C 6.77 g/m*3 11.4 C 12.9 km/h
2485 15-01-2015 18:15:00 11.3 C 6.73 g/m*3 11.3 C 12.9 km/h
2486 15-01-2015 18:20:00 11.3 C 6.83 g/m*3 11.3 C 9.7 km/h
2487 15-01-2015 18:25:00 11.2 C 6.69 g/m*3 11.2 C 9.7 km/h
2488 15-01-2015 18:30:00 11.3 C 6.73 g/m*3 11.3 C 8.1 km/h
2489 15-01-2015 18:35:00 11.3 C 6.73 g/m*3 11.3 C 17.7 km/h
2490 15-01-2015 18:40:00 11.3 C 6.73 g/m*3 11.3 C 22.5 km/h
2491 15-01-2015 18:45:00 11.4 C 6.77 g/m*3 11.4 C 24.1 km/h
2492 15-01-2015 18:50:00 11.4 C 6.88 g/m*3 11.4 C 32.2 km/h
2493 15-01-2015 18:55:00 11.3 C 6.83 g/m*3 11.3 C 22.5 km/h
2494 15-01-2015 19:00:00 11.3 C 6.83 g/m*3 11.3 C 17.7 km/h
2495 15-01-2015 19:05:00 11.2 C 6.89 g/m*3 11.2 C 14.5 km/h
2496 15-01-2015 19:10:00 11.2 C 6.89 g/m*3 11.2 C 19.3 km/h
2497 15-01-2015 19:15:00 11.2 C 6.89 g/m*3 11.2 C 22.5 km/h
2498 15-01-2015 19:20:00 11.2 C 6.89 g/m*3 11.2 C 19.3 km/h
2499 15-01-2015 19:25:00 11.2 C 6.99 g/m*3 11.2 C 19.3 km/h
2500 15-01-2015 19:30:00 11.2 C 6.99 g/m*3 11.2 C 24.1 km/h
Sensor: Nr:Datum:Temp:Abs-Feuchte:Windchill:Wind:
Aussen-T/F 2501 15-01-2015 19:35:00 11.1 C 7.05 g/m*3 11.1 C 41.8 km/h
2502 15-01-2015 19:40:00 11.1 C 7.15 g/m*3 11.1 C 19.3 km/h
2503 15-01-2015 19:45:00 10.9 C 7.06 g/m*3 8.05 C 25.7 km/h
2504 15-01-2015 19:50:00 10.9 C 7.06 g/m*3 8.3 C 22.5 km/h
2505 15-01-2015 19:55:00 10.9 C 7.06 g/m*3 7.71 C 30.6 km/h
2506 15-01-2015 20:00:00 10.9 C 7.16 g/m*3 8.58 C 19.3 km/h
2507 15-01-2015 20:05:00 10.9 C 7.16 g/m*3 8.43 C 20.9 km/h
2508 15-01-2015 20:10:00 10.9 C 7.16 g/m*3 8.9 C 16.1 km/h
2509 15-01-2015 20:15:00 10.9 C 7.16 g/m*3 8.9 C 16.1 km/h
2510 15-01-2015 20:20:00 10.9 C 7.16 g/m*3 7.81 C 29 km/h
2511 15-01-2015 20:25:00 11 C 7.21 g/m*3 6.85 C 49.9 km/h
2512 15-01-2015 20:30:00 10.9 C 7.26 g/m*3 8.43 C 20.9 km/h
2513 15-01-2015 20:35:00 10.9 C 7.26 g/m*3 8.17 C 24.1 km/h
2514 15-01-2015 20:40:00 10.9 C 7.26 g/m*3 8.17 C 24.1 km/h
2515 15-01-2015 20:45:00 10.8 C 7.22 g/m*3 8.04 C 24.1 km/h
2516 15-01-2015 20:50:00 10.8 C 7.31 g/m*3 7.92 C 25.7 km/h
2517 15-01-2015 20:55:00 10.7 C 7.27 g/m*3 8.18 C 20.9 km/h
2518 15-01-2015 21:00:00 10.7 C 7.37 g/m*3 7.91 C 24.1 km/h
2519 15-01-2015 21:05:00 10.6 C 7.32 g/m*3 7.91 C 22.5 km/h
2520 15-01-2015 21:10:00 10.6 C 7.32 g/m*3 8.36 C 17.7 km/h
2521 15-01-2015 21:15:00 10.5 C 7.27 g/m*3 8.4 C 16.1 km/h
2522 15-01-2015 21:20:00 10.4 C 7.32 g/m*3 9.16 C 9.7 km/h
2523 15-01-2015 21:25:00 10.3 C 7.28 g/m*3 8.78 C 11.3 km/h
2524 15-01-2015 21:30:00 10.2 C 7.33 g/m*3 8.66 C 11.3 km/h
2525 15-01-2015 21:35:00 10.2 C 7.23 g/m*3 9.22 C 8.1 km/h
Sensor: Nr:Datum:Temp:Abs-Feuchte:Windchill:Wind:
Aussen-T/F 2526 15-01-2015 21:40:00 10.3 C 7.28 g/m*3 7.4 C 24.1 km/h
2527 15-01-2015 21:45:00 10.4 C 7.32 g/m*3 7.4 C 25.7 km/h
2528 15-01-2015 21:50:00 10.4 C 7.32 g/m*3 8.11 C 17.7 km/h
2529 15-01-2015 21:55:00 10.4 C 7.42 g/m*3 7.53 C 24.1 km/h
2530 15-01-2015 22:00:00 10.4 C 7.42 g/m*3 7.4 C 25.7 km/h
2531 15-01-2015 22:05:00 10.3 C 7.37 g/m*3 7.67 C 20.9 km/h
2532 15-01-2015 22:10:00 10.3 C 7.47 g/m*3 7.67 C 20.9 km/h
2533 15-01-2015 22:15:00 10.3 C 7.47 g/m*3 7.82 C 19.3 km/h
2534 15-01-2015 22:20:00 10.3 C 7.47 g/m*3 7.98 C 17.7 km/h
2535 15-01-2015 22:25:00 10.3 C 7.47 g/m*3 8.55 C 12.9 km/h
2536 15-01-2015 22:30:00 10.3 C 7.47 g/m*3 7.82 C 19.3 km/h
2537 15-01-2015 22:35:00 10.3 C 7.57 g/m*3 7.98 C 17.7 km/h
2538 15-01-2015 22:40:00 10.3 C 7.57 g/m*3 8.34 C 14.5 km/h
2539 15-01-2015 22:45:00 10.3 C 7.57 g/m*3 8.55 C 12.9 km/h
2540 15-01-2015 22:50:00 10.3 C 7.57 g/m*3 8.34 C 14.5 km/h
2541 15-01-2015 22:55:00 10.3 C 7.57 g/m*3 7.67 C 20.9 km/h
2542 15-01-2015 23:00:00 10.3 C 7.57 g/m*3 7.67 C 20.9 km/h
2543 15-01-2015 23:05:00 10.3 C 7.66 g/m*3 7.98 C 17.7 km/h
2544 15-01-2015 23:10:00 10.2 C 7.61 g/m*3 7.86 C 17.7 km/h
2545 15-01-2015 23:15:00 10.2 C 7.61 g/m*3 7.54 C 20.9 km/h
2546 15-01-2015 23:20:00 10.1 C 7.66 g/m*3 7.42 C 20.9 km/h
2547 15-01-2015 23:25:00 10 C 7.8 g/m*3 7.98 C 14.5 km/h
2548 15-01-2015 23:30:00 9.8 C 7.79 g/m*3 7.94 C 12.9 km/h
2549 15-01-2015 23:35:00 9.6 C 7.69 g/m*3 7.29 C 16.1 km/h
2550 15-01-2015 23:40:00 9.5 C 7.74 g/m*3 7.36 C 14.5 km/h
Sensor: Nr:Datum:Temp:Abs-Feuchte:Windchill:Wind:
Aussen-T/F 2551 15-01-2015 23:45:00 9.4 C 7.69 g/m*3 7.24 C 14.5 km/h
2552 15-01-2015 23:50:00 9.4 C 7.69 g/m*3 7.46 C 12.9 km/h
2553 15-01-2015 23:55:00 9.4 C 7.78 g/m*3 7.46 C 12.9 km/h
2554 16-01-2015 00:00:00 9.3 C 7.73 g/m*3 7.58 C 11.3 km/h
2555 16-01-2015 00:05:00 9.3 C 7.64 g/m*3 7.33 C 12.9 km/h
2556 16-01-2015 00:10:00 9.3 C 7.64 g/m*3 8.16 C 8.1 km/h
2557 16-01-2015 00:15:00 9.3 C 7.64 g/m*3 7.33 C 12.9 km/h
2558 16-01-2015 00:20:00 9.3 C 7.64 g/m*3 8.16 C 8.1 km/h
2559 16-01-2015 00:25:00 9.3 C 7.73 g/m*3 7.85 C 9.7 km/h
2560 16-01-2015 00:30:00 9.3 C 7.73 g/m*3 7.85 C 9.7 km/h
2561 16-01-2015 00:35:00 9.3 C 7.64 g/m*3 7.33 C 12.9 km/h
2562 16-01-2015 00:40:00 9.3 C 7.64 g/m*3 6.92 C 16.1 km/h
2563 16-01-2015 00:45:00 9.3 C 7.55 g/m*3 7.85 C 9.7 km/h
2564 16-01-2015 00:50:00 9.3 C 7.46 g/m*3 7.85 C 9.7 km/h
2565 16-01-2015 00:55:00 9.3 C 7.37 g/m*3 7.58 C 11.3 km/h
2566 16-01-2015 01:00:00 9.3 C 7.37 g/m*3 7.12 C 14.5 km/h
2567 16-01-2015 01:05:00 9.3 C 7.37 g/m*3 7.85 C 9.7 km/h
2568 16-01-2015 01:10:00 9.2 C 7.41 g/m*3 9.2 C 3.2 km/h
2569 16-01-2015 01:15:00 9.1 C 7.45 g/m*3 7.93 C 8.1 km/h
2570 16-01-2015 01:20:00 9.1 C 7.36 g/m*3 7.33 C 11.3 km/h
2571 16-01-2015 01:25:00 9.1 C 7.36 g/m*3 7.61 C 9.7 km/h
2572 16-01-2015 01:30:00 9.1 C 7.36 g/m*3 7.93 C 8.1 km/h
2573 16-01-2015 01:35:00 9.1 C 7.36 g/m*3 7.33 C 11.3 km/h
2574 16-01-2015 01:40:00 9 C 7.41 g/m*3 7.81 C 8.1 km/h
2575 16-01-2015 01:45:00 8.9 C 7.45 g/m*3 8.9 C 3.2 km/h
Sensor: Nr:Datum:Temp:Abs-Feuchte:Windchill:Wind:
Aussen-T/F 2576 16-01-2015 01:50:00 8.8 C 7.4 g/m*3 7.98 C 6.4 km/h
2577 16-01-2015 01:55:00 8.7 C 7.52 g/m*3 7.46 C 8.1 km/h
2578 16-01-2015 02:00:00 8.6 C 7.56 g/m*3 7.34 C 8.1 km/h
2579 16-01-2015 02:05:00 8.4 C 7.55 g/m*3 8.4 C 4.8 km/h
2580 16-01-2015 02:10:00 8.3 C 7.42 g/m*3 6.37 C 11.3 km/h
2581 16-01-2015 02:15:00 8.3 C 7.42 g/m*3 6.99 C 8.1 km/h
2582 16-01-2015 02:20:00 8.3 C 7.42 g/m*3 8.3 C 3.2 km/h
2583 16-01-2015 02:25:00 8.2 C 7.37 g/m*3 7.29 C 6.4 km/h
2584 16-01-2015 02:30:00 8.2 C 7.37 g/m*3 8.2 C 4.8 km/h
2585 16-01-2015 02:35:00 8.2 C 7.37 g/m*3 8.2 C 1.6 km/h
2586 16-01-2015 02:40:00 8.1 C 7.32 g/m*3 7.17 C 6.4 km/h
2587 16-01-2015 02:45:00 8.1 C 7.32 g/m*3 8.1 C 3.2 km/h
2588 16-01-2015 02:50:00 7.9 C 7.06 g/m*3 6.94 C 6.4 km/h
2589 16-01-2015 02:55:00 8.1 C 7.16 g/m*3 7.17 C 6.4 km/h
2590 16-01-2015 03:00:00 8.1 C 7.16 g/m*3 6.13 C 11.3 km/h
2591 16-01-2015 03:05:00 8.1 C 7.16 g/m*3 8.1 C 4.8 km/h
2592 16-01-2015 03:10:00 8.1 C 7.16 g/m*3 7.17 C 6.4 km/h
2593 16-01-2015 03:15:00 8.1 C 7.16 g/m*3 7.17 C 6.4 km/h
2594 16-01-2015 03:20:00 8.1 C 7.16 g/m*3 5.87 C 12.9 km/h
2595 16-01-2015 03:25:00 8.1 C 7.24 g/m*3 7.17 C 6.4 km/h
2596 16-01-2015 03:30:00 8 C 7.19 g/m*3 8 C 3.2 km/h
2597 16-01-2015 03:35:00 7.9 C 7.15 g/m*3 7.9 C 1.6 km/h
2598 16-01-2015 03:40:00 7.8 C 7.18 g/m*3 7.8 C 1.6 km/h
2599 16-01-2015 03:45:00 7.6 C 7.09 g/m*3 6.6 C 6.4 km/h
2600 16-01-2015 03:50:00 7.6 C 7.09 g/m*3 7.6 C 3.2 km/h
Sensor: Nr:Datum:Temp:Abs-Feuchte:Windchill:Wind:
Aussen-T/F 2601 16-01-2015 03:55:00 7.6 C 7.17 g/m*3 7.6 C 0 km/h
2602 16-01-2015 04:00:00 7.4 C 7 g/m*3 7.4 C 3.2 km/h
2603 16-01-2015 04:05:00 7.4 C 7.08 g/m*3 6.37 C 6.4 km/h
2604 16-01-2015 04:10:00 7.6 C 7.01 g/m*3 7.6 C 4.8 km/h
2605 16-01-2015 04:15:00 7.6 C 7.01 g/m*3 7.6 C 3.2 km/h
2606 16-01-2015 04:20:00 7.7 C 6.97 g/m*3 6.71 C 6.4 km/h
2607 16-01-2015 04:25:00 7.7 C 7.05 g/m*3 7.7 C 0 km/h
2608 16-01-2015 04:30:00 7.5 C 7.04 g/m*3 7.5 C 0 km/h
2609 16-01-2015 04:35:00 7.3 C 6.95 g/m*3 7.3 C 0 km/h
2610 16-01-2015 04:40:00 7.2 C 6.91 g/m*3 7.2 C 3.2 km/h
2611 16-01-2015 04:45:00 7.2 C 6.99 g/m*3 7.2 C 0 km/h
2612 16-01-2015 04:50:00 7 C 6.9 g/m*3 7 C 0 km/h
2613 16-01-2015 04:55:00 6.9 C 6.85 g/m*3 6.9 C 3.2 km/h
2614 16-01-2015 05:00:00 6.8 C 6.81 g/m*3 6.8 C 1.6 km/h
2615 16-01-2015 05:05:00 6.8 C 6.88 g/m*3 6.8 C 4.8 km/h
2616 16-01-2015 05:10:00 6.9 C 6.85 g/m*3 6.9 C 4.8 km/h
2617 16-01-2015 05:15:00 7.1 C 6.86 g/m*3 7.1 C 0 km/h
2618 16-01-2015 05:20:00 7.1 C 6.86 g/m*3 7.1 C 4.8 km/h
2619 16-01-2015 05:25:00 7.1 C 6.86 g/m*3 7.1 C 3.2 km/h
2620 16-01-2015 05:30:00 7.1 C 6.86 g/m*3 7.1 C 3.2 km/h
2621 16-01-2015 05:35:00 7 C 6.82 g/m*3 7 C 4.8 km/h
2622 16-01-2015 05:40:00 6.9 C 6.85 g/m*3 6.9 C 1.6 km/h
2623 16-01-2015 05:45:00 6.9 C 6.85 g/m*3 6.9 C 1.6 km/h
2624 16-01-2015 05:50:00 6.8 C 6.81 g/m*3 6.8 C 3.2 km/h
2625 16-01-2015 05:55:00 6.8 C 6.73 g/m*3 5.67 C 6.4 km/h
Sensor: Nr:Datum:Temp:Abs-Feuchte:Windchill:Wind:
Aussen-T/F 2626 16-01-2015 06:00:00 6.8 C 6.73 g/m*3 6.8 C 1.6 km/h
2627 16-01-2015 06:05:00 6.9 C 6.77 g/m*3 6.9 C 1.6 km/h
2628 16-01-2015 06:10:00 6.9 C 6.77 g/m*3 6.9 C 1.6 km/h
2629 16-01-2015 06:15:00 6.9 C 6.77 g/m*3 6.9 C 3.2 km/h
2630 16-01-2015 06:20:00 6.9 C 6.77 g/m*3 6.9 C 1.6 km/h
2631 16-01-2015 06:25:00 6.8 C 6.73 g/m*3 6.8 C 1.6 km/h
2632 16-01-2015 06:30:00 6.7 C 6.76 g/m*3 6.7 C 1.6 km/h
2633 16-01-2015 06:35:00 6.7 C 6.76 g/m*3 6.7 C 3.2 km/h
2634 16-01-2015 06:40:00 6.9 C 6.77 g/m*3 6.9 C 4.8 km/h
2635 16-01-2015 06:45:00 7 C 6.74 g/m*3 7 C 4.8 km/h
2636 16-01-2015 06:50:00 7 C 6.82 g/m*3 7 C 4.8 km/h
2637 16-01-2015 06:55:00 6.9 C 6.77 g/m*3 6.9 C 3.2 km/h
2638 16-01-2015 07:00:00 6.9 C 6.77 g/m*3 6.9 C 1.6 km/h
2639 16-01-2015 07:05:00 6.8 C 6.73 g/m*3 6.8 C 1.6 km/h
2640 16-01-2015 07:10:00 6.7 C 6.76 g/m*3 6.7 C 3.2 km/h
2641 16-01-2015 07:15:00 6.7 C 6.76 g/m*3 6.7 C 1.6 km/h
2642 16-01-2015 07:20:00 6.6 C 6.72 g/m*3 6.6 C 1.6 km/h
2643 16-01-2015 07:25:00 6.5 C 6.67 g/m*3 6.5 C 1.6 km/h
2644 16-01-2015 07:30:00 6.4 C 6.71 g/m*3 6.4 C 0 km/h
2645 16-01-2015 07:35:00 6.4 C 6.71 g/m*3 6.4 C 3.2 km/h
2646 16-01-2015 07:40:00 6.4 C 6.71 g/m*3 6.4 C 1.6 km/h
2647 16-01-2015 07:45:00 6.4 C 6.71 g/m*3 6.4 C 1.6 km/h
2648 16-01-2015 07:50:00 6.4 C 6.71 g/m*3 6.4 C 3.2 km/h
2649 16-01-2015 07:55:00 6.4 C 6.63 g/m*3 6.4 C 3.2 km/h
2650 16-01-2015 08:00:00 6.5 C 6.67 g/m*3 6.5 C 3.2 km/h
Sensor: Nr:Datum:Temp:Abs-Feuchte:Windchill:Wind:
Aussen-T/F 2651 16-01-2015 08:05:00 6.7 C 6.69 g/m*3 6.7 C 1.6 km/h
2652 16-01-2015 08:10:00 6.8 C 6.65 g/m*3 6.8 C 4.8 km/h
2653 16-01-2015 08:15:00 6.9 C 6.7 g/m*3 5.79 C 6.4 km/h
2654 16-01-2015 08:20:00 6.9 C 6.7 g/m*3 6.9 C 4.8 km/h
2655 16-01-2015 08:25:00 6.8 C 6.73 g/m*3 6.8 C 3.2 km/h
2656 16-01-2015 08:30:00 6.8 C 6.65 g/m*3 6.8 C 3.2 km/h
2657 16-01-2015 08:35:00 6.8 C 6.65 g/m*3 5.67 C 6.4 km/h
2658 16-01-2015 08:40:00 6.8 C 6.65 g/m*3 6.8 C 4.8 km/h
2659 16-01-2015 08:45:00 6.9 C 6.62 g/m*3 6.9 C 4.8 km/h
2660 16-01-2015 08:50:00 6.9 C 6.62 g/m*3 6.9 C 0 km/h
2661 16-01-2015 08:55:00 6.9 C 6.7 g/m*3 6.9 C 1.6 km/h
2662 16-01-2015 09:00:00 6.8 C 6.65 g/m*3 6.8 C 1.6 km/h
2663 16-01-2015 09:05:00 6.8 C 6.65 g/m*3 6.8 C 1.6 km/h
2664 16-01-2015 09:10:00 6.7 C 6.69 g/m*3 6.7 C 3.2 km/h
2665 16-01-2015 09:15:00 6.7 C 6.69 g/m*3 6.7 C 3.2 km/h
2666 16-01-2015 09:20:00 6.7 C 6.69 g/m*3 6.7 C 1.6 km/h
2667 16-01-2015 09:25:00 6.6 C 6.72 g/m*3 6.6 C 0 km/h
2668 16-01-2015 09:30:00 6.6 C 6.72 g/m*3 6.6 C 0 km/h
2669 16-01-2015 09:35:00 6.6 C 6.79 g/m*3 6.6 C 0 km/h
2670 16-01-2015 09:40:00 6.6 C 6.79 g/m*3 6.6 C 0 km/h
2671 16-01-2015 09:45:00 6.6 C 6.72 g/m*3 6.6 C 0 km/h
2672 16-01-2015 09:50:00 6.6 C 6.79 g/m*3 6.6 C 3.2 km/h
2673 16-01-2015 09:55:00 6.6 C 6.72 g/m*3 6.6 C 3.2 km/h
2674 16-01-2015 10:00:00 6.7 C 6.69 g/m*3 6.7 C 1.6 km/h
2675 16-01-2015 10:05:00 6.7 C 6.69 g/m*3 6.7 C 0 km/h
Sensor: Nr:Datum:Temp:Abs-Feuchte:Windchill:Wind:
Aussen-T/F 2676 16-01-2015 10:10:00 6.8 C 6.73 g/m*3 6.8 C 3.2 km/h
2677 16-01-2015 10:15:00 6.9 C 6.62 g/m*3 6.9 C 3.2 km/h
2678 16-01-2015 10:20:00 6.9 C 6.62 g/m*3 6.9 C 4.8 km/h
2679 16-01-2015 10:25:00 7.1 C 6.63 g/m*3 6.02 C 6.4 km/h
2680 16-01-2015 10:30:00 7.2 C 6.67 g/m*3 6.13 C 6.4 km/h
2681 16-01-2015 10:35:00 7.2 C 6.59 g/m*3 6.13 C 6.4 km/h
2682 16-01-2015 10:40:00 7.3 C 6.56 g/m*3 5.47 C 9.7 km/h
2683 16-01-2015 10:45:00 7.3 C 6.56 g/m*3 6.25 C 6.4 km/h
2684 16-01-2015 10:50:00 7.3 C 6.56 g/m*3 7.3 C 3.2 km/h
2685 16-01-2015 10:55:00 7.3 C 6.56 g/m*3 7.3 C 0 km/h
2686 16-01-2015 11:00:00 7.3 C 6.56 g/m*3 7.3 C 0 km/h
2687 16-01-2015 11:05:00 7.3 C 6.64 g/m*3 7.3 C 0 km/h
2688 16-01-2015 11:10:00 7.3 C 6.79 g/m*3 7.3 C 0 km/h
2689 16-01-2015 11:15:00 7.3 C 6.79 g/m*3 7.3 C 0 km/h
2690 16-01-2015 11:20:00 7.3 C 6.79 g/m*3 7.3 C 0 km/h
2691 16-01-2015 11:25:00 7.3 C 6.79 g/m*3 7.3 C 3.2 km/h
2692 16-01-2015 11:30:00 7.3 C 6.79 g/m*3 7.3 C 1.6 km/h
2693 16-01-2015 11:35:00 7.3 C 6.79 g/m*3 7.3 C 3.2 km/h
2694 16-01-2015 11:40:00 7.4 C 6.84 g/m*3 7.4 C 3.2 km/h
2695 16-01-2015 11:45:00 7.4 C 6.76 g/m*3 7.4 C 3.2 km/h
2696 16-01-2015 11:50:00 7.4 C 6.84 g/m*3 7.4 C 3.2 km/h
2697 16-01-2015 11:55:00 7.4 C 6.84 g/m*3 7.4 C 3.2 km/h
2698 16-01-2015 12:00:00 7.4 C 6.76 g/m*3 7.4 C 1.6 km/h
2699 16-01-2015 12:05:00 7.5 C 6.8 g/m*3 7.5 C 4.8 km/h
2700 16-01-2015 12:10:00 7.5 C 6.8 g/m*3 7.5 C 3.2 km/h
Sensor: Nr:Datum:Temp:Abs-Feuchte:Windchill:Wind:
Aussen-T/F 2701 16-01-2015 12:15:00 7.4 C 6.76 g/m*3 5.93 C 8.1 km/h
2702 16-01-2015 12:20:00 7.4 C 6.68 g/m*3 7.4 C 1.6 km/h
2703 16-01-2015 12:25:00 7.4 C 6.68 g/m*3 7.4 C 0 km/h
2704 16-01-2015 12:30:00 7.4 C 6.6 g/m*3 7.4 C 0 km/h
2705 16-01-2015 12:35:00 7.4 C 6.68 g/m*3 7.4 C 0 km/h
2706 16-01-2015 12:40:00 7.5 C 6.72 g/m*3 7.5 C 1.6 km/h
2707 16-01-2015 12:45:00 7.4 C 6.36 g/m*3 7.4 C 1.6 km/h
2708 16-01-2015 12:50:00 7.5 C 6.56 g/m*3 7.5 C 0 km/h
2709 16-01-2015 12:55:00 7.5 C 6.64 g/m*3 7.5 C 3.2 km/h
2710 16-01-2015 13:00:00 7.4 C 6.36 g/m*3 7.4 C 3.2 km/h
2711 16-01-2015 13:05:00 7.4 C 6.28 g/m*3 5.93 C 8.1 km/h
2712 16-01-2015 13:10:00 7.4 C 6.36 g/m*3 7.4 C 3.2 km/h
2713 16-01-2015 13:15:00 7.4 C 6.36 g/m*3 7.4 C 1.6 km/h
2714 16-01-2015 13:20:00 7.3 C 6.32 g/m*3 7.3 C 4.8 km/h
2715 16-01-2015 13:25:00 7.3 C 6.4 g/m*3 7.3 C 3.2 km/h
2716 16-01-2015 13:30:00 7.3 C 6.4 g/m*3 7.3 C 3.2 km/h
2717 16-01-2015 13:35:00 7.2 C 6.28 g/m*3 7.2 C 4.8 km/h
2718 16-01-2015 13:40:00 7.2 C 6.36 g/m*3 7.2 C 3.2 km/h
2719 16-01-2015 13:45:00 7.2 C 6.36 g/m*3 7.2 C 1.6 km/h
2720 16-01-2015 13:50:00 7.1 C 6.32 g/m*3 7.1 C 4.8 km/h
2721 16-01-2015 13:55:00 7 C 6.28 g/m*3 7 C 3.2 km/h
2722 16-01-2015 14:00:00 6.9 C 6.31 g/m*3 6.9 C 4.8 km/h
2723 16-01-2015 14:05:00 6.9 C 6.31 g/m*3 6.9 C 3.2 km/h
2724 16-01-2015 14:10:00 6.9 C 6.31 g/m*3 6.9 C 3.2 km/h
2725 16-01-2015 14:15:00 6.9 C 6.31 g/m*3 6.9 C 3.2 km/h
Sensor: Nr:Datum:Temp:Abs-Feuchte:Windchill:Wind:
Aussen-T/F 2726 16-01-2015 14:20:00 6.9 C 6.31 g/m*3 6.9 C 1.6 km/h
2727 16-01-2015 14:25:00 6.9 C 6.24 g/m*3 6.9 C 3.2 km/h
2728 16-01-2015 14:30:00 6.9 C 6.31 g/m*3 6.9 C 3.2 km/h
2729 16-01-2015 14:35:00 6.9 C 6.31 g/m*3 5.79 C 6.4 km/h
2730 16-01-2015 14:40:00 6.9 C 6.31 g/m*3 6.9 C 4.8 km/h
2731 16-01-2015 14:45:00 6.9 C 6.39 g/m*3 6.9 C 4.8 km/h
2732 16-01-2015 14:50:00 6.9 C 6.39 g/m*3 5.34 C 8.1 km/h
2733 16-01-2015 14:55:00 6.8 C 6.27 g/m*3 4.87 C 9.7 km/h
2734 16-01-2015 15:00:00 6.8 C 6.27 g/m*3 5.67 C 6.4 km/h
2735 16-01-2015 15:05:00 6.7 C 6.23 g/m*3 6.7 C 3.2 km/h
2736 16-01-2015 15:10:00 6.7 C 6.31 g/m*3 6.7 C 3.2 km/h
2737 16-01-2015 15:15:00 6.7 C 6.31 g/m*3 6.7 C 1.6 km/h
2738 16-01-2015 15:20:00 6.7 C 6.31 g/m*3 6.7 C 1.6 km/h
2739 16-01-2015 15:25:00 6.7 C 6.38 g/m*3 6.7 C 0 km/h
2740 16-01-2015 15:30:00 6.7 C 6.38 g/m*3 6.7 C 0 km/h
2741 16-01-2015 15:35:00 6.6 C 6.42 g/m*3 6.6 C 0 km/h
2742 16-01-2015 15:40:00 6.6 C 6.49 g/m*3 6.6 C 0 km/h
2743 16-01-2015 15:45:00 6.5 C 6.52 g/m*3 6.5 C 0 km/h
2744 16-01-2015 15:50:00 6.4 C 6.56 g/m*3 6.4 C 0 km/h
2745 16-01-2015 15:55:00 6.4 C 6.56 g/m*3 6.4 C 0 km/h
2746 16-01-2015 16:00:00 6.3 C 6.59 g/m*3 6.3 C 0 km/h
2747 16-01-2015 16:05:00 6.2 C 6.62 g/m*3 6.2 C 0 km/h
2748 16-01-2015 16:10:00 6.2 C 6.69 g/m*3 6.2 C 0 km/h
2749 16-01-2015 16:15:00 6.1 C 6.65 g/m*3 6.1 C 0 km/h
2750 16-01-2015 16:20:00 6.1 C 6.65 g/m*3 6.1 C 1.6 km/h
Sensor: Nr:Datum:Temp:Abs-Feuchte:Windchill:Wind:
Aussen-T/F 2751 16-01-2015 16:25:00 5.9 C 6.63 g/m*3 5.9 C 0 km/h
2752 16-01-2015 16:30:00 5.8 C 6.59 g/m*3 5.8 C 0 km/h
2753 16-01-2015 16:35:00 5.8 C 6.59 g/m*3 5.8 C 0 km/h
2754 16-01-2015 16:40:00 5.7 C 6.62 g/m*3 5.7 C 0 km/h
2755 16-01-2015 16:45:00 5.7 C 6.62 g/m*3 5.7 C 1.6 km/h
2756 16-01-2015 16:50:00 5.7 C 6.62 g/m*3 5.7 C 1.6 km/h
2757 16-01-2015 16:55:00 5.6 C 6.57 g/m*3 5.6 C 3.2 km/h
2758 16-01-2015 17:00:00 5.6 C 6.57 g/m*3 5.6 C 1.6 km/h
2759 16-01-2015 17:05:00 5.5 C 6.53 g/m*3 5.5 C 1.6 km/h
2760 16-01-2015 17:10:00 5.5 C 6.53 g/m*3 5.5 C 0 km/h
2761 16-01-2015 17:15:00 5.4 C 6.56 g/m*3 5.4 C 1.6 km/h
2762 16-01-2015 17:20:00 5.4 C 6.56 g/m*3 5.4 C 1.6 km/h
2763 16-01-2015 17:25:00 5.4 C 6.56 g/m*3 5.4 C 1.6 km/h
2764 16-01-2015 17:30:00 5.4 C 6.56 g/m*3 5.4 C 0 km/h
2765 16-01-2015 17:35:00 5.3 C 6.52 g/m*3 5.3 C 0 km/h
2766 16-01-2015 17:40:00 5.3 C 6.52 g/m*3 5.3 C 0 km/h
2767 16-01-2015 17:45:00 5.3 C 6.52 g/m*3 5.3 C 0 km/h
2768 16-01-2015 17:50:00 5.3 C 6.52 g/m*3 5.3 C 0 km/h
2769 16-01-2015 17:55:00 5.3 C 6.52 g/m*3 5.3 C 0 km/h
2770 16-01-2015 18:00:00 5.2 C 6.47 g/m*3 5.2 C 0 km/h
2771 16-01-2015 18:05:00 5.2 C 6.47 g/m*3 5.2 C 0 km/h
2772 16-01-2015 18:10:00 5.2 C 6.47 g/m*3 5.2 C 0 km/h
2773 16-01-2015 18:15:00 5.2 C 6.47 g/m*3 5.2 C 0 km/h
2774 16-01-2015 18:20:00 5.2 C 6.47 g/m*3 5.2 C 1.6 km/h
2775 16-01-2015 18:25:00 5.1 C 6.43 g/m*3 5.1 C 0 km/h
Sensor: Nr:Datum:Temp:Abs-Feuchte:Windchill:Wind:
Aussen-T/F 2776 16-01-2015 18:30:00 5.1 C 6.43 g/m*3 5.1 C 0 km/h
2777 16-01-2015 18:35:00 5.1 C 6.43 g/m*3 5.1 C 0 km/h
2778 16-01-2015 18:40:00 5.1 C 6.43 g/m*3 5.1 C 0 km/h
2779 16-01-2015 18:45:00 5.1 C 6.43 g/m*3 5.1 C 0 km/h
2780 16-01-2015 18:50:00 5.1 C 6.43 g/m*3 5.1 C 0 km/h
2781 16-01-2015 18:55:00 5.1 C 6.43 g/m*3 5.1 C 0 km/h
2782 16-01-2015 19:00:00 5.1 C 6.43 g/m*3 5.1 C 0 km/h
2783 16-01-2015 19:05:00 5.1 C 6.43 g/m*3 5.1 C 0 km/h
2784 16-01-2015 19:10:00 5.1 C 6.43 g/m*3 5.1 C 0 km/h
2785 16-01-2015 19:15:00 5.1 C 6.43 g/m*3 5.1 C 0 km/h
2786 16-01-2015 19:20:00 5.1 C 6.43 g/m*3 5.1 C 0 km/h
2787 16-01-2015 19:25:00 5.1 C 6.43 g/m*3 5.1 C 1.6 km/h
2788 16-01-2015 19:30:00 5.1 C 6.43 g/m*3 5.1 C 0 km/h
2789 16-01-2015 19:35:00 5.1 C 6.43 g/m*3 5.1 C 0 km/h
2790 16-01-2015 19:40:00 5.1 C 6.43 g/m*3 5.1 C 0 km/h
2791 16-01-2015 19:45:00 5.1 C 6.43 g/m*3 5.1 C 0 km/h
2792 16-01-2015 19:50:00 5.2 C 6.47 g/m*3 5.2 C 0 km/h
2793 16-01-2015 19:55:00 5.2 C 6.47 g/m*3 5.2 C 0 km/h
2794 16-01-2015 20:00:00 5.2 C 6.47 g/m*3 5.2 C 0 km/h
2795 16-01-2015 20:05:00 5.2 C 6.47 g/m*3 5.2 C 0 km/h
2796 16-01-2015 20:10:00 5.2 C 6.47 g/m*3 5.2 C 0 km/h
2797 16-01-2015 20:15:00 5.1 C 6.36 g/m*3 5.1 C 1.6 km/h
2798 16-01-2015 20:20:00 5.2 C 6.4 g/m*3 5.2 C 0 km/h
2799 16-01-2015 20:25:00 5.2 C 6.4 g/m*3 5.2 C 0 km/h
2800 16-01-2015 20:30:00 5.2 C 6.4 g/m*3 5.2 C 0 km/h
Sensor: Nr:Datum:Temp:Abs-Feuchte:Windchill:Wind:
Aussen-T/F 2801 16-01-2015 20:35:00 5.1 C 6.36 g/m*3 5.1 C 1.6 km/h
2802 16-01-2015 20:40:00 5.1 C 6.36 g/m*3 5.1 C 0 km/h
2803 16-01-2015 20:45:00 5.1 C 6.36 g/m*3 5.1 C 0 km/h
2804 16-01-2015 20:50:00 5 C 6.39 g/m*3 5 C 0 km/h
2805 16-01-2015 20:55:00 4.9 C 6.35 g/m*3 4.9 C 0 km/h
2806 16-01-2015 21:00:00 4.9 C 6.35 g/m*3 4.9 C 0 km/h
2807 16-01-2015 21:05:00 4.9 C 6.35 g/m*3 4.9 C 0 km/h
2808 16-01-2015 21:10:00 4.9 C 6.35 g/m*3 4.9 C 0 km/h
2809 16-01-2015 21:15:00 4.9 C 6.35 g/m*3 4.9 C 0 km/h
2810 16-01-2015 21:20:00 4.9 C 6.35 g/m*3 4.9 C 0 km/h
2811 16-01-2015 21:25:00 4.9 C 6.35 g/m*3 4.9 C 0 km/h
2812 16-01-2015 21:30:00 4.9 C 6.35 g/m*3 4.9 C 0 km/h
2813 16-01-2015 21:35:00 4.9 C 6.35 g/m*3 4.9 C 0 km/h
2814 16-01-2015 21:40:00 4.9 C 6.35 g/m*3 4.9 C 0 km/h
2815 16-01-2015 21:45:00 4.9 C 6.35 g/m*3 4.9 C 0 km/h
2816 16-01-2015 21:50:00 4.9 C 6.35 g/m*3 4.9 C 1.6 km/h
2817 16-01-2015 21:55:00 4.9 C 6.35 g/m*3 4.9 C 1.6 km/h
2818 16-01-2015 22:00:00 4.9 C 6.35 g/m*3 4.9 C 4.8 km/h
2819 16-01-2015 22:05:00 5 C 6.39 g/m*3 5 C 3.2 km/h
2820 16-01-2015 22:10:00 5.1 C 6.43 g/m*3 3.23 C 8.1 km/h
2821 16-01-2015 22:15:00 5.1 C 6.43 g/m*3 5.1 C 4.8 km/h
2822 16-01-2015 22:20:00 5.1 C 6.36 g/m*3 5.1 C 1.6 km/h
2823 16-01-2015 22:25:00 5.1 C 6.36 g/m*3 5.1 C 1.6 km/h
2824 16-01-2015 22:30:00 5.1 C 6.36 g/m*3 5.1 C 0 km/h
2825 16-01-2015 22:35:00 5 C 6.39 g/m*3 5 C 1.6 km/h
Sensor: Nr:Datum:Temp:Abs-Feuchte:Windchill:Wind:
Aussen-T/F 2826 16-01-2015 22:40:00 5.1 C 6.43 g/m*3 5.1 C 4.8 km/h
2827 16-01-2015 22:45:00 5.2 C 6.4 g/m*3 5.2 C 4.8 km/h
2828 16-01-2015 22:50:00 5.2 C 6.4 g/m*3 5.2 C 3.2 km/h
2829 16-01-2015 22:55:00 5.2 C 6.4 g/m*3 5.2 C 3.2 km/h
2830 16-01-2015 23:00:00 5.2 C 6.4 g/m*3 5.2 C 1.6 km/h
2831 16-01-2015 23:05:00 5.1 C 6.36 g/m*3 5.1 C 1.6 km/h
2832 16-01-2015 23:10:00 5.1 C 6.36 g/m*3 5.1 C 1.6 km/h
2833 16-01-2015 23:15:00 4.9 C 6.28 g/m*3 4.9 C 0 km/h
2834 16-01-2015 23:20:00 4.9 C 6.28 g/m*3 4.9 C 0 km/h
2835 16-01-2015 23:25:00 4.8 C 6.24 g/m*3 4.8 C 0 km/h
2836 16-01-2015 23:30:00 4.8 C 6.3 g/m*3 4.8 C 0 km/h
2837 16-01-2015 23:35:00 4.8 C 6.3 g/m*3 4.8 C 0 km/h
2838 16-01-2015 23:40:00 4.8 C 6.3 g/m*3 4.8 C 1.6 km/h
2839 16-01-2015 23:45:00 4.9 C 6.35 g/m*3 4.9 C 0 km/h
2840 16-01-2015 23:50:00 4.9 C 6.35 g/m*3 4.9 C 3.2 km/h
2841 16-01-2015 23:55:00 4.9 C 6.35 g/m*3 4.9 C 1.6 km/h
2842 17-01-2015 00:00:00 4.9 C 6.35 g/m*3 4.9 C 1.6 km/h
2843 17-01-2015 00:05:00 4.9 C 6.35 g/m*3 4.9 C 4.8 km/h
2844 17-01-2015 00:10:00 4.9 C 6.35 g/m*3 4.9 C 0 km/h
2845 17-01-2015 00:15:00 5 C 6.32 g/m*3 5 C 1.6 km/h
2846 17-01-2015 00:20:00 5 C 6.32 g/m*3 5 C 3.2 km/h
2847 17-01-2015 00:25:00 5.1 C 6.36 g/m*3 5.1 C 1.6 km/h
2848 17-01-2015 00:30:00 5.1 C 6.36 g/m*3 5.1 C 1.6 km/h
2849 17-01-2015 00:35:00 5.1 C 6.36 g/m*3 5.1 C 4.8 km/h
2850 17-01-2015 00:40:00 5 C 6.25 g/m*3 5 C 3.2 km/h
Sensor: Nr:Datum:Temp:Abs-Feuchte:Windchill:Wind:
Aussen-T/F 2851 17-01-2015 00:45:00 4.9 C 6.21 g/m*3 4.9 C 3.2 km/h
2852 17-01-2015 00:50:00 4.8 C 6.17 g/m*3 4.8 C 3.2 km/h
2853 17-01-2015 00:55:00 4.8 C 6.17 g/m*3 4.8 C 1.6 km/h
2854 17-01-2015 01:00:00 4.8 C 6.24 g/m*3 4.8 C 0 km/h
2855 17-01-2015 01:05:00 4.8 C 6.24 g/m*3 4.8 C 1.6 km/h
2856 17-01-2015 01:10:00 4.7 C 6.19 g/m*3 4.7 C 0 km/h
2857 17-01-2015 01:15:00 4.7 C 6.19 g/m*3 4.7 C 3.2 km/h
2858 17-01-2015 01:20:00 4.7 C 6.19 g/m*3 4.7 C 0 km/h
2859 17-01-2015 01:25:00 4.6 C 6.15 g/m*3 4.6 C 0 km/h
2860 17-01-2015 01:30:00 4.6 C 6.15 g/m*3 4.6 C 3.2 km/h
2861 17-01-2015 01:35:00 4.6 C 6.15 g/m*3 4.6 C 4.8 km/h
2862 17-01-2015 01:40:00 4.6 C 6.09 g/m*3 4.6 C 0 km/h
2863 17-01-2015 01:45:00 4.6 C 6.09 g/m*3 4.6 C 0 km/h
2864 17-01-2015 01:50:00 4.6 C 6.09 g/m*3 4.6 C 1.6 km/h
2865 17-01-2015 01:55:00 4.6 C 6.09 g/m*3 4.6 C 3.2 km/h
2866 17-01-2015 02:00:00 4.6 C 6.02 g/m*3 4.6 C 1.6 km/h
2867 17-01-2015 02:05:00 4.6 C 6.09 g/m*3 4.6 C 0 km/h
2868 17-01-2015 02:10:00 4.5 C 6.05 g/m*3 4.5 C 4.8 km/h
2869 17-01-2015 02:15:00 4.5 C 6.05 g/m*3 4.5 C 1.6 km/h
2870 17-01-2015 02:20:00 4.6 C 6.02 g/m*3 3.13 C 6.4 km/h
2871 17-01-2015 02:25:00 4.7 C 6.06 g/m*3 4.7 C 3.2 km/h
2872 17-01-2015 02:30:00 4.7 C 6.06 g/m*3 4.7 C 4.8 km/h
2873 17-01-2015 02:35:00 4.9 C 6.14 g/m*3 4.9 C 4.8 km/h
2874 17-01-2015 02:40:00 4.9 C 6.08 g/m*3 4.9 C 4.8 km/h
2875 17-01-2015 02:45:00 5 C 6.12 g/m*3 3.59 C 6.4 km/h
Sensor: Nr:Datum:Temp:Abs-Feuchte:Windchill:Wind:
Aussen-T/F 2876 17-01-2015 02:50:00 5.1 C 6.16 g/m*3 3.71 C 6.4 km/h
2877 17-01-2015 02:55:00 5.1 C 6.16 g/m*3 5.1 C 4.8 km/h
2878 17-01-2015 03:00:00 5.1 C 6.16 g/m*3 5.1 C 4.8 km/h
2879 17-01-2015 03:05:00 5.1 C 6.16 g/m*3 5.1 C 4.8 km/h
2880 17-01-2015 03:10:00 5 C 6.12 g/m*3 3.11 C 8.1 km/h
2881 17-01-2015 03:15:00 5 C 6.12 g/m*3 3.11 C 8.1 km/h
2882 17-01-2015 03:20:00 5 C 6.12 g/m*3 3.59 C 6.4 km/h
2883 17-01-2015 03:25:00 5 C 6.18 g/m*3 3.59 C 6.4 km/h
2884 17-01-2015 03:30:00 5 C 6.18 g/m*3 2.72 C 9.7 km/h
2885 17-01-2015 03:35:00 5 C 6.12 g/m*3 3.11 C 8.1 km/h
2886 17-01-2015 03:40:00 5 C 6.12 g/m*3 3.59 C 6.4 km/h
2887 17-01-2015 03:45:00 5 C 6.12 g/m*3 2.72 C 9.7 km/h
2888 17-01-2015 03:50:00 5 C 6.12 g/m*3 5 C 4.8 km/h
2889 17-01-2015 03:55:00 5 C 6.12 g/m*3 3.11 C 8.1 km/h
2890 17-01-2015 04:00:00 5 C 6.18 g/m*3 5 C 4.8 km/h
2891 17-01-2015 04:05:00 5 C 6.18 g/m*3 5 C 4.8 km/h
2892 17-01-2015 04:10:00 4.9 C 6.14 g/m*3 4.9 C 4.8 km/h
2893 17-01-2015 04:15:00 4.9 C 6.14 g/m*3 4.9 C 4.8 km/h
2894 17-01-2015 04:20:00 4.9 C 6.14 g/m*3 4.9 C 3.2 km/h
2895 17-01-2015 04:25:00 4.9 C 6.14 g/m*3 4.9 C 3.2 km/h
2896 17-01-2015 04:30:00 4.9 C 6.14 g/m*3 4.9 C 3.2 km/h
2897 17-01-2015 04:35:00 4.9 C 6.14 g/m*3 4.9 C 4.8 km/h
2898 17-01-2015 04:40:00 4.9 C 6.14 g/m*3 4.9 C 1.6 km/h
2899 17-01-2015 04:45:00 4.8 C 6.1 g/m*3 4.8 C 3.2 km/h
2900 17-01-2015 04:50:00 4.9 C 6.14 g/m*3 4.9 C 1.6 km/h
Sensor: Nr:Datum:Temp:Abs-Feuchte:Windchill:Wind:
Aussen-T/F 2901 17-01-2015 04:55:00 4.9 C 6.08 g/m*3 4.9 C 0 km/h
2902 17-01-2015 05:00:00 4.9 C 6.14 g/m*3 4.9 C 1.6 km/h
2903 17-01-2015 05:05:00 4.9 C 6.14 g/m*3 4.9 C 0 km/h
2904 17-01-2015 05:10:00 4.9 C 6.14 g/m*3 4.9 C 0 km/h
2905 17-01-2015 05:15:00 4.8 C 6.1 g/m*3 4.8 C 0 km/h
2906 17-01-2015 05:20:00 4.8 C 6.17 g/m*3 4.8 C 1.6 km/h
2907 17-01-2015 05:25:00 4.7 C 6.13 g/m*3 3.25 C 6.4 km/h
2908 17-01-2015 05:30:00 4.6 C 6.09 g/m*3 4.6 C 1.6 km/h
2909 17-01-2015 05:35:00 4.6 C 6.09 g/m*3 4.6 C 1.6 km/h
2910 17-01-2015 05:40:00 4.5 C 6.11 g/m*3 4.5 C 3.2 km/h
2911 17-01-2015 05:45:00 4.4 C 6.07 g/m*3 4.4 C 3.2 km/h
2912 17-01-2015 05:50:00 4.4 C 6.07 g/m*3 4.4 C 4.8 km/h
2913 17-01-2015 05:55:00 4.3 C 6.1 g/m*3 4.3 C 4.8 km/h
2914 17-01-2015 06:00:00 4.3 C 6.1 g/m*3 4.3 C 4.8 km/h
2915 17-01-2015 06:05:00 4.3 C 6.1 g/m*3 4.3 C 1.6 km/h
2916 17-01-2015 06:10:00 4.3 C 6.1 g/m*3 4.3 C 1.6 km/h
2917 17-01-2015 06:15:00 4.2 C 6.06 g/m*3 4.2 C 1.6 km/h
2918 17-01-2015 06:20:00 4.1 C 6.02 g/m*3 4.1 C 1.6 km/h
2919 17-01-2015 06:25:00 4 C 5.98 g/m*3 4 C 1.6 km/h
2920 17-01-2015 06:30:00 3.9 C 6 g/m*3 3.9 C 1.6 km/h
2921 17-01-2015 06:35:00 3.9 C 6 g/m*3 3.9 C 3.2 km/h
2922 17-01-2015 06:40:00 3.9 C 6 g/m*3 3.9 C 3.2 km/h
2923 17-01-2015 06:45:00 3.9 C 6 g/m*3 3.9 C 3.2 km/h
2924 17-01-2015 06:50:00 3.9 C 6 g/m*3 3.9 C 3.2 km/h
2925 17-01-2015 06:55:00 3.8 C 5.96 g/m*3 3.8 C 4.8 km/h
Sensor: Nr:Datum:Temp:Abs-Feuchte:Windchill:Wind:
Aussen-T/F 2926 17-01-2015 07:00:00 3.7 C 5.92 g/m*3 3.7 C 3.2 km/h
2927 17-01-2015 07:05:00 3.6 C 5.88 g/m*3 3.6 C 1.6 km/h
2928 17-01-2015 07:10:00 3.5 C 5.84 g/m*3 3.5 C 0 km/h
2929 17-01-2015 07:15:00 3.4 C 5.8 g/m*3 3.4 C 0 km/h
2930 17-01-2015 07:20:00 3.3 C 5.76 g/m*3 3.3 C 4.8 km/h
2931 17-01-2015 07:25:00 3.3 C 5.76 g/m*3 3.3 C 3.2 km/h
2932 17-01-2015 07:30:00 3.2 C 5.79 g/m*3 3.2 C 4.8 km/h
2933 17-01-2015 07:35:00 3.2 C 5.79 g/m*3 3.2 C 4.8 km/h
2934 17-01-2015 07:40:00 3.1 C 5.75 g/m*3 3.1 C 1.6 km/h
2935 17-01-2015 07:45:00 2.9 C 5.61 g/m*3 2.9 C 3.2 km/h
2936 17-01-2015 07:50:00 2.8 C 5.57 g/m*3 2.8 C 3.2 km/h
2937 17-01-2015 07:55:00 2.7 C 5.54 g/m*3 2.7 C 4.8 km/h
2938 17-01-2015 08:00:00 2.7 C 5.59 g/m*3 2.7 C 4.8 km/h
2939 17-01-2015 08:05:00 2.6 C 5.56 g/m*3 0.82 C 6.4 km/h
2940 17-01-2015 08:10:00 2.6 C 5.56 g/m*3 2.6 C 4.8 km/h
2941 17-01-2015 08:15:00 2.5 C 5.52 g/m*3 2.5 C 4.8 km/h
2942 17-01-2015 08:20:00 2.5 C 5.52 g/m*3 2.5 C 4.8 km/h
2943 17-01-2015 08:25:00 2.5 C 5.52 g/m*3 2.5 C 3.2 km/h
2944 17-01-2015 08:30:00 2.4 C 5.48 g/m*3 2.4 C 3.2 km/h
2945 17-01-2015 08:35:00 2.4 C 5.48 g/m*3 2.4 C 0 km/h
2946 17-01-2015 08:40:00 2.3 C 5.44 g/m*3 2.3 C 4.8 km/h
2947 17-01-2015 08:45:00 2.3 C 5.44 g/m*3 0.47 C 6.4 km/h
2948 17-01-2015 08:50:00 2.4 C 5.48 g/m*3 2.4 C 4.8 km/h
2949 17-01-2015 08:55:00 2.4 C 5.48 g/m*3 2.4 C 3.2 km/h
2950 17-01-2015 09:00:00 2.3 C 5.44 g/m*3 2.3 C 0 km/h
Sensor: Nr:Datum:Temp:Abs-Feuchte:Windchill:Wind:
Aussen-T/F 2951 17-01-2015 09:05:00 2.3 C 5.44 g/m*3 2.3 C 0 km/h
2952 17-01-2015 09:10:00 2.3 C 5.44 g/m*3 2.3 C 0 km/h
2953 17-01-2015 09:15:00 2.3 C 5.44 g/m*3 2.3 C 3.2 km/h
2954 17-01-2015 09:20:00 2.3 C 5.44 g/m*3 2.3 C 3.2 km/h
2955 17-01-2015 09:25:00 2.3 C 5.44 g/m*3 2.3 C 0 km/h
2956 17-01-2015 09:30:00 2.3 C 5.44 g/m*3 2.3 C 0 km/h
2957 17-01-2015 09:35:00 2.3 C 5.44 g/m*3 2.3 C 0 km/h
2958 17-01-2015 09:40:00 2.3 C 5.44 g/m*3 2.3 C 0 km/h
2959 17-01-2015 09:45:00 2.3 C 5.5 g/m*3 2.3 C 0 km/h
2960 17-01-2015 09:50:00 2.3 C 5.44 g/m*3 2.3 C 0 km/h
2961 17-01-2015 09:55:00 2.4 C 5.54 g/m*3 2.4 C 0 km/h
2962 17-01-2015 10:00:00 2.4 C 5.54 g/m*3 2.4 C 0 km/h
2963 17-01-2015 10:05:00 2.5 C 5.58 g/m*3 2.5 C 0 km/h
2964 17-01-2015 10:10:00 2.6 C 5.61 g/m*3 2.6 C 0 km/h
2965 17-01-2015 10:15:00 2.7 C 5.65 g/m*3 2.7 C 4.8 km/h
2966 17-01-2015 10:20:00 2.8 C 5.69 g/m*3 2.8 C 4.8 km/h
2967 17-01-2015 10:25:00 2.8 C 5.69 g/m*3 2.8 C 3.2 km/h
2968 17-01-2015 10:30:00 2.8 C 5.69 g/m*3 2.8 C 1.6 km/h
2969 17-01-2015 10:35:00 2.8 C 5.69 g/m*3 2.8 C 3.2 km/h
2970 17-01-2015 10:40:00 2.9 C 5.73 g/m*3 1.17 C 6.4 km/h
2971 17-01-2015 10:45:00 2.9 C 5.73 g/m*3 2.9 C 1.6 km/h
2972 17-01-2015 10:50:00 2.9 C 5.67 g/m*3 2.9 C 4.8 km/h
2973 17-01-2015 10:55:00 2.9 C 5.67 g/m*3 2.9 C 4.8 km/h
2974 17-01-2015 11:00:00 2.9 C 5.67 g/m*3 2.9 C 1.6 km/h
2975 17-01-2015 11:05:00 2.9 C 5.67 g/m*3 2.9 C 3.2 km/h
Sensor: Nr:Datum:Temp:Abs-Feuchte:Windchill:Wind:
Aussen-T/F 2976 17-01-2015 11:10:00 3 C 5.71 g/m*3 3 C 4.8 km/h
2977 17-01-2015 11:15:00 3 C 5.71 g/m*3 3 C 3.2 km/h
2978 17-01-2015 11:20:00 3.1 C 5.75 g/m*3 3.1 C 1.6 km/h
2979 17-01-2015 11:25:00 3.2 C 5.85 g/m*3 3.2 C 0 km/h
2980 17-01-2015 11:30:00 3.3 C 5.82 g/m*3 3.3 C 0 km/h
2981 17-01-2015 11:35:00 3.3 C 5.82 g/m*3 3.3 C 1.6 km/h
2982 17-01-2015 11:40:00 3.4 C 5.86 g/m*3 1.75 C 6.4 km/h
2983 17-01-2015 11:45:00 3.5 C 5.9 g/m*3 1.86 C 6.4 km/h
2984 17-01-2015 11:50:00 3.6 C 5.94 g/m*3 3.6 C 4.8 km/h
2985 17-01-2015 11:55:00 3.6 C 5.88 g/m*3 3.6 C 3.2 km/h
2986 17-01-2015 12:00:00 3.7 C 5.92 g/m*3 3.7 C 3.2 km/h
2987 17-01-2015 12:05:00 3.7 C 5.86 g/m*3 3.7 C 4.8 km/h
2988 17-01-2015 12:10:00 3.8 C 5.83 g/m*3 3.8 C 3.2 km/h
2989 17-01-2015 12:15:00 3.8 C 5.83 g/m*3 3.8 C 4.8 km/h
2990 17-01-2015 12:20:00 3.9 C 5.81 g/m*3 3.9 C 1.6 km/h
2991 17-01-2015 12:25:00 4 C 5.85 g/m*3 4 C 4.8 km/h
2992 17-01-2015 12:30:00 4.1 C 5.82 g/m*3 4.1 C 1.6 km/h
2993 17-01-2015 12:35:00 4.2 C 5.86 g/m*3 4.2 C 3.2 km/h
2994 17-01-2015 12:40:00 4.2 C 5.8 g/m*3 4.2 C 1.6 km/h
2995 17-01-2015 12:45:00 4.2 C 5.73 g/m*3 4.2 C 4.8 km/h
2996 17-01-2015 12:50:00 4.3 C 5.77 g/m*3 4.3 C 1.6 km/h
2997 17-01-2015 12:55:00 4.3 C 5.71 g/m*3 4.3 C 1.6 km/h
2998 17-01-2015 13:00:00 4.4 C 5.81 g/m*3 4.4 C 1.6 km/h
2999 17-01-2015 13:05:00 4.4 C 5.75 g/m*3 4.4 C 1.6 km/h
3000 17-01-2015 13:10:00 4.4 C 5.75 g/m*3 4.4 C 3.2 km/h
Sensor: Nr:Datum:Temp:Abs-Feuchte:Windchill:Wind:
Aussen-T/F 3001 17-01-2015 13:15:00 4.5 C 5.78 g/m*3 4.5 C 1.6 km/h
3002 17-01-2015 13:20:00 4.6 C 5.76 g/m*3 4.6 C 3.2 km/h
3003 17-01-2015 13:25:00 4.8 C 5.7 g/m*3 4.8 C 4.8 km/h
3004 17-01-2015 13:30:00 4.9 C 5.67 g/m*3 4.9 C 1.6 km/h
3005 17-01-2015 13:35:00 5.1 C 5.68 g/m*3 3.71 C 6.4 km/h
3006 17-01-2015 13:40:00 5.2 C 5.58 g/m*3 5.2 C 4.8 km/h
3007 17-01-2015 13:45:00 5.3 C 5.68 g/m*3 3.94 C 6.4 km/h
3008 17-01-2015 13:50:00 5.3 C 5.61 g/m*3 5.3 C 1.6 km/h
3009 17-01-2015 13:55:00 5.3 C 5.61 g/m*3 5.3 C 4.8 km/h
3010 17-01-2015 14:00:00 5.3 C 5.54 g/m*3 2.75 C 11.3 km/h
3011 17-01-2015 14:05:00 5.4 C 5.51 g/m*3 5.4 C 4.8 km/h
3012 17-01-2015 14:10:00 5.4 C 5.51 g/m*3 4.06 C 6.4 km/h
3013 17-01-2015 14:15:00 5.5 C 5.55 g/m*3 3.7 C 8.1 km/h
3014 17-01-2015 14:20:00 5.6 C 5.66 g/m*3 5.6 C 3.2 km/h
3015 17-01-2015 14:25:00 5.6 C 5.66 g/m*3 3.81 C 8.1 km/h
3016 17-01-2015 14:30:00 5.6 C 5.73 g/m*3 5.6 C 1.6 km/h
3017 17-01-2015 14:35:00 5.6 C 5.66 g/m*3 5.6 C 4.8 km/h
3018 17-01-2015 14:40:00 5.6 C 5.73 g/m*3 4.29 C 6.4 km/h
3019 17-01-2015 14:45:00 5.5 C 5.62 g/m*3 3.7 C 8.1 km/h
3020 17-01-2015 14:50:00 5.5 C 5.48 g/m*3 5.5 C 3.2 km/h
3021 17-01-2015 14:55:00 5.6 C 5.59 g/m*3 5.6 C 4.8 km/h
3022 17-01-2015 15:00:00 5.6 C 5.66 g/m*3 5.6 C 4.8 km/h
3023 17-01-2015 15:05:00 5.6 C 5.59 g/m*3 5.6 C 4.8 km/h
3024 17-01-2015 15:10:00 5.6 C 5.59 g/m*3 4.29 C 6.4 km/h
3025 17-01-2015 15:15:00 5.6 C 5.66 g/m*3 4.29 C 6.4 km/h
Sensor: Nr:Datum:Temp:Abs-Feuchte:Windchill:Wind:
Aussen-T/F 3026 17-01-2015 15:20:00 5.6 C 5.73 g/m*3 5.6 C 4.8 km/h
3027 17-01-2015 15:25:00 5.6 C 5.8 g/m*3 5.6 C 1.6 km/h
3028 17-01-2015 15:30:00 5.5 C 5.62 g/m*3 4.17 C 6.4 km/h
3029 17-01-2015 15:35:00 5.4 C 5.65 g/m*3 5.4 C 0 km/h
3030 17-01-2015 15:40:00 5.4 C 5.58 g/m*3 5.4 C 3.2 km/h
3031 17-01-2015 15:45:00 5.4 C 5.58 g/m*3 5.4 C 1.6 km/h
3032 17-01-2015 15:50:00 5.4 C 5.72 g/m*3 5.4 C 0 km/h
3033 17-01-2015 15:55:00 5.3 C 5.75 g/m*3 5.3 C 0 km/h
3034 17-01-2015 16:00:00 5.2 C 5.78 g/m*3 5.2 C 0 km/h
3035 17-01-2015 16:05:00 5.2 C 5.85 g/m*3 5.2 C 0 km/h
3036 17-01-2015 16:10:00 5.1 C 5.75 g/m*3 5.1 C 1.6 km/h
3037 17-01-2015 16:15:00 5 C 5.64 g/m*3 5 C 0 km/h
3038 17-01-2015 16:20:00 5 C 5.71 g/m*3 5 C 0 km/h
3039 17-01-2015 16:25:00 4.9 C 5.67 g/m*3 4.9 C 3.2 km/h
3040 17-01-2015 16:30:00 4.8 C 5.77 g/m*3 4.8 C 3.2 km/h
3041 17-01-2015 16:35:00 4.8 C 5.83 g/m*3 4.8 C 1.6 km/h
3042 17-01-2015 16:40:00 4.7 C 5.8 g/m*3 4.7 C 3.2 km/h
3043 17-01-2015 16:45:00 4.4 C 5.75 g/m*3 4.4 C 3.2 km/h
3044 17-01-2015 16:50:00 4.2 C 5.73 g/m*3 4.2 C 3.2 km/h
3045 17-01-2015 16:55:00 3.9 C 5.62 g/m*3 3.9 C 3.2 km/h
3046 17-01-2015 17:00:00 3.6 C 5.57 g/m*3 3.6 C 3.2 km/h
3047 17-01-2015 17:05:00 3.3 C 5.46 g/m*3 3.3 C 3.2 km/h
3048 17-01-2015 17:10:00 3.2 C 5.48 g/m*3 3.2 C 3.2 km/h
3049 17-01-2015 17:15:00 2.9 C 5.37 g/m*3 2.9 C 3.2 km/h
3050 17-01-2015 17:20:00 2.8 C 5.34 g/m*3 2.8 C 4.8 km/h
Sensor: Nr:Datum:Temp:Abs-Feuchte:Windchill:Wind:
Aussen-T/F 3051 17-01-2015 17:25:00 2.7 C 5.36 g/m*3 2.7 C 3.2 km/h
3052 17-01-2015 17:30:00 2.6 C 5.32 g/m*3 2.6 C 4.8 km/h
3053 17-01-2015 17:35:00 2.5 C 5.29 g/m*3 2.5 C 3.2 km/h
3054 17-01-2015 17:40:00 2.4 C 5.25 g/m*3 0.59 C 6.4 km/h
3055 17-01-2015 17:45:00 2.3 C 5.27 g/m*3 2.3 C 3.2 km/h
3056 17-01-2015 17:50:00 2.2 C 5.24 g/m*3 2.2 C 3.2 km/h
3057 17-01-2015 17:55:00 2.2 C 5.24 g/m*3 2.2 C 3.2 km/h
3058 17-01-2015 18:00:00 2.1 C 5.2 g/m*3 2.1 C 1.6 km/h
3059 17-01-2015 18:05:00 1.9 C 5.13 g/m*3 1.9 C 3.2 km/h
3060 17-01-2015 18:10:00 1.9 C 5.13 g/m*3 1.9 C 1.6 km/h
3061 17-01-2015 18:15:00 1.9 C 5.19 g/m*3 1.9 C 1.6 km/h
3062 17-01-2015 18:20:00 1.8 C 5.15 g/m*3 1.8 C 1.6 km/h
3063 17-01-2015 18:25:00 1.8 C 5.15 g/m*3 1.8 C 3.2 km/h
3064 17-01-2015 18:30:00 1.7 C 5.12 g/m*3 1.7 C 3.2 km/h
3065 17-01-2015 18:35:00 1.7 C 5.12 g/m*3 1.7 C 1.6 km/h
3066 17-01-2015 18:40:00 1.7 C 5.12 g/m*3 1.7 C 1.6 km/h
3067 17-01-2015 18:45:00 1.6 C 5.08 g/m*3 1.6 C 0 km/h
3068 17-01-2015 18:50:00 1.4 C 5.01 g/m*3 1.4 C 1.6 km/h
3069 17-01-2015 18:55:00 1.3 C 4.98 g/m*3 1.3 C 0 km/h
3070 17-01-2015 19:00:00 1.3 C 4.98 g/m*3 1.3 C 0 km/h
3071 17-01-2015 19:05:00 1.2 C 4.95 g/m*3 1.2 C 0 km/h
3072 17-01-2015 19:10:00 1.1 C 4.91 g/m*3 1.1 C 1.6 km/h
3073 17-01-2015 19:15:00 1 C 4.88 g/m*3 1 C 0 km/h
3074 17-01-2015 19:20:00 0.9 C 4.85 g/m*3 0.9 C 0 km/h
3075 17-01-2015 19:25:00 0.9 C 4.85 g/m*3 0.9 C 0 km/h
Sensor: Nr:Datum:Temp:Abs-Feuchte:Windchill:Wind:
Aussen-T/F 3076 17-01-2015 19:30:00 0.8 C 4.81 g/m*3 0.8 C 0 km/h
3077 17-01-2015 19:35:00 0.8 C 4.81 g/m*3 0.8 C 0 km/h
3078 17-01-2015 19:40:00 0.7 C 4.83 g/m*3 0.7 C 0 km/h
3079 17-01-2015 19:45:00 0.7 C 4.83 g/m*3 0.7 C 0 km/h
3080 17-01-2015 19:50:00 0.7 C 4.83 g/m*3 0.7 C 0 km/h
3081 17-01-2015 19:55:00 0.7 C 4.83 g/m*3 0.7 C 3.2 km/h
3082 17-01-2015 20:00:00 0.7 C 4.83 g/m*3 0.7 C 3.2 km/h
3083 17-01-2015 20:05:00 0.7 C 4.83 g/m*3 0.7 C 1.6 km/h
3084 17-01-2015 20:10:00 0.7 C 4.83 g/m*3 0.7 C 0 km/h
3085 17-01-2015 20:15:00 0.6 C 4.8 g/m*3 0.6 C 0 km/h
3086 17-01-2015 20:20:00 0.5 C 4.76 g/m*3 0.5 C 0 km/h
3087 17-01-2015 20:25:00 0.5 C 4.76 g/m*3 0.5 C 1.6 km/h
3088 17-01-2015 20:30:00 0.4 C 4.73 g/m*3 0.4 C 0 km/h
3089 17-01-2015 20:35:00 0.4 C 4.73 g/m*3 0.4 C 0 km/h
3090 17-01-2015 20:40:00 0.4 C 4.73 g/m*3 0.4 C 0 km/h
3091 17-01-2015 20:45:00 0.4 C 4.73 g/m*3 0.4 C 0 km/h
3092 17-01-2015 20:50:00 0.4 C 4.73 g/m*3 0.4 C 1.6 km/h
3093 17-01-2015 20:55:00 0.4 C 4.73 g/m*3 0.4 C 0 km/h
3094 17-01-2015 21:00:00 0.3 C 4.7 g/m*3 0.3 C 0 km/h
3095 17-01-2015 21:05:00 0.2 C 4.67 g/m*3 0.2 C 0 km/h
3096 17-01-2015 21:10:00 0.2 C 4.67 g/m*3 0.2 C 0 km/h
3097 17-01-2015 21:15:00 0.1 C 4.63 g/m*3 0.1 C 1.6 km/h
3098 17-01-2015 21:20:00 0.1 C 4.63 g/m*3 0.1 C 0 km/h
3099 17-01-2015 21:25:00 0.1 C 4.63 g/m*3 0.1 C 0 km/h
3100 17-01-2015 21:30:00 0.1 C 4.63 g/m*3 0.1 C 3.2 km/h
Sensor: Nr:Datum:Temp:Abs-Feuchte:Windchill:Wind:
Aussen-T/F 3101 17-01-2015 21:35:00 0.1 C 4.63 g/m*3 0.1 C 3.2 km/h
3102 17-01-2015 21:40:00 0.1 C 4.63 g/m*3 0.1 C 1.6 km/h
3103 17-01-2015 21:45:00 0.1 C 4.63 g/m*3 0.1 C 0 km/h
3104 17-01-2015 21:50:00 0 C 4.6 g/m*3 0 C 1.6 km/h
3105 17-01-2015 21:55:00 -0.1 C 4.57 g/m*3 -0.1 C 0 km/h
3106 17-01-2015 22:00:00 -0.2 C 4.54 g/m*3 -0.2 C 1.6 km/h
3107 17-01-2015 22:05:00 -0.2 C 4.54 g/m*3 -0.2 C 1.6 km/h
3108 17-01-2015 22:10:00 -0.1 C 4.57 g/m*3 -0.1 C 3.2 km/h
3109 17-01-2015 22:15:00 -0.1 C 4.57 g/m*3 -0.1 C 1.6 km/h
3110 17-01-2015 22:20:00 0.1 C 4.68 g/m*3 0.1 C 1.6 km/h
3111 17-01-2015 22:25:00 0.1 C 4.68 g/m*3 0.1 C 3.2 km/h
3112 17-01-2015 22:30:00 0.3 C 4.75 g/m*3 0.3 C 4.8 km/h
3113 17-01-2015 22:35:00 0.6 C 4.85 g/m*3 0.6 C 3.2 km/h
3114 17-01-2015 22:40:00 1 C 4.93 g/m*3 -2.78 C 12.9 km/h
3115 17-01-2015 22:45:00 1.4 C 5.01 g/m*3 -1.12 C 8.1 km/h
3116 17-01-2015 22:50:00 1.7 C 5.01 g/m*3 -0.22 C 6.4 km/h
3117 17-01-2015 22:55:00 1.9 C 4.97 g/m*3 -1.35 C 11.3 km/h
3118 17-01-2015 23:00:00 2.1 C 4.98 g/m*3 -0.73 C 9.7 km/h
3119 17-01-2015 23:05:00 2.1 C 4.92 g/m*3 2.1 C 3.2 km/h
3120 17-01-2015 23:10:00 2.2 C 4.96 g/m*3 -0.18 C 8.1 km/h
3121 17-01-2015 23:15:00 2.2 C 4.9 g/m*3 -0.61 C 9.7 km/h
3122 17-01-2015 23:20:00 2.2 C 4.9 g/m*3 -0.61 C 9.7 km/h
3123 17-01-2015 23:25:00 2.3 C 4.93 g/m*3 -0.87 C 11.3 km/h
3124 17-01-2015 23:30:00 2.4 C 4.91 g/m*3 -0.37 C 9.7 km/h
3125 17-01-2015 23:35:00 2.4 C 4.91 g/m*3 0.59 C 6.4 km/h
Sensor: Nr:Datum:Temp:Abs-Feuchte:Windchill:Wind:
Aussen-T/F 3126 17-01-2015 23:40:00 2.4 C 4.91 g/m*3 -0.74 C 11.3 km/h
3127 17-01-2015 23:45:00 2.4 C 4.85 g/m*3 -0.37 C 9.7 km/h
3128 17-01-2015 23:50:00 2.4 C 4.85 g/m*3 -0.37 C 9.7 km/h
3129 17-01-2015 23:55:00 2.4 C 4.85 g/m*3 -0.37 C 9.7 km/h
3130 18-01-2015 00:00:00 2.4 C 4.85 g/m*3 0.59 C 6.4 km/h
3131 18-01-2015 00:05:00 2.3 C 4.76 g/m*3 2.3 C 4.8 km/h
3132 18-01-2015 00:10:00 2.3 C 4.76 g/m*3 -0.49 C 9.7 km/h
3133 18-01-2015 00:15:00 2.2 C 4.73 g/m*3 -0.61 C 9.7 km/h
3134 18-01-2015 00:20:00 2.2 C 4.73 g/m*3 -0.99 C 11.3 km/h
3135 18-01-2015 00:25:00 2.2 C 4.73 g/m*3 -0.99 C 11.3 km/h
3136 18-01-2015 00:30:00 2.1 C 4.7 g/m*3 2.1 C 4.8 km/h
3137 18-01-2015 00:35:00 1.8 C 4.66 g/m*3 -0.1 C 6.4 km/h
3138 18-01-2015 00:40:00 1.7 C 4.63 g/m*3 1.7 C 4.8 km/h
3139 18-01-2015 00:45:00 1.7 C 4.63 g/m*3 1.7 C 4.8 km/h
3140 18-01-2015 00:50:00 1.6 C 4.65 g/m*3 1.6 C 4.8 km/h
3141 18-01-2015 00:55:00 1.6 C 4.65 g/m*3 1.6 C 3.2 km/h
3142 18-01-2015 01:00:00 1.5 C 4.62 g/m*3 1.5 C 4.8 km/h
3143 18-01-2015 01:05:00 1.6 C 4.65 g/m*3 -0.33 C 6.4 km/h
3144 18-01-2015 01:10:00 1.4 C 4.59 g/m*3 1.4 C 3.2 km/h
3145 18-01-2015 01:15:00 1.2 C 4.63 g/m*3 1.2 C 3.2 km/h
3146 18-01-2015 01:20:00 1.1 C 4.6 g/m*3 1.1 C 1.6 km/h
3147 18-01-2015 01:25:00 1.1 C 4.65 g/m*3 1.1 C 1.6 km/h
3148 18-01-2015 01:30:00 1.1 C 4.65 g/m*3 -1.48 C 8.1 km/h
3149 18-01-2015 01:35:00 1.3 C 4.72 g/m*3 1.3 C 4.8 km/h
3150 18-01-2015 01:40:00 1.7 C 4.74 g/m*3 1.7 C 4.8 km/h
Sensor: Nr:Datum:Temp:Abs-Feuchte:Windchill:Wind:
Aussen-T/F 3151 18-01-2015 01:45:00 1.8 C 4.71 g/m*3 1.8 C 4.8 km/h
3152 18-01-2015 01:50:00 2 C 4.72 g/m*3 -1.23 C 11.3 km/h
3153 18-01-2015 01:55:00 2.1 C 4.76 g/m*3 -0.3 C 8.1 km/h
3154 18-01-2015 02:00:00 2.1 C 4.76 g/m*3 0.24 C 6.4 km/h
3155 18-01-2015 02:05:00 2.2 C 4.79 g/m*3 2.2 C 4.8 km/h
3156 18-01-2015 02:10:00 2.2 C 4.73 g/m*3 0.36 C 6.4 km/h
3157 18-01-2015 02:15:00 2.2 C 4.73 g/m*3 2.2 C 4.8 km/h
3158 18-01-2015 02:20:00 2.2 C 4.73 g/m*3 0.36 C 6.4 km/h
3159 18-01-2015 02:25:00 2.3 C 4.76 g/m*3 -0.07 C 8.1 km/h
3160 18-01-2015 02:30:00 2.4 C 4.8 g/m*3 -0.74 C 11.3 km/h
3161 18-01-2015 02:35:00 2.4 C 4.74 g/m*3 0.59 C 6.4 km/h
3162 18-01-2015 02:40:00 2.4 C 4.8 g/m*3 -0.37 C 9.7 km/h
3163 18-01-2015 02:45:00 2.5 C 4.77 g/m*3 0.71 C 6.4 km/h
3164 18-01-2015 02:50:00 2.6 C 4.8 g/m*3 -1.87 C 19.3 km/h
3165 18-01-2015 02:55:00 2.7 C 4.78 g/m*3 -1.74 C 19.3 km/h
3166 18-01-2015 03:00:00 2.7 C 4.78 g/m*3 -0.38 C 11.3 km/h
3167 18-01-2015 03:05:00 2.7 C 4.78 g/m*3 -0.02 C 9.7 km/h
3168 18-01-2015 03:10:00 2.7 C 4.78 g/m*3 -0.71 C 12.9 km/h
3169 18-01-2015 03:15:00 2.6 C 4.75 g/m*3 2.6 C 4.8 km/h
3170 18-01-2015 03:20:00 2.6 C 4.75 g/m*3 0.29 C 8.1 km/h
3171 18-01-2015 03:25:00 2.6 C 4.69 g/m*3 -0.14 C 9.7 km/h
3172 18-01-2015 03:30:00 2.6 C 4.75 g/m*3 0.29 C 8.1 km/h
3173 18-01-2015 03:35:00 2.6 C 4.75 g/m*3 0.82 C 6.4 km/h
3174 18-01-2015 03:40:00 2.6 C 4.69 g/m*3 -0.5 C 11.3 km/h
3175 18-01-2015 03:45:00 2.6 C 4.69 g/m*3 2.6 C 4.8 km/h
Sensor: Nr:Datum:Temp:Abs-Feuchte:Windchill:Wind:
Aussen-T/F 3176 18-01-2015 03:50:00 2.6 C 4.69 g/m*3 2.6 C 4.8 km/h
3177 18-01-2015 03:55:00 2.6 C 4.69 g/m*3 0.82 C 6.4 km/h
3178 18-01-2015 04:00:00 2.6 C 4.69 g/m*3 2.6 C 1.6 km/h
3179 18-01-2015 04:05:00 2.6 C 4.63 g/m*3 0.29 C 8.1 km/h
3180 18-01-2015 04:10:00 2.6 C 4.69 g/m*3 2.6 C 3.2 km/h
3181 18-01-2015 04:15:00 2.6 C 4.63 g/m*3 -0.5 C 11.3 km/h
3182 18-01-2015 04:20:00 2.6 C 4.57 g/m*3 0.29 C 8.1 km/h
3183 18-01-2015 04:25:00 2.6 C 4.57 g/m*3 -0.14 C 9.7 km/h
3184 18-01-2015 04:30:00 2.6 C 4.57 g/m*3 2.6 C 3.2 km/h
3185 18-01-2015 04:35:00 2.4 C 4.62 g/m*3 2.4 C 4.8 km/h
3186 18-01-2015 04:40:00 2.3 C 4.59 g/m*3 2.3 C 0 km/h
3187 18-01-2015 04:45:00 2.2 C 4.62 g/m*3 2.2 C 1.6 km/h
3188 18-01-2015 04:50:00 1.9 C 4.58 g/m*3 1.9 C 0 km/h
3189 18-01-2015 04:55:00 1.7 C 4.63 g/m*3 1.7 C 1.6 km/h
3190 18-01-2015 05:00:00 1.5 C 4.62 g/m*3 1.5 C 0 km/h
3191 18-01-2015 05:05:00 1.3 C 4.61 g/m*3 1.3 C 3.2 km/h
3192 18-01-2015 05:10:00 1.2 C 4.58 g/m*3 1.2 C 3.2 km/h
3193 18-01-2015 05:15:00 1.1 C 4.6 g/m*3 1.1 C 3.2 km/h
3194 18-01-2015 05:20:00 0.9 C 4.59 g/m*3 0.9 C 3.2 km/h
3195 18-01-2015 05:25:00 0.8 C 4.56 g/m*3 0.8 C 1.6 km/h
3196 18-01-2015 05:30:00 0.7 C 4.58 g/m*3 0.7 C 1.6 km/h
3197 18-01-2015 05:35:00 0.6 C 4.54 g/m*3 0.6 C 1.6 km/h
3198 18-01-2015 05:40:00 0.6 C 4.54 g/m*3 0.6 C 3.2 km/h
3199 18-01-2015 05:45:00 0.5 C 4.56 g/m*3 0.5 C 1.6 km/h
3200 18-01-2015 05:50:00 0.5 C 4.56 g/m*3 0.5 C 0 km/h
Sensor: Nr:Datum:Temp:Abs-Feuchte:Windchill:Wind:
Aussen-T/F 3201 18-01-2015 05:55:00 0.5 C 4.56 g/m*3 0.5 C 1.6 km/h
3202 18-01-2015 06:00:00 0.5 C 4.56 g/m*3 0.5 C 1.6 km/h
3203 18-01-2015 06:05:00 0.5 C 4.56 g/m*3 0.5 C 3.2 km/h
3204 18-01-2015 06:10:00 0.5 C 4.56 g/m*3 0.5 C 3.2 km/h
3205 18-01-2015 06:15:00 0.4 C 4.53 g/m*3 0.4 C 3.2 km/h
3206 18-01-2015 06:20:00 0.5 C 4.56 g/m*3 0.5 C 1.6 km/h
3207 18-01-2015 06:25:00 0.4 C 4.53 g/m*3 0.4 C 3.2 km/h
3208 18-01-2015 06:30:00 0.4 C 4.53 g/m*3 0.4 C 3.2 km/h
3209 18-01-2015 06:35:00 0.6 C 4.6 g/m*3 0.6 C 3.2 km/h
3210 18-01-2015 06:40:00 0.7 C 4.58 g/m*3 0.7 C 1.6 km/h
3211 18-01-2015 06:45:00 0.8 C 4.56 g/m*3 -1.26 C 6.4 km/h
3212 18-01-2015 06:50:00 0.9 C 4.59 g/m*3 0.9 C 4.8 km/h
3213 18-01-2015 06:55:00 1 C 4.62 g/m*3 1 C 4.8 km/h
3214 18-01-2015 07:00:00 1 C 4.57 g/m*3 1 C 3.2 km/h
3215 18-01-2015 07:05:00 1 C 4.62 g/m*3 1 C 0 km/h
3216 18-01-2015 07:10:00 1 C 4.62 g/m*3 1 C 1.6 km/h
3217 18-01-2015 07:15:00 0.9 C 4.59 g/m*3 0.9 C 0 km/h
3218 18-01-2015 07:20:00 0.9 C 4.59 g/m*3 0.9 C 0 km/h
3219 18-01-2015 07:25:00 1.1 C